<?xml version="1.0" encoding="UTF-8" standalone="no" ?>
<gpx xmlns="http://www.topografix.com/GPX/1/1" xmlns:xsi="http://www.w3.org/2001/XMLSchema-instance" xsi:schemaLocation="http://www.topografix.com/GPX/1/1 http://www.topografix.com/GPX/1/1/gpx.xsd" version="1.1" creator="VisuGPX - https://www.visugpx.com">
  <metadata>
    <name>Bourg de Sirod,Cote Poire,Le vieux chêne,La roche des Sarrasins,Syam,Les Pertes de l'Ain.</name>
  </metadata>
  <trk>
    <name><![CDATA[Bourg de Sirod,Cote Poire,Le vieux chêne,La roche des Sarrasins,Syam,Les Pertes de l'Ain._1]]></name>
    <trkseg>
      <trkpt lat="46.72839" lon="5.96023">
        <ele>584.6</ele>
        <time>2020-07-05T11:57:59Z</time>
      </trkpt>
      <trkpt lat="46.72834" lon="5.96017">
        <ele>594.8</ele>
        <time>2020-07-05T12:01:38Z</time>
      </trkpt>
      <trkpt lat="46.72831" lon="5.96013">
        <ele>594.1</ele>
        <time>2020-07-05T12:01:42Z</time>
      </trkpt>
      <trkpt lat="46.72826" lon="5.96008">
        <ele>593.2</ele>
        <time>2020-07-05T12:01:47Z</time>
      </trkpt>
      <trkpt lat="46.72823" lon="5.96004">
        <ele>592.2</ele>
        <time>2020-07-05T12:01:53Z</time>
      </trkpt>
      <trkpt lat="46.72818" lon="5.95999">
        <ele>591.5</ele>
        <time>2020-07-05T12:01:59Z</time>
      </trkpt>
      <trkpt lat="46.72814" lon="5.95996">
        <ele>591.1</ele>
        <time>2020-07-05T12:02:02Z</time>
      </trkpt>
      <trkpt lat="46.72809" lon="5.95993">
        <ele>590.4</ele>
        <time>2020-07-05T12:02:07Z</time>
      </trkpt>
      <trkpt lat="46.72805" lon="5.95988">
        <ele>589.7</ele>
        <time>2020-07-05T12:02:12Z</time>
      </trkpt>
      <trkpt lat="46.72802" lon="5.95983">
        <ele>588.9</ele>
        <time>2020-07-05T12:02:17Z</time>
      </trkpt>
      <trkpt lat="46.72798" lon="5.95979">
        <ele>588.3</ele>
        <time>2020-07-05T12:02:21Z</time>
      </trkpt>
      <trkpt lat="46.72793" lon="5.95976">
        <ele>587.5</ele>
        <time>2020-07-05T12:02:26Z</time>
      </trkpt>
      <trkpt lat="46.72791" lon="5.95969">
        <ele>586.6</ele>
        <time>2020-07-05T12:02:32Z</time>
      </trkpt>
      <trkpt lat="46.72792" lon="5.95962">
        <ele>586.3</ele>
        <time>2020-07-05T12:02:35Z</time>
      </trkpt>
      <trkpt lat="46.72792" lon="5.95955">
        <ele>586.1</ele>
        <time>2020-07-05T12:02:40Z</time>
      </trkpt>
      <trkpt lat="46.72789" lon="5.95948">
        <ele>586</ele>
        <time>2020-07-05T12:02:46Z</time>
      </trkpt>
      <trkpt lat="46.72785" lon="5.95948">
        <ele>586.1</ele>
        <time>2020-07-05T12:02:50Z</time>
      </trkpt>
      <trkpt lat="46.7278" lon="5.95949">
        <ele>586</ele>
        <time>2020-07-05T12:02:57Z</time>
      </trkpt>
      <trkpt lat="46.72775" lon="5.95948">
        <ele>585.7</ele>
        <time>2020-07-05T12:03:03Z</time>
      </trkpt>
      <trkpt lat="46.7277" lon="5.95946">
        <ele>585.4</ele>
        <time>2020-07-05T12:03:08Z</time>
      </trkpt>
      <trkpt lat="46.72765" lon="5.95943">
        <ele>585.1</ele>
        <time>2020-07-05T12:03:14Z</time>
      </trkpt>
      <trkpt lat="46.72761" lon="5.95939">
        <ele>584.9</ele>
        <time>2020-07-05T12:03:19Z</time>
      </trkpt>
      <trkpt lat="46.72757" lon="5.95934">
        <ele>584.7</ele>
        <time>2020-07-05T12:03:24Z</time>
      </trkpt>
      <trkpt lat="46.72752" lon="5.95929">
        <ele>584.6</ele>
        <time>2020-07-05T12:03:28Z</time>
      </trkpt>
      <trkpt lat="46.72748" lon="5.95926">
        <ele>584.4</ele>
        <time>2020-07-05T12:03:33Z</time>
      </trkpt>
      <trkpt lat="46.72744" lon="5.95923">
        <ele>584.2</ele>
        <time>2020-07-05T12:03:39Z</time>
      </trkpt>
      <trkpt lat="46.72739" lon="5.9592">
        <ele>584.1</ele>
        <time>2020-07-05T12:03:44Z</time>
      </trkpt>
      <trkpt lat="46.72734" lon="5.95916">
        <ele>583.9</ele>
        <time>2020-07-05T12:03:49Z</time>
      </trkpt>
      <trkpt lat="46.7273" lon="5.95913">
        <ele>583.7</ele>
        <time>2020-07-05T12:03:53Z</time>
      </trkpt>
      <trkpt lat="46.72725" lon="5.9591">
        <ele>583.4</ele>
        <time>2020-07-05T12:03:57Z</time>
      </trkpt>
      <trkpt lat="46.7272" lon="5.95908">
        <ele>583.1</ele>
        <time>2020-07-05T12:04:01Z</time>
      </trkpt>
      <trkpt lat="46.72715" lon="5.95907">
        <ele>582.7</ele>
        <time>2020-07-05T12:04:05Z</time>
      </trkpt>
      <trkpt lat="46.7271" lon="5.95905">
        <ele>582.1</ele>
        <time>2020-07-05T12:04:10Z</time>
      </trkpt>
      <trkpt lat="46.72705" lon="5.95902">
        <ele>581.5</ele>
        <time>2020-07-05T12:04:15Z</time>
      </trkpt>
      <trkpt lat="46.72701" lon="5.95899">
        <ele>580.8</ele>
        <time>2020-07-05T12:04:21Z</time>
      </trkpt>
      <trkpt lat="46.72697" lon="5.95896">
        <ele>580.3</ele>
        <time>2020-07-05T12:04:26Z</time>
      </trkpt>
      <trkpt lat="46.72692" lon="5.95893">
        <ele>579.9</ele>
        <time>2020-07-05T12:04:30Z</time>
      </trkpt>
      <trkpt lat="46.72687" lon="5.9589">
        <ele>579.6</ele>
        <time>2020-07-05T12:04:35Z</time>
      </trkpt>
      <trkpt lat="46.72683" lon="5.95887">
        <ele>579.4</ele>
        <time>2020-07-05T12:04:39Z</time>
      </trkpt>
      <trkpt lat="46.72679" lon="5.95884">
        <ele>579.3</ele>
        <time>2020-07-05T12:04:42Z</time>
      </trkpt>
      <trkpt lat="46.72674" lon="5.95881">
        <ele>579.4</ele>
        <time>2020-07-05T12:04:46Z</time>
      </trkpt>
      <trkpt lat="46.7267" lon="5.95879">
        <ele>579.5</ele>
        <time>2020-07-05T12:04:50Z</time>
      </trkpt>
      <trkpt lat="46.72665" lon="5.95875">
        <ele>579.6</ele>
        <time>2020-07-05T12:04:55Z</time>
      </trkpt>
      <trkpt lat="46.72661" lon="5.95872">
        <ele>579.5</ele>
        <time>2020-07-05T12:05:00Z</time>
      </trkpt>
      <trkpt lat="46.72656" lon="5.95869">
        <ele>579.3</ele>
        <time>2020-07-05T12:05:05Z</time>
      </trkpt>
      <trkpt lat="46.72651" lon="5.95868">
        <ele>579.2</ele>
        <time>2020-07-05T12:05:09Z</time>
      </trkpt>
      <trkpt lat="46.72646" lon="5.95867">
        <ele>578.8</ele>
        <time>2020-07-05T12:05:14Z</time>
      </trkpt>
      <trkpt lat="46.72642" lon="5.95867">
        <ele>578.4</ele>
        <time>2020-07-05T12:05:18Z</time>
      </trkpt>
      <trkpt lat="46.72636" lon="5.95864">
        <ele>578.1</ele>
        <time>2020-07-05T12:05:22Z</time>
      </trkpt>
      <trkpt lat="46.72631" lon="5.95861">
        <ele>577.7</ele>
        <time>2020-07-05T12:05:27Z</time>
      </trkpt>
      <trkpt lat="46.72627" lon="5.95858">
        <ele>577.5</ele>
        <time>2020-07-05T12:05:31Z</time>
      </trkpt>
      <trkpt lat="46.72623" lon="5.95855">
        <ele>577.4</ele>
        <time>2020-07-05T12:05:36Z</time>
      </trkpt>
      <trkpt lat="46.72618" lon="5.95853">
        <ele>577.6</ele>
        <time>2020-07-05T12:05:41Z</time>
      </trkpt>
      <trkpt lat="46.72613" lon="5.9585">
        <ele>577.8</ele>
        <time>2020-07-05T12:05:45Z</time>
      </trkpt>
      <trkpt lat="46.72609" lon="5.95845">
        <ele>578.1</ele>
        <time>2020-07-05T12:05:49Z</time>
      </trkpt>
      <trkpt lat="46.72606" lon="5.95841">
        <ele>578.4</ele>
        <time>2020-07-05T12:05:55Z</time>
      </trkpt>
      <trkpt lat="46.72601" lon="5.95838">
        <ele>578.6</ele>
        <time>2020-07-05T12:06:00Z</time>
      </trkpt>
      <trkpt lat="46.72596" lon="5.95835">
        <ele>578.7</ele>
        <time>2020-07-05T12:06:04Z</time>
      </trkpt>
      <trkpt lat="46.72592" lon="5.95831">
        <ele>579</ele>
        <time>2020-07-05T12:06:08Z</time>
      </trkpt>
      <trkpt lat="46.72587" lon="5.95828">
        <ele>579.1</ele>
        <time>2020-07-05T12:06:14Z</time>
      </trkpt>
      <trkpt lat="46.72583" lon="5.95824">
        <ele>578.8</ele>
        <time>2020-07-05T12:06:19Z</time>
      </trkpt>
      <trkpt lat="46.72578" lon="5.95822">
        <ele>578.7</ele>
        <time>2020-07-05T12:06:23Z</time>
      </trkpt>
      <trkpt lat="46.72574" lon="5.95819">
        <ele>578.6</ele>
        <time>2020-07-05T12:06:27Z</time>
      </trkpt>
      <trkpt lat="46.72569" lon="5.95816">
        <ele>578.4</ele>
        <time>2020-07-05T12:06:32Z</time>
      </trkpt>
      <trkpt lat="46.72564" lon="5.95813">
        <ele>578.1</ele>
        <time>2020-07-05T12:06:38Z</time>
      </trkpt>
      <trkpt lat="46.72559" lon="5.95812">
        <ele>577.9</ele>
        <time>2020-07-05T12:06:43Z</time>
      </trkpt>
      <trkpt lat="46.72554" lon="5.9581">
        <ele>577.8</ele>
        <time>2020-07-05T12:06:47Z</time>
      </trkpt>
      <trkpt lat="46.72549" lon="5.95808">
        <ele>577.6</ele>
        <time>2020-07-05T12:06:51Z</time>
      </trkpt>
      <trkpt lat="46.72545" lon="5.95805">
        <ele>577.6</ele>
        <time>2020-07-05T12:06:56Z</time>
      </trkpt>
      <trkpt lat="46.7254" lon="5.95803">
        <ele>577.3</ele>
        <time>2020-07-05T12:07:02Z</time>
      </trkpt>
      <trkpt lat="46.72536" lon="5.95804">
        <ele>576.7</ele>
        <time>2020-07-05T12:07:16Z</time>
      </trkpt>
      <trkpt lat="46.72531" lon="5.958">
        <ele>576.7</ele>
        <time>2020-07-05T12:07:26Z</time>
      </trkpt>
      <trkpt lat="46.72528" lon="5.95795">
        <ele>576.8</ele>
        <time>2020-07-05T12:07:33Z</time>
      </trkpt>
      <trkpt lat="46.72525" lon="5.95788">
        <ele>577.1</ele>
        <time>2020-07-05T12:07:39Z</time>
      </trkpt>
      <trkpt lat="46.72521" lon="5.95785">
        <ele>577</ele>
        <time>2020-07-05T12:07:54Z</time>
      </trkpt>
      <trkpt lat="46.72525" lon="5.95782">
        <ele>577.2</ele>
        <time>2020-07-05T12:08:07Z</time>
      </trkpt>
      <trkpt lat="46.7253" lon="5.9578">
        <ele>576.7</ele>
        <time>2020-07-05T12:08:17Z</time>
      </trkpt>
      <trkpt lat="46.72532" lon="5.95773">
        <ele>575</ele>
        <time>2020-07-05T12:08:28Z</time>
      </trkpt>
      <trkpt lat="46.72535" lon="5.95768">
        <ele>573.6</ele>
        <time>2020-07-05T12:08:36Z</time>
      </trkpt>
      <trkpt lat="46.72538" lon="5.95763">
        <ele>572.8</ele>
        <time>2020-07-05T12:08:42Z</time>
      </trkpt>
      <trkpt lat="46.72541" lon="5.95756">
        <ele>571.4</ele>
        <time>2020-07-05T12:08:49Z</time>
      </trkpt>
      <trkpt lat="46.72544" lon="5.95751">
        <ele>569.2</ele>
        <time>2020-07-05T12:08:57Z</time>
      </trkpt>
      <trkpt lat="46.72546" lon="5.95745">
        <ele>566.8</ele>
        <time>2020-07-05T12:09:05Z</time>
      </trkpt>
      <trkpt lat="46.72548" lon="5.95739">
        <ele>563.3</ele>
        <time>2020-07-05T12:09:19Z</time>
      </trkpt>
      <trkpt lat="46.72549" lon="5.95725">
        <ele>559.2</ele>
        <time>2020-07-05T12:09:39Z</time>
      </trkpt>
      <trkpt lat="46.7255" lon="5.95717">
        <ele>557.7</ele>
        <time>2020-07-05T12:09:47Z</time>
      </trkpt>
      <trkpt lat="46.72551" lon="5.9571">
        <ele>557.4</ele>
        <time>2020-07-05T12:09:49Z</time>
      </trkpt>
      <trkpt lat="46.72547" lon="5.95703">
        <ele>549.6</ele>
        <time>2020-07-05T12:10:51Z</time>
      </trkpt>
      <trkpt lat="46.72543" lon="5.95701">
        <ele>548.3</ele>
        <time>2020-07-05T12:11:01Z</time>
      </trkpt>
      <trkpt lat="46.72538" lon="5.95702">
        <ele>547.7</ele>
        <time>2020-07-05T12:11:07Z</time>
      </trkpt>
      <trkpt lat="46.72533" lon="5.95702">
        <ele>547.4</ele>
        <time>2020-07-05T12:11:15Z</time>
      </trkpt>
      <trkpt lat="46.72528" lon="5.95703">
        <ele>547.5</ele>
        <time>2020-07-05T12:11:18Z</time>
      </trkpt>
      <trkpt lat="46.72523" lon="5.95704">
        <ele>548.3</ele>
        <time>2020-07-05T12:11:32Z</time>
      </trkpt>
      <trkpt lat="46.72516" lon="5.95706">
        <ele>548.8</ele>
        <time>2020-07-05T12:11:38Z</time>
      </trkpt>
      <trkpt lat="46.7251" lon="5.95704">
        <ele>549</ele>
        <time>2020-07-05T12:11:40Z</time>
      </trkpt>
      <trkpt lat="46.725" lon="5.95696">
        <ele>550.2</ele>
        <time>2020-07-05T12:11:49Z</time>
      </trkpt>
      <trkpt lat="46.72498" lon="5.9569">
        <ele>549.8</ele>
        <time>2020-07-05T12:11:55Z</time>
      </trkpt>
      <trkpt lat="46.72496" lon="5.95683">
        <ele>549.2</ele>
        <time>2020-07-05T12:12:00Z</time>
      </trkpt>
      <trkpt lat="46.72494" lon="5.95677">
        <ele>548</ele>
        <time>2020-07-05T12:12:06Z</time>
      </trkpt>
      <trkpt lat="46.7249" lon="5.95672">
        <ele>546.9</ele>
        <time>2020-07-05T12:12:11Z</time>
      </trkpt>
      <trkpt lat="46.72487" lon="5.95666">
        <ele>545.9</ele>
        <time>2020-07-05T12:12:16Z</time>
      </trkpt>
      <trkpt lat="46.72483" lon="5.95661">
        <ele>544.4</ele>
        <time>2020-07-05T12:12:22Z</time>
      </trkpt>
      <trkpt lat="46.7248" lon="5.95656">
        <ele>543.4</ele>
        <time>2020-07-05T12:12:27Z</time>
      </trkpt>
      <trkpt lat="46.72477" lon="5.95651">
        <ele>542.8</ele>
        <time>2020-07-05T12:12:32Z</time>
      </trkpt>
      <trkpt lat="46.72474" lon="5.95645">
        <ele>542</ele>
        <time>2020-07-05T12:12:37Z</time>
      </trkpt>
      <trkpt lat="46.72471" lon="5.95641">
        <ele>541.3</ele>
        <time>2020-07-05T12:12:41Z</time>
      </trkpt>
      <trkpt lat="46.72468" lon="5.95635">
        <ele>540.4</ele>
        <time>2020-07-05T12:12:49Z</time>
      </trkpt>
      <trkpt lat="46.72465" lon="5.95631">
        <ele>540</ele>
        <time>2020-07-05T12:12:57Z</time>
      </trkpt>
      <trkpt lat="46.72461" lon="5.95625">
        <ele>539.7</ele>
        <time>2020-07-05T12:13:02Z</time>
      </trkpt>
      <trkpt lat="46.72456" lon="5.95622">
        <ele>539.4</ele>
        <time>2020-07-05T12:13:08Z</time>
      </trkpt>
      <trkpt lat="46.7245" lon="5.95623">
        <ele>538.8</ele>
        <time>2020-07-05T12:13:13Z</time>
      </trkpt>
      <trkpt lat="46.72445" lon="5.95624">
        <ele>538.4</ele>
        <time>2020-07-05T12:13:20Z</time>
      </trkpt>
      <trkpt lat="46.72443" lon="5.9563">
        <ele>537.8</ele>
        <time>2020-07-05T12:13:28Z</time>
      </trkpt>
      <trkpt lat="46.72442" lon="5.95637">
        <ele>537</ele>
        <time>2020-07-05T12:13:32Z</time>
      </trkpt>
      <trkpt lat="46.72439" lon="5.95645">
        <ele>536</ele>
        <time>2020-07-05T12:13:36Z</time>
      </trkpt>
      <trkpt lat="46.72436" lon="5.95651">
        <ele>535</ele>
        <time>2020-07-05T12:13:40Z</time>
      </trkpt>
      <trkpt lat="46.72433" lon="5.95658">
        <ele>533.8</ele>
        <time>2020-07-05T12:13:45Z</time>
      </trkpt>
      <trkpt lat="46.7243" lon="5.95663">
        <ele>533.3</ele>
        <time>2020-07-05T12:13:49Z</time>
      </trkpt>
      <trkpt lat="46.72427" lon="5.95669">
        <ele>532.9</ele>
        <time>2020-07-05T12:13:54Z</time>
      </trkpt>
      <trkpt lat="46.72424" lon="5.95674">
        <ele>532.3</ele>
        <time>2020-07-05T12:13:59Z</time>
      </trkpt>
      <trkpt lat="46.72419" lon="5.95678">
        <ele>531.5</ele>
        <time>2020-07-05T12:14:04Z</time>
      </trkpt>
      <trkpt lat="46.72415" lon="5.95681">
        <ele>531.2</ele>
        <time>2020-07-05T12:14:08Z</time>
      </trkpt>
      <trkpt lat="46.7241" lon="5.95681">
        <ele>531.2</ele>
        <time>2020-07-05T12:14:13Z</time>
      </trkpt>
      <trkpt lat="46.72405" lon="5.95682">
        <ele>531.5</ele>
        <time>2020-07-05T12:14:19Z</time>
      </trkpt>
      <trkpt lat="46.724" lon="5.95682">
        <ele>532</ele>
        <time>2020-07-05T12:14:23Z</time>
      </trkpt>
      <trkpt lat="46.72395" lon="5.95682">
        <ele>532.2</ele>
        <time>2020-07-05T12:14:26Z</time>
      </trkpt>
      <trkpt lat="46.72389" lon="5.95681">
        <ele>532.5</ele>
        <time>2020-07-05T12:14:31Z</time>
      </trkpt>
      <trkpt lat="46.72384" lon="5.95681">
        <ele>532.7</ele>
        <time>2020-07-05T12:14:34Z</time>
      </trkpt>
      <trkpt lat="46.72378" lon="5.9568">
        <ele>532.6</ele>
        <time>2020-07-05T12:14:37Z</time>
      </trkpt>
      <trkpt lat="46.72374" lon="5.9568">
        <ele>532.2</ele>
        <time>2020-07-05T12:14:41Z</time>
      </trkpt>
      <trkpt lat="46.72369" lon="5.95677">
        <ele>531.5</ele>
        <time>2020-07-05T12:14:46Z</time>
      </trkpt>
      <trkpt lat="46.72365" lon="5.95673">
        <ele>530.9</ele>
        <time>2020-07-05T12:14:51Z</time>
      </trkpt>
      <trkpt lat="46.72361" lon="5.95668">
        <ele>530.2</ele>
        <time>2020-07-05T12:14:55Z</time>
      </trkpt>
      <trkpt lat="46.72357" lon="5.95664">
        <ele>529.4</ele>
        <time>2020-07-05T12:15:06Z</time>
      </trkpt>
      <trkpt lat="46.72354" lon="5.95659">
        <ele>529.5</ele>
        <time>2020-07-05T12:15:10Z</time>
      </trkpt>
      <trkpt lat="46.72351" lon="5.95654">
        <ele>529.8</ele>
        <time>2020-07-05T12:15:17Z</time>
      </trkpt>
      <trkpt lat="46.72346" lon="5.95651">
        <ele>529.7</ele>
        <time>2020-07-05T12:15:22Z</time>
      </trkpt>
      <trkpt lat="46.72342" lon="5.95648">
        <ele>529.3</ele>
        <time>2020-07-05T12:15:27Z</time>
      </trkpt>
      <trkpt lat="46.72337" lon="5.95644">
        <ele>528.5</ele>
        <time>2020-07-05T12:15:32Z</time>
      </trkpt>
      <trkpt lat="46.72333" lon="5.9564">
        <ele>527.7</ele>
        <time>2020-07-05T12:15:37Z</time>
      </trkpt>
      <trkpt lat="46.7233" lon="5.95634">
        <ele>526.7</ele>
        <time>2020-07-05T12:15:43Z</time>
      </trkpt>
      <trkpt lat="46.72326" lon="5.95628">
        <ele>526.2</ele>
        <time>2020-07-05T12:15:48Z</time>
      </trkpt>
      <trkpt lat="46.72323" lon="5.95623">
        <ele>525.9</ele>
        <time>2020-07-05T12:15:53Z</time>
      </trkpt>
      <trkpt lat="46.7232" lon="5.95619">
        <ele>525.9</ele>
        <time>2020-07-05T12:15:59Z</time>
      </trkpt>
      <trkpt lat="46.72315" lon="5.95615">
        <ele>526</ele>
        <time>2020-07-05T12:16:03Z</time>
      </trkpt>
      <trkpt lat="46.7231" lon="5.95612">
        <ele>526.2</ele>
        <time>2020-07-05T12:16:07Z</time>
      </trkpt>
      <trkpt lat="46.72299" lon="5.9561">
        <ele>526.9</ele>
        <time>2020-07-05T12:16:23Z</time>
      </trkpt>
      <trkpt lat="46.72294" lon="5.95609">
        <ele>527.2</ele>
        <time>2020-07-05T12:16:26Z</time>
      </trkpt>
      <trkpt lat="46.7229" lon="5.95606">
        <ele>527.7</ele>
        <time>2020-07-05T12:16:31Z</time>
      </trkpt>
      <trkpt lat="46.72286" lon="5.95604">
        <ele>527.9</ele>
        <time>2020-07-05T12:16:35Z</time>
      </trkpt>
      <trkpt lat="46.72281" lon="5.95603">
        <ele>528.2</ele>
        <time>2020-07-05T12:16:39Z</time>
      </trkpt>
      <trkpt lat="46.72276" lon="5.95599">
        <ele>529.2</ele>
        <time>2020-07-05T12:16:45Z</time>
      </trkpt>
      <trkpt lat="46.72274" lon="5.95593">
        <ele>530.5</ele>
        <time>2020-07-05T12:16:50Z</time>
      </trkpt>
      <trkpt lat="46.72271" lon="5.95589">
        <ele>533.4</ele>
        <time>2020-07-05T12:16:59Z</time>
      </trkpt>
      <trkpt lat="46.72268" lon="5.95583">
        <ele>535.7</ele>
        <time>2020-07-05T12:17:09Z</time>
      </trkpt>
      <trkpt lat="46.72265" lon="5.95578">
        <ele>538.2</ele>
        <time>2020-07-05T12:17:18Z</time>
      </trkpt>
      <trkpt lat="46.7226" lon="5.95575">
        <ele>540.1</ele>
        <time>2020-07-05T12:17:24Z</time>
      </trkpt>
      <trkpt lat="46.72256" lon="5.9557">
        <ele>541.2</ele>
        <time>2020-07-05T12:17:28Z</time>
      </trkpt>
      <trkpt lat="46.72254" lon="5.95564">
        <ele>542.2</ele>
        <time>2020-07-05T12:17:32Z</time>
      </trkpt>
      <trkpt lat="46.72251" lon="5.95558">
        <ele>543.5</ele>
        <time>2020-07-05T12:17:39Z</time>
      </trkpt>
      <trkpt lat="46.72248" lon="5.95554">
        <ele>544.3</ele>
        <time>2020-07-05T12:17:47Z</time>
      </trkpt>
      <trkpt lat="46.72243" lon="5.95551">
        <ele>545</ele>
        <time>2020-07-05T12:17:57Z</time>
      </trkpt>
      <trkpt lat="46.72239" lon="5.95548">
        <ele>546.2</ele>
        <time>2020-07-05T12:18:05Z</time>
      </trkpt>
      <trkpt lat="46.72235" lon="5.95545">
        <ele>547.4</ele>
        <time>2020-07-05T12:18:12Z</time>
      </trkpt>
      <trkpt lat="46.7223" lon="5.95543">
        <ele>548.4</ele>
        <time>2020-07-05T12:18:17Z</time>
      </trkpt>
      <trkpt lat="46.72225" lon="5.95541">
        <ele>549.1</ele>
        <time>2020-07-05T12:18:20Z</time>
      </trkpt>
      <trkpt lat="46.7222" lon="5.95538">
        <ele>549.9</ele>
        <time>2020-07-05T12:18:24Z</time>
      </trkpt>
      <trkpt lat="46.72216" lon="5.95534">
        <ele>551.3</ele>
        <time>2020-07-05T12:18:32Z</time>
      </trkpt>
      <trkpt lat="46.72211" lon="5.95534">
        <ele>552.7</ele>
        <time>2020-07-05T12:18:42Z</time>
      </trkpt>
      <trkpt lat="46.72207" lon="5.95534">
        <ele>553.2</ele>
        <time>2020-07-05T12:18:46Z</time>
      </trkpt>
      <trkpt lat="46.72201" lon="5.9553">
        <ele>553.6</ele>
        <time>2020-07-05T12:18:49Z</time>
      </trkpt>
      <trkpt lat="46.72199" lon="5.95524">
        <ele>554</ele>
        <time>2020-07-05T12:18:55Z</time>
      </trkpt>
      <trkpt lat="46.72196" lon="5.95518">
        <ele>553.8</ele>
        <time>2020-07-05T12:19:06Z</time>
      </trkpt>
      <trkpt lat="46.72192" lon="5.95514">
        <ele>553.4</ele>
        <time>2020-07-05T12:19:16Z</time>
      </trkpt>
      <trkpt lat="46.72187" lon="5.95514">
        <ele>553</ele>
        <time>2020-07-05T12:19:24Z</time>
      </trkpt>
      <trkpt lat="46.7218" lon="5.9552">
        <ele>555.4</ele>
        <time>2020-07-05T12:20:18Z</time>
      </trkpt>
      <trkpt lat="46.72175" lon="5.95521">
        <ele>555.7</ele>
        <time>2020-07-05T12:20:20Z</time>
      </trkpt>
      <trkpt lat="46.7216" lon="5.95519">
        <ele>558.8</ele>
        <time>2020-07-05T12:20:34Z</time>
      </trkpt>
      <trkpt lat="46.72155" lon="5.95519">
        <ele>560.4</ele>
        <time>2020-07-05T12:20:42Z</time>
      </trkpt>
      <trkpt lat="46.72151" lon="5.95517">
        <ele>561.7</ele>
        <time>2020-07-05T12:20:47Z</time>
      </trkpt>
      <trkpt lat="46.72146" lon="5.95517">
        <ele>563.5</ele>
        <time>2020-07-05T12:20:53Z</time>
      </trkpt>
      <trkpt lat="46.72141" lon="5.95517">
        <ele>565.3</ele>
        <time>2020-07-05T12:20:59Z</time>
      </trkpt>
      <trkpt lat="46.72137" lon="5.95516">
        <ele>566.4</ele>
        <time>2020-07-05T12:21:03Z</time>
      </trkpt>
      <trkpt lat="46.72131" lon="5.95513">
        <ele>568.3</ele>
        <time>2020-07-05T12:21:09Z</time>
      </trkpt>
      <trkpt lat="46.7212" lon="5.9551">
        <ele>572.6</ele>
        <time>2020-07-05T12:21:26Z</time>
      </trkpt>
      <trkpt lat="46.72115" lon="5.95509">
        <ele>573.2</ele>
        <time>2020-07-05T12:21:31Z</time>
      </trkpt>
      <trkpt lat="46.72109" lon="5.95507">
        <ele>573.9</ele>
        <time>2020-07-05T12:21:37Z</time>
      </trkpt>
      <trkpt lat="46.72099" lon="5.95499">
        <ele>575.5</ele>
        <time>2020-07-05T12:21:57Z</time>
      </trkpt>
      <trkpt lat="46.72094" lon="5.95497">
        <ele>576.1</ele>
        <time>2020-07-05T12:22:02Z</time>
      </trkpt>
      <trkpt lat="46.72089" lon="5.95494">
        <ele>576.5</ele>
        <time>2020-07-05T12:22:05Z</time>
      </trkpt>
      <trkpt lat="46.72084" lon="5.95492">
        <ele>577.1</ele>
        <time>2020-07-05T12:22:09Z</time>
      </trkpt>
      <trkpt lat="46.72075" lon="5.95491">
        <ele>578.2</ele>
        <time>2020-07-05T12:22:23Z</time>
      </trkpt>
      <trkpt lat="46.72071" lon="5.9549">
        <ele>578.2</ele>
        <time>2020-07-05T12:22:30Z</time>
      </trkpt>
      <trkpt lat="46.72061" lon="5.95488">
        <ele>578.8</ele>
        <time>2020-07-05T12:22:47Z</time>
      </trkpt>
      <trkpt lat="46.72055" lon="5.95484">
        <ele>580.2</ele>
        <time>2020-07-05T12:22:55Z</time>
      </trkpt>
      <trkpt lat="46.72036" lon="5.95471">
        <ele>580.2</ele>
        <time>2020-07-05T12:23:23Z</time>
      </trkpt>
      <trkpt lat="46.72032" lon="5.95469">
        <ele>579.7</ele>
        <time>2020-07-05T12:23:29Z</time>
      </trkpt>
      <trkpt lat="46.7202" lon="5.95462">
        <ele>577.5</ele>
        <time>2020-07-05T12:23:42Z</time>
      </trkpt>
      <trkpt lat="46.72016" lon="5.95458">
        <ele>577.2</ele>
        <time>2020-07-05T12:23:48Z</time>
      </trkpt>
      <trkpt lat="46.72011" lon="5.95454">
        <ele>577.1</ele>
        <time>2020-07-05T12:23:54Z</time>
      </trkpt>
      <trkpt lat="46.72006" lon="5.95451">
        <ele>577</ele>
        <time>2020-07-05T12:23:58Z</time>
      </trkpt>
      <trkpt lat="46.72003" lon="5.95447">
        <ele>576.7</ele>
        <time>2020-07-05T12:24:05Z</time>
      </trkpt>
      <trkpt lat="46.71995" lon="5.9544">
        <ele>577.6</ele>
        <time>2020-07-05T12:24:22Z</time>
      </trkpt>
      <trkpt lat="46.71991" lon="5.95435">
        <ele>578.4</ele>
        <time>2020-07-05T12:24:33Z</time>
      </trkpt>
      <trkpt lat="46.71989" lon="5.95429">
        <ele>579.2</ele>
        <time>2020-07-05T12:24:38Z</time>
      </trkpt>
      <trkpt lat="46.7198" lon="5.95417">
        <ele>583.1</ele>
        <time>2020-07-05T12:24:58Z</time>
      </trkpt>
      <trkpt lat="46.71976" lon="5.95412">
        <ele>584</ele>
        <time>2020-07-05T12:25:02Z</time>
      </trkpt>
      <trkpt lat="46.71965" lon="5.95401">
        <ele>586.6</ele>
        <time>2020-07-05T12:25:18Z</time>
      </trkpt>
      <trkpt lat="46.71957" lon="5.95403">
        <ele>588.4</ele>
        <time>2020-07-05T12:28:09Z</time>
      </trkpt>
      <trkpt lat="46.71952" lon="5.95405">
        <ele>588.5</ele>
        <time>2020-07-05T12:28:17Z</time>
      </trkpt>
      <trkpt lat="46.71948" lon="5.95423">
        <ele>590.6</ele>
        <time>2020-07-05T12:28:36Z</time>
      </trkpt>
      <trkpt lat="46.71947" lon="5.9543">
        <ele>591.3</ele>
        <time>2020-07-05T12:28:41Z</time>
      </trkpt>
      <trkpt lat="46.71945" lon="5.95436">
        <ele>593.2</ele>
        <time>2020-07-05T12:28:49Z</time>
      </trkpt>
      <trkpt lat="46.71942" lon="5.95444">
        <ele>594.2</ele>
        <time>2020-07-05T12:28:53Z</time>
      </trkpt>
      <trkpt lat="46.7194" lon="5.95451">
        <ele>595.4</ele>
        <time>2020-07-05T12:28:58Z</time>
      </trkpt>
      <trkpt lat="46.71939" lon="5.95463">
        <ele>600</ele>
        <time>2020-07-05T12:29:11Z</time>
      </trkpt>
      <trkpt lat="46.71943" lon="5.9548">
        <ele>604.4</ele>
        <time>2020-07-05T12:29:25Z</time>
      </trkpt>
      <trkpt lat="46.71952" lon="5.95492">
        <ele>607.1</ele>
        <time>2020-07-05T12:29:40Z</time>
      </trkpt>
      <trkpt lat="46.71954" lon="5.95499">
        <ele>608.5</ele>
        <time>2020-07-05T12:29:46Z</time>
      </trkpt>
      <trkpt lat="46.71958" lon="5.95504">
        <ele>609.3</ele>
        <time>2020-07-05T12:29:49Z</time>
      </trkpt>
      <trkpt lat="46.71961" lon="5.95509">
        <ele>610.1</ele>
        <time>2020-07-05T12:29:53Z</time>
      </trkpt>
      <trkpt lat="46.71961" lon="5.95516">
        <ele>610.9</ele>
        <time>2020-07-05T12:29:58Z</time>
      </trkpt>
      <trkpt lat="46.7196" lon="5.95524">
        <ele>611.6</ele>
        <time>2020-07-05T12:30:03Z</time>
      </trkpt>
      <trkpt lat="46.71962" lon="5.95531">
        <ele>612.7</ele>
        <time>2020-07-05T12:30:09Z</time>
      </trkpt>
      <trkpt lat="46.71961" lon="5.95539">
        <ele>615</ele>
        <time>2020-07-05T12:30:18Z</time>
      </trkpt>
      <trkpt lat="46.71962" lon="5.95546">
        <ele>617.1</ele>
        <time>2020-07-05T12:30:25Z</time>
      </trkpt>
      <trkpt lat="46.71964" lon="5.95552">
        <ele>618.7</ele>
        <time>2020-07-05T12:30:30Z</time>
      </trkpt>
      <trkpt lat="46.71965" lon="5.95559">
        <ele>620.4</ele>
        <time>2020-07-05T12:30:36Z</time>
      </trkpt>
      <trkpt lat="46.71967" lon="5.95565">
        <ele>621.2</ele>
        <time>2020-07-05T12:30:41Z</time>
      </trkpt>
      <trkpt lat="46.71963" lon="5.95566">
        <ele>635.4</ele>
        <time>2020-07-05T12:31:59Z</time>
      </trkpt>
      <trkpt lat="46.71968" lon="5.95568">
        <ele>636</ele>
        <time>2020-07-05T12:32:03Z</time>
      </trkpt>
      <trkpt lat="46.71972" lon="5.95581">
        <ele>637.1</ele>
        <time>2020-07-05T12:32:13Z</time>
      </trkpt>
      <trkpt lat="46.71976" lon="5.95584">
        <ele>637.1</ele>
        <time>2020-07-05T12:32:15Z</time>
      </trkpt>
      <trkpt lat="46.7198" lon="5.95586">
        <ele>637</ele>
        <time>2020-07-05T12:32:20Z</time>
      </trkpt>
      <trkpt lat="46.71994" lon="5.95595">
        <ele>636.7</ele>
        <time>2020-07-05T12:32:39Z</time>
      </trkpt>
      <trkpt lat="46.71999" lon="5.95598">
        <ele>636.7</ele>
        <time>2020-07-05T12:32:44Z</time>
      </trkpt>
      <trkpt lat="46.72004" lon="5.95601">
        <ele>636.2</ele>
        <time>2020-07-05T12:32:55Z</time>
      </trkpt>
      <trkpt lat="46.72008" lon="5.95605">
        <ele>636.2</ele>
        <time>2020-07-05T12:32:59Z</time>
      </trkpt>
      <trkpt lat="46.72012" lon="5.95609">
        <ele>636.2</ele>
        <time>2020-07-05T12:33:03Z</time>
      </trkpt>
      <trkpt lat="46.72013" lon="5.95615">
        <ele>637.9</ele>
        <time>2020-07-05T12:33:19Z</time>
      </trkpt>
      <trkpt lat="46.72017" lon="5.95619">
        <ele>638.4</ele>
        <time>2020-07-05T12:33:25Z</time>
      </trkpt>
      <trkpt lat="46.72022" lon="5.95624">
        <ele>638.6</ele>
        <time>2020-07-05T12:33:29Z</time>
      </trkpt>
      <trkpt lat="46.72026" lon="5.95626">
        <ele>638.7</ele>
        <time>2020-07-05T12:33:31Z</time>
      </trkpt>
      <trkpt lat="46.72032" lon="5.95627">
        <ele>638.7</ele>
        <time>2020-07-05T12:33:35Z</time>
      </trkpt>
      <trkpt lat="46.72037" lon="5.95628">
        <ele>638.6</ele>
        <time>2020-07-05T12:33:42Z</time>
      </trkpt>
      <trkpt lat="46.72041" lon="5.95631">
        <ele>639.9</ele>
        <time>2020-07-05T12:33:54Z</time>
      </trkpt>
      <trkpt lat="46.72045" lon="5.95633">
        <ele>640.9</ele>
        <time>2020-07-05T12:34:03Z</time>
      </trkpt>
      <trkpt lat="46.72038" lon="5.95645">
        <ele>651</ele>
        <time>2020-07-05T12:35:44Z</time>
      </trkpt>
      <trkpt lat="46.72033" lon="5.95646">
        <ele>651.5</ele>
        <time>2020-07-05T12:35:46Z</time>
      </trkpt>
      <trkpt lat="46.72028" lon="5.95647">
        <ele>653.2</ele>
        <time>2020-07-05T12:35:52Z</time>
      </trkpt>
      <trkpt lat="46.71996" lon="5.95643">
        <ele>670.4</ele>
        <time>2020-07-05T12:37:53Z</time>
      </trkpt>
      <trkpt lat="46.71991" lon="5.95643">
        <ele>670.7</ele>
        <time>2020-07-05T12:37:59Z</time>
      </trkpt>
      <trkpt lat="46.71977" lon="5.95644">
        <ele>671.4</ele>
        <time>2020-07-05T12:38:11Z</time>
      </trkpt>
      <trkpt lat="46.71962" lon="5.95644">
        <ele>673.8</ele>
        <time>2020-07-05T12:38:41Z</time>
      </trkpt>
      <trkpt lat="46.71955" lon="5.95646">
        <ele>672.3</ele>
        <time>2020-07-05T12:38:57Z</time>
      </trkpt>
      <trkpt lat="46.71949" lon="5.95643">
        <ele>671.3</ele>
        <time>2020-07-05T12:39:06Z</time>
      </trkpt>
      <trkpt lat="46.71932" lon="5.95645">
        <ele>672.6</ele>
        <time>2020-07-05T12:39:18Z</time>
      </trkpt>
      <trkpt lat="46.71928" lon="5.95644">
        <ele>673.1</ele>
        <time>2020-07-05T12:39:23Z</time>
      </trkpt>
      <trkpt lat="46.71909" lon="5.95643">
        <ele>675.1</ele>
        <time>2020-07-05T12:39:48Z</time>
      </trkpt>
      <trkpt lat="46.71904" lon="5.95641">
        <ele>676</ele>
        <time>2020-07-05T12:40:09Z</time>
      </trkpt>
      <trkpt lat="46.71899" lon="5.95639">
        <ele>676</ele>
        <time>2020-07-05T12:40:15Z</time>
      </trkpt>
      <trkpt lat="46.71884" lon="5.95633">
        <ele>676.3</ele>
        <time>2020-07-05T12:40:28Z</time>
      </trkpt>
      <trkpt lat="46.71879" lon="5.95631">
        <ele>675.6</ele>
        <time>2020-07-05T12:40:38Z</time>
      </trkpt>
      <trkpt lat="46.71873" lon="5.95632">
        <ele>675.6</ele>
        <time>2020-07-05T12:40:41Z</time>
      </trkpt>
      <trkpt lat="46.71868" lon="5.95631">
        <ele>675.7</ele>
        <time>2020-07-05T12:40:45Z</time>
      </trkpt>
      <trkpt lat="46.71863" lon="5.95629">
        <ele>675.8</ele>
        <time>2020-07-05T12:40:52Z</time>
      </trkpt>
      <trkpt lat="46.71859" lon="5.95626">
        <ele>675.7</ele>
        <time>2020-07-05T12:41:02Z</time>
      </trkpt>
      <trkpt lat="46.71855" lon="5.95621">
        <ele>675.6</ele>
        <time>2020-07-05T12:41:07Z</time>
      </trkpt>
      <trkpt lat="46.71852" lon="5.95617">
        <ele>675.2</ele>
        <time>2020-07-05T12:41:15Z</time>
      </trkpt>
      <trkpt lat="46.7185" lon="5.95609">
        <ele>674.1</ele>
        <time>2020-07-05T12:41:24Z</time>
      </trkpt>
      <trkpt lat="46.71846" lon="5.95605">
        <ele>673.7</ele>
        <time>2020-07-05T12:41:28Z</time>
      </trkpt>
      <trkpt lat="46.71842" lon="5.95601">
        <ele>673.2</ele>
        <time>2020-07-05T12:41:34Z</time>
      </trkpt>
      <trkpt lat="46.71841" lon="5.95594">
        <ele>673</ele>
        <time>2020-07-05T12:41:36Z</time>
      </trkpt>
      <trkpt lat="46.7184" lon="5.95586">
        <ele>672.8</ele>
        <time>2020-07-05T12:41:39Z</time>
      </trkpt>
      <trkpt lat="46.71841" lon="5.95579">
        <ele>672.4</ele>
        <time>2020-07-05T12:41:44Z</time>
      </trkpt>
      <trkpt lat="46.71839" lon="5.95573">
        <ele>671.7</ele>
        <time>2020-07-05T12:41:53Z</time>
      </trkpt>
      <trkpt lat="46.71835" lon="5.95567">
        <ele>671.3</ele>
        <time>2020-07-05T12:41:58Z</time>
      </trkpt>
      <trkpt lat="46.71832" lon="5.95561">
        <ele>670.8</ele>
        <time>2020-07-05T12:42:06Z</time>
      </trkpt>
      <trkpt lat="46.71828" lon="5.95555">
        <ele>670.6</ele>
        <time>2020-07-05T12:42:09Z</time>
      </trkpt>
      <trkpt lat="46.71825" lon="5.9555">
        <ele>670.5</ele>
        <time>2020-07-05T12:42:12Z</time>
      </trkpt>
      <trkpt lat="46.71822" lon="5.95544">
        <ele>670.6</ele>
        <time>2020-07-05T12:42:21Z</time>
      </trkpt>
      <trkpt lat="46.71818" lon="5.95538">
        <ele>670.8</ele>
        <time>2020-07-05T12:42:29Z</time>
      </trkpt>
      <trkpt lat="46.71814" lon="5.95531">
        <ele>671</ele>
        <time>2020-07-05T12:42:34Z</time>
      </trkpt>
      <trkpt lat="46.71812" lon="5.95525">
        <ele>671.1</ele>
        <time>2020-07-05T12:42:42Z</time>
      </trkpt>
      <trkpt lat="46.71809" lon="5.95519">
        <ele>671.1</ele>
        <time>2020-07-05T12:42:51Z</time>
      </trkpt>
      <trkpt lat="46.71806" lon="5.95515">
        <ele>671</ele>
        <time>2020-07-05T12:42:56Z</time>
      </trkpt>
      <trkpt lat="46.71802" lon="5.9551">
        <ele>670.8</ele>
        <time>2020-07-05T12:43:04Z</time>
      </trkpt>
      <trkpt lat="46.71798" lon="5.95506">
        <ele>670.5</ele>
        <time>2020-07-05T12:43:11Z</time>
      </trkpt>
      <trkpt lat="46.71795" lon="5.95502">
        <ele>670.3</ele>
        <time>2020-07-05T12:43:14Z</time>
      </trkpt>
      <trkpt lat="46.71791" lon="5.95497">
        <ele>670</ele>
        <time>2020-07-05T12:43:21Z</time>
      </trkpt>
      <trkpt lat="46.71787" lon="5.95493">
        <ele>670</ele>
        <time>2020-07-05T12:43:28Z</time>
      </trkpt>
      <trkpt lat="46.71787" lon="5.95486">
        <ele>669.7</ele>
        <time>2020-07-05T12:43:36Z</time>
      </trkpt>
      <trkpt lat="46.71786" lon="5.9548">
        <ele>669.5</ele>
        <time>2020-07-05T12:43:44Z</time>
      </trkpt>
      <trkpt lat="46.71783" lon="5.95474">
        <ele>669.2</ele>
        <time>2020-07-05T12:43:51Z</time>
      </trkpt>
      <trkpt lat="46.7178" lon="5.95468">
        <ele>668.9</ele>
        <time>2020-07-05T12:43:58Z</time>
      </trkpt>
      <trkpt lat="46.71777" lon="5.95463">
        <ele>669</ele>
        <time>2020-07-05T12:44:04Z</time>
      </trkpt>
      <trkpt lat="46.71774" lon="5.95458">
        <ele>669.4</ele>
        <time>2020-07-05T12:44:09Z</time>
      </trkpt>
      <trkpt lat="46.7177" lon="5.95454">
        <ele>669.9</ele>
        <time>2020-07-05T12:44:15Z</time>
      </trkpt>
      <trkpt lat="46.71767" lon="5.95448">
        <ele>670.2</ele>
        <time>2020-07-05T12:44:24Z</time>
      </trkpt>
      <trkpt lat="46.71764" lon="5.95441">
        <ele>671.1</ele>
        <time>2020-07-05T12:44:37Z</time>
      </trkpt>
      <trkpt lat="46.7176" lon="5.95439">
        <ele>671.6</ele>
        <time>2020-07-05T12:44:42Z</time>
      </trkpt>
      <trkpt lat="46.71755" lon="5.95438">
        <ele>671.9</ele>
        <time>2020-07-05T12:44:45Z</time>
      </trkpt>
      <trkpt lat="46.7175" lon="5.95437">
        <ele>673.2</ele>
        <time>2020-07-05T12:44:56Z</time>
      </trkpt>
      <trkpt lat="46.71745" lon="5.95433">
        <ele>676.4</ele>
        <time>2020-07-05T12:45:25Z</time>
      </trkpt>
      <trkpt lat="46.71737" lon="5.95427">
        <ele>682</ele>
        <time>2020-07-05T12:46:04Z</time>
      </trkpt>
      <trkpt lat="46.71732" lon="5.95423">
        <ele>682.7</ele>
        <time>2020-07-05T12:46:06Z</time>
      </trkpt>
      <trkpt lat="46.71727" lon="5.95418">
        <ele>684.1</ele>
        <time>2020-07-05T12:46:10Z</time>
      </trkpt>
      <trkpt lat="46.71722" lon="5.95416">
        <ele>685.8</ele>
        <time>2020-07-05T12:46:15Z</time>
      </trkpt>
      <trkpt lat="46.71718" lon="5.95413">
        <ele>688.1</ele>
        <time>2020-07-05T12:46:25Z</time>
      </trkpt>
      <trkpt lat="46.71712" lon="5.95415">
        <ele>689.2</ele>
        <time>2020-07-05T12:46:34Z</time>
      </trkpt>
      <trkpt lat="46.71708" lon="5.95414">
        <ele>690.1</ele>
        <time>2020-07-05T12:46:44Z</time>
      </trkpt>
      <trkpt lat="46.71704" lon="5.95418">
        <ele>690.6</ele>
        <time>2020-07-05T12:46:47Z</time>
      </trkpt>
      <trkpt lat="46.71699" lon="5.95418">
        <ele>691.4</ele>
        <time>2020-07-05T12:46:53Z</time>
      </trkpt>
      <trkpt lat="46.71694" lon="5.95419">
        <ele>692.5</ele>
        <time>2020-07-05T12:46:59Z</time>
      </trkpt>
      <trkpt lat="46.71685" lon="5.95423">
        <ele>696.8</ele>
        <time>2020-07-05T12:47:11Z</time>
      </trkpt>
      <trkpt lat="46.71676" lon="5.95424">
        <ele>701.2</ele>
        <time>2020-07-05T12:47:31Z</time>
      </trkpt>
      <trkpt lat="46.71673" lon="5.95429">
        <ele>701.8</ele>
        <time>2020-07-05T12:47:35Z</time>
      </trkpt>
      <trkpt lat="46.71668" lon="5.95428">
        <ele>702.4</ele>
        <time>2020-07-05T12:47:41Z</time>
      </trkpt>
      <trkpt lat="46.71663" lon="5.95429">
        <ele>702.8</ele>
        <time>2020-07-05T12:47:49Z</time>
      </trkpt>
      <trkpt lat="46.7166" lon="5.95423">
        <ele>702.3</ele>
        <time>2020-07-05T12:48:01Z</time>
      </trkpt>
      <trkpt lat="46.71651" lon="5.95426">
        <ele>703.9</ele>
        <time>2020-07-05T12:49:13Z</time>
      </trkpt>
      <trkpt lat="46.71646" lon="5.95424">
        <ele>703.8</ele>
        <time>2020-07-05T12:49:25Z</time>
      </trkpt>
      <trkpt lat="46.7164" lon="5.95424">
        <ele>704.2</ele>
        <time>2020-07-05T12:49:35Z</time>
      </trkpt>
      <trkpt lat="46.71635" lon="5.95424">
        <ele>704.9</ele>
        <time>2020-07-05T12:49:39Z</time>
      </trkpt>
      <trkpt lat="46.7163" lon="5.95423">
        <ele>706.2</ele>
        <time>2020-07-05T12:49:45Z</time>
      </trkpt>
      <trkpt lat="46.71625" lon="5.95423">
        <ele>707.2</ele>
        <time>2020-07-05T12:49:51Z</time>
      </trkpt>
      <trkpt lat="46.71621" lon="5.9542">
        <ele>708.7</ele>
        <time>2020-07-05T12:50:02Z</time>
      </trkpt>
      <trkpt lat="46.71616" lon="5.95416">
        <ele>709.3</ele>
        <time>2020-07-05T12:50:08Z</time>
      </trkpt>
      <trkpt lat="46.7161" lon="5.95409">
        <ele>711.7</ele>
        <time>2020-07-05T12:50:33Z</time>
      </trkpt>
      <trkpt lat="46.71605" lon="5.95408">
        <ele>711.7</ele>
        <time>2020-07-05T12:50:42Z</time>
      </trkpt>
      <trkpt lat="46.71601" lon="5.95408">
        <ele>711.1</ele>
        <time>2020-07-05T12:50:52Z</time>
      </trkpt>
      <trkpt lat="46.71596" lon="5.95407">
        <ele>710.6</ele>
        <time>2020-07-05T12:51:02Z</time>
      </trkpt>
      <trkpt lat="46.7159" lon="5.95406">
        <ele>710.6</ele>
        <time>2020-07-05T12:51:06Z</time>
      </trkpt>
      <trkpt lat="46.71584" lon="5.95408">
        <ele>710.8</ele>
        <time>2020-07-05T12:51:10Z</time>
      </trkpt>
      <trkpt lat="46.71579" lon="5.95411">
        <ele>711.1</ele>
        <time>2020-07-05T12:51:14Z</time>
      </trkpt>
      <trkpt lat="46.71574" lon="5.95413">
        <ele>711.6</ele>
        <time>2020-07-05T12:51:18Z</time>
      </trkpt>
      <trkpt lat="46.71568" lon="5.95414">
        <ele>712.5</ele>
        <time>2020-07-05T12:51:31Z</time>
      </trkpt>
      <trkpt lat="46.71563" lon="5.95416">
        <ele>713</ele>
        <time>2020-07-05T12:51:38Z</time>
      </trkpt>
      <trkpt lat="46.71553" lon="5.95418">
        <ele>715.1</ele>
        <time>2020-07-05T12:51:57Z</time>
      </trkpt>
      <trkpt lat="46.71549" lon="5.9542">
        <ele>716.2</ele>
        <time>2020-07-05T12:52:08Z</time>
      </trkpt>
      <trkpt lat="46.71544" lon="5.95425">
        <ele>716.9</ele>
        <time>2020-07-05T12:52:12Z</time>
      </trkpt>
      <trkpt lat="46.71539" lon="5.95428">
        <ele>717.4</ele>
        <time>2020-07-05T12:52:14Z</time>
      </trkpt>
      <trkpt lat="46.71535" lon="5.95431">
        <ele>717.8</ele>
        <time>2020-07-05T12:52:16Z</time>
      </trkpt>
      <trkpt lat="46.7153" lon="5.95432">
        <ele>718.7</ele>
        <time>2020-07-05T12:52:21Z</time>
      </trkpt>
      <trkpt lat="46.71525" lon="5.95432">
        <ele>719.7</ele>
        <time>2020-07-05T12:52:28Z</time>
      </trkpt>
      <trkpt lat="46.7152" lon="5.95431">
        <ele>721.1</ele>
        <time>2020-07-05T12:52:40Z</time>
      </trkpt>
      <trkpt lat="46.71516" lon="5.9543">
        <ele>722.2</ele>
        <time>2020-07-05T12:52:51Z</time>
      </trkpt>
      <trkpt lat="46.71511" lon="5.95432">
        <ele>723.1</ele>
        <time>2020-07-05T12:52:57Z</time>
      </trkpt>
      <trkpt lat="46.71506" lon="5.95434">
        <ele>724.1</ele>
        <time>2020-07-05T12:53:03Z</time>
      </trkpt>
      <trkpt lat="46.71502" lon="5.95435">
        <ele>726.4</ele>
        <time>2020-07-05T12:53:15Z</time>
      </trkpt>
      <trkpt lat="46.71493" lon="5.95438">
        <ele>732.2</ele>
        <time>2020-07-05T12:54:39Z</time>
      </trkpt>
      <trkpt lat="46.71488" lon="5.95439">
        <ele>733</ele>
        <time>2020-07-05T12:54:45Z</time>
      </trkpt>
      <trkpt lat="46.71483" lon="5.9544">
        <ele>733.6</ele>
        <time>2020-07-05T12:54:49Z</time>
      </trkpt>
      <trkpt lat="46.71478" lon="5.95438">
        <ele>734.3</ele>
        <time>2020-07-05T12:54:54Z</time>
      </trkpt>
      <trkpt lat="46.71474" lon="5.95437">
        <ele>734.8</ele>
        <time>2020-07-05T12:54:58Z</time>
      </trkpt>
      <trkpt lat="46.7147" lon="5.95439">
        <ele>735</ele>
        <time>2020-07-05T12:55:00Z</time>
      </trkpt>
      <trkpt lat="46.71465" lon="5.9544">
        <ele>735.2</ele>
        <time>2020-07-05T12:55:04Z</time>
      </trkpt>
      <trkpt lat="46.7146" lon="5.95442">
        <ele>735.2</ele>
        <time>2020-07-05T12:55:08Z</time>
      </trkpt>
      <trkpt lat="46.71455" lon="5.95445">
        <ele>735.3</ele>
        <time>2020-07-05T12:55:12Z</time>
      </trkpt>
      <trkpt lat="46.7145" lon="5.95445">
        <ele>735.7</ele>
        <time>2020-07-05T12:55:19Z</time>
      </trkpt>
      <trkpt lat="46.71445" lon="5.95446">
        <ele>736</ele>
        <time>2020-07-05T12:55:22Z</time>
      </trkpt>
      <trkpt lat="46.71441" lon="5.95447">
        <ele>736.5</ele>
        <time>2020-07-05T12:55:26Z</time>
      </trkpt>
      <trkpt lat="46.71429" lon="5.95442">
        <ele>737.2</ele>
        <time>2020-07-05T12:55:38Z</time>
      </trkpt>
      <trkpt lat="46.71425" lon="5.95438">
        <ele>737.5</ele>
        <time>2020-07-05T12:55:44Z</time>
      </trkpt>
      <trkpt lat="46.7142" lon="5.95435">
        <ele>738.4</ele>
        <time>2020-07-05T12:55:51Z</time>
      </trkpt>
      <trkpt lat="46.71416" lon="5.95429">
        <ele>739.2</ele>
        <time>2020-07-05T12:55:59Z</time>
      </trkpt>
      <trkpt lat="46.71412" lon="5.95427">
        <ele>739.5</ele>
        <time>2020-07-05T12:56:05Z</time>
      </trkpt>
      <trkpt lat="46.71407" lon="5.95424">
        <ele>739.5</ele>
        <time>2020-07-05T12:56:11Z</time>
      </trkpt>
      <trkpt lat="46.71402" lon="5.95422">
        <ele>739.6</ele>
        <time>2020-07-05T12:56:16Z</time>
      </trkpt>
      <trkpt lat="46.71398" lon="5.95423">
        <ele>739.5</ele>
        <time>2020-07-05T12:56:20Z</time>
      </trkpt>
      <trkpt lat="46.71393" lon="5.95423">
        <ele>739.5</ele>
        <time>2020-07-05T12:56:24Z</time>
      </trkpt>
      <trkpt lat="46.71382" lon="5.95419">
        <ele>739.4</ele>
        <time>2020-07-05T12:56:36Z</time>
      </trkpt>
      <trkpt lat="46.71376" lon="5.95418">
        <ele>739.5</ele>
        <time>2020-07-05T12:56:46Z</time>
      </trkpt>
      <trkpt lat="46.71372" lon="5.95417">
        <ele>739.7</ele>
        <time>2020-07-05T12:56:50Z</time>
      </trkpt>
      <trkpt lat="46.71366" lon="5.95416">
        <ele>740</ele>
        <time>2020-07-05T12:56:57Z</time>
      </trkpt>
      <trkpt lat="46.71361" lon="5.95414">
        <ele>740.1</ele>
        <time>2020-07-05T12:57:00Z</time>
      </trkpt>
      <trkpt lat="46.71356" lon="5.95414">
        <ele>740.4</ele>
        <time>2020-07-05T12:57:04Z</time>
      </trkpt>
      <trkpt lat="46.7135" lon="5.95414">
        <ele>741</ele>
        <time>2020-07-05T12:57:10Z</time>
      </trkpt>
      <trkpt lat="46.71345" lon="5.95413">
        <ele>741.5</ele>
        <time>2020-07-05T12:57:16Z</time>
      </trkpt>
      <trkpt lat="46.71341" lon="5.95411">
        <ele>741.6</ele>
        <time>2020-07-05T12:57:23Z</time>
      </trkpt>
      <trkpt lat="46.71333" lon="5.95409">
        <ele>742.1</ele>
        <time>2020-07-05T12:57:38Z</time>
      </trkpt>
      <trkpt lat="46.71327" lon="5.95407">
        <ele>742.8</ele>
        <time>2020-07-05T12:57:41Z</time>
      </trkpt>
      <trkpt lat="46.71321" lon="5.95407">
        <ele>743.4</ele>
        <time>2020-07-05T12:57:43Z</time>
      </trkpt>
      <trkpt lat="46.71315" lon="5.95406">
        <ele>744</ele>
        <time>2020-07-05T12:57:45Z</time>
      </trkpt>
      <trkpt lat="46.71311" lon="5.95405">
        <ele>745.3</ele>
        <time>2020-07-05T12:57:49Z</time>
      </trkpt>
      <trkpt lat="46.71308" lon="5.95398">
        <ele>747.5</ele>
        <time>2020-07-05T12:57:55Z</time>
      </trkpt>
      <trkpt lat="46.71304" lon="5.95384">
        <ele>753.1</ele>
        <time>2020-07-05T12:58:12Z</time>
      </trkpt>
      <trkpt lat="46.71298" lon="5.95379">
        <ele>753.3</ele>
        <time>2020-07-05T12:58:16Z</time>
      </trkpt>
      <trkpt lat="46.71293" lon="5.95376">
        <ele>753.6</ele>
        <time>2020-07-05T12:58:20Z</time>
      </trkpt>
      <trkpt lat="46.71289" lon="5.95372">
        <ele>753.7</ele>
        <time>2020-07-05T12:58:23Z</time>
      </trkpt>
      <trkpt lat="46.71286" lon="5.95368">
        <ele>753.7</ele>
        <time>2020-07-05T12:58:26Z</time>
      </trkpt>
      <trkpt lat="46.71282" lon="5.95364">
        <ele>753.7</ele>
        <time>2020-07-05T12:58:32Z</time>
      </trkpt>
      <trkpt lat="46.71278" lon="5.9536">
        <ele>753.6</ele>
        <time>2020-07-05T12:58:39Z</time>
      </trkpt>
      <trkpt lat="46.71274" lon="5.95357">
        <ele>753.4</ele>
        <time>2020-07-05T12:58:45Z</time>
      </trkpt>
      <trkpt lat="46.71272" lon="5.9535">
        <ele>752.9</ele>
        <time>2020-07-05T12:59:02Z</time>
      </trkpt>
      <trkpt lat="46.71266" lon="5.95349">
        <ele>747.5</ele>
        <time>2020-07-05T13:01:06Z</time>
      </trkpt>
      <trkpt lat="46.71262" lon="5.9535">
        <ele>748.4</ele>
        <time>2020-07-05T13:01:22Z</time>
      </trkpt>
      <trkpt lat="46.71256" lon="5.95351">
        <ele>749.4</ele>
        <time>2020-07-05T13:01:27Z</time>
      </trkpt>
      <trkpt lat="46.71251" lon="5.9535">
        <ele>750.1</ele>
        <time>2020-07-05T13:01:30Z</time>
      </trkpt>
      <trkpt lat="46.71236" lon="5.95345">
        <ele>752.3</ele>
        <time>2020-07-05T13:01:39Z</time>
      </trkpt>
      <trkpt lat="46.71232" lon="5.95341">
        <ele>753.2</ele>
        <time>2020-07-05T13:01:48Z</time>
      </trkpt>
      <trkpt lat="46.71227" lon="5.95338">
        <ele>754.2</ele>
        <time>2020-07-05T13:01:54Z</time>
      </trkpt>
      <trkpt lat="46.71209" lon="5.95336">
        <ele>756.7</ele>
        <time>2020-07-05T13:02:09Z</time>
      </trkpt>
      <trkpt lat="46.71205" lon="5.95339">
        <ele>757.2</ele>
        <time>2020-07-05T13:02:12Z</time>
      </trkpt>
      <trkpt lat="46.71195" lon="5.95342">
        <ele>760</ele>
        <time>2020-07-05T13:02:24Z</time>
      </trkpt>
      <trkpt lat="46.71191" lon="5.95344">
        <ele>760.6</ele>
        <time>2020-07-05T13:02:29Z</time>
      </trkpt>
      <trkpt lat="46.71186" lon="5.95344">
        <ele>762</ele>
        <time>2020-07-05T13:02:35Z</time>
      </trkpt>
      <trkpt lat="46.71181" lon="5.95345">
        <ele>762.8</ele>
        <time>2020-07-05T13:02:38Z</time>
      </trkpt>
      <trkpt lat="46.71176" lon="5.95343">
        <ele>763.7</ele>
        <time>2020-07-05T13:02:42Z</time>
      </trkpt>
      <trkpt lat="46.71171" lon="5.95342">
        <ele>764.9</ele>
        <time>2020-07-05T13:02:48Z</time>
      </trkpt>
      <trkpt lat="46.7117" lon="5.95336">
        <ele>766.9</ele>
        <time>2020-07-05T13:03:01Z</time>
      </trkpt>
      <trkpt lat="46.71165" lon="5.95336">
        <ele>767.3</ele>
        <time>2020-07-05T13:03:18Z</time>
      </trkpt>
      <trkpt lat="46.71149" lon="5.95346">
        <ele>767.5</ele>
        <time>2020-07-05T13:04:18Z</time>
      </trkpt>
      <trkpt lat="46.71144" lon="5.95348">
        <ele>767.7</ele>
        <time>2020-07-05T13:04:25Z</time>
      </trkpt>
      <trkpt lat="46.7114" lon="5.95353">
        <ele>767.9</ele>
        <time>2020-07-05T13:04:27Z</time>
      </trkpt>
      <trkpt lat="46.71137" lon="5.95358">
        <ele>768.2</ele>
        <time>2020-07-05T13:04:29Z</time>
      </trkpt>
      <trkpt lat="46.71134" lon="5.95363">
        <ele>768.7</ele>
        <time>2020-07-05T13:04:33Z</time>
      </trkpt>
      <trkpt lat="46.71129" lon="5.95364">
        <ele>768.9</ele>
        <time>2020-07-05T13:04:39Z</time>
      </trkpt>
      <trkpt lat="46.71123" lon="5.95365">
        <ele>768.7</ele>
        <time>2020-07-05T13:04:44Z</time>
      </trkpt>
      <trkpt lat="46.71118" lon="5.95366">
        <ele>768.3</ele>
        <time>2020-07-05T13:04:48Z</time>
      </trkpt>
      <trkpt lat="46.71114" lon="5.95366">
        <ele>767.5</ele>
        <time>2020-07-05T13:04:55Z</time>
      </trkpt>
      <trkpt lat="46.71109" lon="5.95364">
        <ele>766.4</ele>
        <time>2020-07-05T13:05:04Z</time>
      </trkpt>
      <trkpt lat="46.71105" lon="5.95366">
        <ele>766.1</ele>
        <time>2020-07-05T13:05:11Z</time>
      </trkpt>
      <trkpt lat="46.71096" lon="5.95369">
        <ele>766.7</ele>
        <time>2020-07-05T13:05:49Z</time>
      </trkpt>
      <trkpt lat="46.71092" lon="5.95373">
        <ele>766.5</ele>
        <time>2020-07-05T13:05:53Z</time>
      </trkpt>
      <trkpt lat="46.71088" lon="5.95378">
        <ele>765.9</ele>
        <time>2020-07-05T13:05:58Z</time>
      </trkpt>
      <trkpt lat="46.71085" lon="5.95383">
        <ele>764.8</ele>
        <time>2020-07-05T13:06:04Z</time>
      </trkpt>
      <trkpt lat="46.71081" lon="5.95387">
        <ele>763.6</ele>
        <time>2020-07-05T13:06:10Z</time>
      </trkpt>
      <trkpt lat="46.71076" lon="5.9539">
        <ele>762.4</ele>
        <time>2020-07-05T13:06:16Z</time>
      </trkpt>
      <trkpt lat="46.71071" lon="5.95394">
        <ele>761.4</ele>
        <time>2020-07-05T13:06:22Z</time>
      </trkpt>
      <trkpt lat="46.71066" lon="5.95396">
        <ele>760.6</ele>
        <time>2020-07-05T13:06:27Z</time>
      </trkpt>
      <trkpt lat="46.71062" lon="5.95398">
        <ele>760</ele>
        <time>2020-07-05T13:06:31Z</time>
      </trkpt>
      <trkpt lat="46.71049" lon="5.95402">
        <ele>758.2</ele>
        <time>2020-07-05T13:06:45Z</time>
      </trkpt>
      <trkpt lat="46.71044" lon="5.95403">
        <ele>758.2</ele>
        <time>2020-07-05T13:06:52Z</time>
      </trkpt>
      <trkpt lat="46.71039" lon="5.95404">
        <ele>757.8</ele>
        <time>2020-07-05T13:06:59Z</time>
      </trkpt>
      <trkpt lat="46.71034" lon="5.95403">
        <ele>757.3</ele>
        <time>2020-07-05T13:07:04Z</time>
      </trkpt>
      <trkpt lat="46.71029" lon="5.95402">
        <ele>756.8</ele>
        <time>2020-07-05T13:07:08Z</time>
      </trkpt>
      <trkpt lat="46.71024" lon="5.95403">
        <ele>756.3</ele>
        <time>2020-07-05T13:07:13Z</time>
      </trkpt>
      <trkpt lat="46.71019" lon="5.95403">
        <ele>755.9</ele>
        <time>2020-07-05T13:07:17Z</time>
      </trkpt>
      <trkpt lat="46.71014" lon="5.95402">
        <ele>755.4</ele>
        <time>2020-07-05T13:07:23Z</time>
      </trkpt>
      <trkpt lat="46.71008" lon="5.95404">
        <ele>754.7</ele>
        <time>2020-07-05T13:07:29Z</time>
      </trkpt>
      <trkpt lat="46.70996" lon="5.95401">
        <ele>753.1</ele>
        <time>2020-07-05T13:07:40Z</time>
      </trkpt>
      <trkpt lat="46.70991" lon="5.954">
        <ele>752.7</ele>
        <time>2020-07-05T13:07:45Z</time>
      </trkpt>
      <trkpt lat="46.70986" lon="5.95399">
        <ele>752.3</ele>
        <time>2020-07-05T13:07:51Z</time>
      </trkpt>
      <trkpt lat="46.70982" lon="5.954">
        <ele>752.1</ele>
        <time>2020-07-05T13:07:55Z</time>
      </trkpt>
      <trkpt lat="46.70977" lon="5.95399">
        <ele>751.8</ele>
        <time>2020-07-05T13:08:00Z</time>
      </trkpt>
      <trkpt lat="46.70964" lon="5.95432">
        <ele>751</ele>
        <time>2020-07-05T13:08:36Z</time>
      </trkpt>
      <trkpt lat="46.70965" lon="5.9544">
        <ele>751</ele>
        <time>2020-07-05T13:08:40Z</time>
      </trkpt>
      <trkpt lat="46.70965" lon="5.95446">
        <ele>751.1</ele>
        <time>2020-07-05T13:08:43Z</time>
      </trkpt>
      <trkpt lat="46.70963" lon="5.95453">
        <ele>751.6</ele>
        <time>2020-07-05T13:08:47Z</time>
      </trkpt>
      <trkpt lat="46.70961" lon="5.95459">
        <ele>752</ele>
        <time>2020-07-05T13:08:50Z</time>
      </trkpt>
      <trkpt lat="46.70954" lon="5.95473">
        <ele>753</ele>
        <time>2020-07-05T13:09:06Z</time>
      </trkpt>
      <trkpt lat="46.70952" lon="5.95478">
        <ele>752.9</ele>
        <time>2020-07-05T13:09:09Z</time>
      </trkpt>
      <trkpt lat="46.70949" lon="5.95485">
        <ele>754.4</ele>
        <time>2020-07-05T13:10:29Z</time>
      </trkpt>
      <trkpt lat="46.70944" lon="5.95493">
        <ele>757.3</ele>
        <time>2020-07-05T13:10:51Z</time>
      </trkpt>
      <trkpt lat="46.70939" lon="5.95496">
        <ele>756.8</ele>
        <time>2020-07-05T13:11:19Z</time>
      </trkpt>
      <trkpt lat="46.70934" lon="5.95498">
        <ele>756.7</ele>
        <time>2020-07-05T13:11:24Z</time>
      </trkpt>
      <trkpt lat="46.7093" lon="5.95502">
        <ele>756.7</ele>
        <time>2020-07-05T13:11:29Z</time>
      </trkpt>
      <trkpt lat="46.70926" lon="5.95505">
        <ele>757</ele>
        <time>2020-07-05T13:11:35Z</time>
      </trkpt>
      <trkpt lat="46.70921" lon="5.95507">
        <ele>757.3</ele>
        <time>2020-07-05T13:11:40Z</time>
      </trkpt>
      <trkpt lat="46.70917" lon="5.95511">
        <ele>757.4</ele>
        <time>2020-07-05T13:11:44Z</time>
      </trkpt>
      <trkpt lat="46.70913" lon="5.95514">
        <ele>757</ele>
        <time>2020-07-05T13:11:50Z</time>
      </trkpt>
      <trkpt lat="46.70882" lon="5.95515">
        <ele>755.8</ele>
        <time>2020-07-05T13:12:21Z</time>
      </trkpt>
      <trkpt lat="46.70878" lon="5.95517">
        <ele>756.1</ele>
        <time>2020-07-05T13:12:25Z</time>
      </trkpt>
      <trkpt lat="46.70873" lon="5.95517">
        <ele>756.6</ele>
        <time>2020-07-05T13:12:30Z</time>
      </trkpt>
      <trkpt lat="46.70868" lon="5.95517">
        <ele>757.1</ele>
        <time>2020-07-05T13:12:34Z</time>
      </trkpt>
      <trkpt lat="46.70862" lon="5.9552">
        <ele>758</ele>
        <time>2020-07-05T13:12:40Z</time>
      </trkpt>
      <trkpt lat="46.70858" lon="5.95526">
        <ele>758.3</ele>
        <time>2020-07-05T13:12:42Z</time>
      </trkpt>
      <trkpt lat="46.70854" lon="5.95531">
        <ele>758.7</ele>
        <time>2020-07-05T13:12:44Z</time>
      </trkpt>
      <trkpt lat="46.7085" lon="5.95536">
        <ele>759.3</ele>
        <time>2020-07-05T13:12:48Z</time>
      </trkpt>
      <trkpt lat="46.70845" lon="5.95536">
        <ele>759.8</ele>
        <time>2020-07-05T13:12:51Z</time>
      </trkpt>
      <trkpt lat="46.70841" lon="5.95534">
        <ele>761</ele>
        <time>2020-07-05T13:12:59Z</time>
      </trkpt>
      <trkpt lat="46.70836" lon="5.95535">
        <ele>761.7</ele>
        <time>2020-07-05T13:13:02Z</time>
      </trkpt>
      <trkpt lat="46.70807" lon="5.95536">
        <ele>765.9</ele>
        <time>2020-07-05T13:13:25Z</time>
      </trkpt>
      <trkpt lat="46.70796" lon="5.9554">
        <ele>764.4</ele>
        <time>2020-07-05T13:13:42Z</time>
      </trkpt>
      <trkpt lat="46.70782" lon="5.95545">
        <ele>764.6</ele>
        <time>2020-07-05T13:13:53Z</time>
      </trkpt>
      <trkpt lat="46.70778" lon="5.95547">
        <ele>764.7</ele>
        <time>2020-07-05T13:13:57Z</time>
      </trkpt>
      <trkpt lat="46.70773" lon="5.95545">
        <ele>764.6</ele>
        <time>2020-07-05T13:14:02Z</time>
      </trkpt>
      <trkpt lat="46.70767" lon="5.95545">
        <ele>763.7</ele>
        <time>2020-07-05T13:14:10Z</time>
      </trkpt>
      <trkpt lat="46.70762" lon="5.95547">
        <ele>762.5</ele>
        <time>2020-07-05T13:14:15Z</time>
      </trkpt>
      <trkpt lat="46.70754" lon="5.9555">
        <ele>759.2</ele>
        <time>2020-07-05T13:14:23Z</time>
      </trkpt>
      <trkpt lat="46.70745" lon="5.9555">
        <ele>757.4</ele>
        <time>2020-07-05T13:14:33Z</time>
      </trkpt>
      <trkpt lat="46.70739" lon="5.95548">
        <ele>756.7</ele>
        <time>2020-07-05T13:14:42Z</time>
      </trkpt>
      <trkpt lat="46.70735" lon="5.95544">
        <ele>756.4</ele>
        <time>2020-07-05T13:14:44Z</time>
      </trkpt>
      <trkpt lat="46.70702" lon="5.9552">
        <ele>748.5</ele>
        <time>2020-07-05T13:15:34Z</time>
      </trkpt>
      <trkpt lat="46.70699" lon="5.95516">
        <ele>748.5</ele>
        <time>2020-07-05T13:15:38Z</time>
      </trkpt>
      <trkpt lat="46.70695" lon="5.95512">
        <ele>748.6</ele>
        <time>2020-07-05T13:15:42Z</time>
      </trkpt>
      <trkpt lat="46.7069" lon="5.95509">
        <ele>748.7</ele>
        <time>2020-07-05T13:15:47Z</time>
      </trkpt>
      <trkpt lat="46.70685" lon="5.95507">
        <ele>748.9</ele>
        <time>2020-07-05T13:15:50Z</time>
      </trkpt>
      <trkpt lat="46.70681" lon="5.95505">
        <ele>749.1</ele>
        <time>2020-07-05T13:15:55Z</time>
      </trkpt>
      <trkpt lat="46.70676" lon="5.95504">
        <ele>748.9</ele>
        <time>2020-07-05T13:16:01Z</time>
      </trkpt>
      <trkpt lat="46.7067" lon="5.95498">
        <ele>748.3</ele>
        <time>2020-07-05T13:16:12Z</time>
      </trkpt>
      <trkpt lat="46.70657" lon="5.9548">
        <ele>747.3</ele>
        <time>2020-07-05T13:16:30Z</time>
      </trkpt>
      <trkpt lat="46.70653" lon="5.95475">
        <ele>747</ele>
        <time>2020-07-05T13:16:33Z</time>
      </trkpt>
      <trkpt lat="46.7065" lon="5.95469">
        <ele>746</ele>
        <time>2020-07-05T13:16:38Z</time>
      </trkpt>
      <trkpt lat="46.70647" lon="5.95463">
        <ele>743.9</ele>
        <time>2020-07-05T13:16:47Z</time>
      </trkpt>
      <trkpt lat="46.7064" lon="5.95458">
        <ele>741</ele>
        <time>2020-07-05T13:17:05Z</time>
      </trkpt>
      <trkpt lat="46.70636" lon="5.95454">
        <ele>741</ele>
        <time>2020-07-05T13:17:11Z</time>
      </trkpt>
      <trkpt lat="46.70596" lon="5.9545">
        <ele>732.3</ele>
        <time>2020-07-05T13:17:54Z</time>
      </trkpt>
      <trkpt lat="46.70591" lon="5.95449">
        <ele>733.2</ele>
        <time>2020-07-05T13:18:05Z</time>
      </trkpt>
      <trkpt lat="46.70586" lon="5.95453">
        <ele>734</ele>
        <time>2020-07-05T13:18:10Z</time>
      </trkpt>
      <trkpt lat="46.7056" lon="5.95458">
        <ele>736.5</ele>
        <time>2020-07-05T13:18:26Z</time>
      </trkpt>
      <trkpt lat="46.70555" lon="5.95459">
        <ele>737</ele>
        <time>2020-07-05T13:18:30Z</time>
      </trkpt>
      <trkpt lat="46.7054" lon="5.9546">
        <ele>741.7</ele>
        <time>2020-07-05T13:19:24Z</time>
      </trkpt>
      <trkpt lat="46.70535" lon="5.95463">
        <ele>741.9</ele>
        <time>2020-07-05T13:19:28Z</time>
      </trkpt>
      <trkpt lat="46.70519" lon="5.95475">
        <ele>742</ele>
        <time>2020-07-05T13:19:49Z</time>
      </trkpt>
      <trkpt lat="46.70506" lon="5.95484">
        <ele>738.4</ele>
        <time>2020-07-05T13:20:07Z</time>
      </trkpt>
      <trkpt lat="46.70502" lon="5.95487">
        <ele>738.2</ele>
        <time>2020-07-05T13:20:10Z</time>
      </trkpt>
      <trkpt lat="46.70497" lon="5.95491">
        <ele>738</ele>
        <time>2020-07-05T13:20:14Z</time>
      </trkpt>
      <trkpt lat="46.7049" lon="5.95498">
        <ele>736.8</ele>
        <time>2020-07-05T13:20:27Z</time>
      </trkpt>
      <trkpt lat="46.70486" lon="5.95503">
        <ele>736.7</ele>
        <time>2020-07-05T13:20:31Z</time>
      </trkpt>
      <trkpt lat="46.70479" lon="5.95511">
        <ele>736.9</ele>
        <time>2020-07-05T13:20:42Z</time>
      </trkpt>
      <trkpt lat="46.70471" lon="5.95514">
        <ele>738</ele>
        <time>2020-07-05T13:20:55Z</time>
      </trkpt>
      <trkpt lat="46.70465" lon="5.95516">
        <ele>738</ele>
        <time>2020-07-05T13:20:59Z</time>
      </trkpt>
      <trkpt lat="46.70459" lon="5.95519">
        <ele>738</ele>
        <time>2020-07-05T13:21:01Z</time>
      </trkpt>
      <trkpt lat="46.70454" lon="5.95522">
        <ele>738</ele>
        <time>2020-07-05T13:21:03Z</time>
      </trkpt>
      <trkpt lat="46.7045" lon="5.95524">
        <ele>738.5</ele>
        <time>2020-07-05T13:21:09Z</time>
      </trkpt>
      <trkpt lat="46.70445" lon="5.95528">
        <ele>739.1</ele>
        <time>2020-07-05T13:21:14Z</time>
      </trkpt>
      <trkpt lat="46.70442" lon="5.95535">
        <ele>740.7</ele>
        <time>2020-07-05T13:21:21Z</time>
      </trkpt>
      <trkpt lat="46.70441" lon="5.95542">
        <ele>741.7</ele>
        <time>2020-07-05T13:21:25Z</time>
      </trkpt>
      <trkpt lat="46.7044" lon="5.95549">
        <ele>742.7</ele>
        <time>2020-07-05T13:21:31Z</time>
      </trkpt>
      <trkpt lat="46.70439" lon="5.95557">
        <ele>743</ele>
        <time>2020-07-05T13:21:34Z</time>
      </trkpt>
      <trkpt lat="46.70438" lon="5.95564">
        <ele>743.2</ele>
        <time>2020-07-05T13:21:39Z</time>
      </trkpt>
      <trkpt lat="46.70434" lon="5.95568">
        <ele>743.8</ele>
        <time>2020-07-05T13:21:45Z</time>
      </trkpt>
      <trkpt lat="46.7043" lon="5.95572">
        <ele>744.9</ele>
        <time>2020-07-05T13:21:51Z</time>
      </trkpt>
      <trkpt lat="46.70425" lon="5.95579">
        <ele>745.6</ele>
        <time>2020-07-05T13:21:55Z</time>
      </trkpt>
      <trkpt lat="46.70422" lon="5.95585">
        <ele>746.2</ele>
        <time>2020-07-05T13:21:59Z</time>
      </trkpt>
      <trkpt lat="46.70418" lon="5.9559">
        <ele>746.8</ele>
        <time>2020-07-05T13:22:04Z</time>
      </trkpt>
      <trkpt lat="46.70415" lon="5.95595">
        <ele>747</ele>
        <time>2020-07-05T13:22:09Z</time>
      </trkpt>
      <trkpt lat="46.70412" lon="5.956">
        <ele>746.5</ele>
        <time>2020-07-05T13:22:15Z</time>
      </trkpt>
      <trkpt lat="46.70408" lon="5.95604">
        <ele>745.6</ele>
        <time>2020-07-05T13:22:20Z</time>
      </trkpt>
      <trkpt lat="46.70401" lon="5.95609">
        <ele>742.6</ele>
        <time>2020-07-05T13:22:29Z</time>
      </trkpt>
      <trkpt lat="46.70398" lon="5.95614">
        <ele>741.4</ele>
        <time>2020-07-05T13:22:35Z</time>
      </trkpt>
      <trkpt lat="46.70395" lon="5.9562">
        <ele>739.7</ele>
        <time>2020-07-05T13:22:45Z</time>
      </trkpt>
      <trkpt lat="46.70391" lon="5.95625">
        <ele>739.5</ele>
        <time>2020-07-05T13:22:49Z</time>
      </trkpt>
      <trkpt lat="46.70388" lon="5.9563">
        <ele>739.6</ele>
        <time>2020-07-05T13:22:54Z</time>
      </trkpt>
      <trkpt lat="46.70384" lon="5.95635">
        <ele>739.9</ele>
        <time>2020-07-05T13:22:58Z</time>
      </trkpt>
      <trkpt lat="46.70382" lon="5.95631">
        <ele>737</ele>
        <time>2020-07-05T13:23:44Z</time>
      </trkpt>
      <trkpt lat="46.70379" lon="5.95624">
        <ele>735.8</ele>
        <time>2020-07-05T13:23:48Z</time>
      </trkpt>
      <trkpt lat="46.70361" lon="5.95609">
        <ele>725.1</ele>
        <time>2020-07-05T13:24:38Z</time>
      </trkpt>
      <trkpt lat="46.70356" lon="5.95608">
        <ele>724.5</ele>
        <time>2020-07-05T13:24:42Z</time>
      </trkpt>
      <trkpt lat="46.70351" lon="5.95607">
        <ele>724</ele>
        <time>2020-07-05T13:24:50Z</time>
      </trkpt>
      <trkpt lat="46.70348" lon="5.95602">
        <ele>723.9</ele>
        <time>2020-07-05T13:25:00Z</time>
      </trkpt>
      <trkpt lat="46.70343" lon="5.95598">
        <ele>723.8</ele>
        <time>2020-07-05T13:25:06Z</time>
      </trkpt>
      <trkpt lat="46.7034" lon="5.95592">
        <ele>723.5</ele>
        <time>2020-07-05T13:25:12Z</time>
      </trkpt>
      <trkpt lat="46.70336" lon="5.95587">
        <ele>723.2</ele>
        <time>2020-07-05T13:25:15Z</time>
      </trkpt>
      <trkpt lat="46.70332" lon="5.95582">
        <ele>722.4</ele>
        <time>2020-07-05T13:25:21Z</time>
      </trkpt>
      <trkpt lat="46.70329" lon="5.95578">
        <ele>721.6</ele>
        <time>2020-07-05T13:25:27Z</time>
      </trkpt>
      <trkpt lat="46.70324" lon="5.95576">
        <ele>720.9</ele>
        <time>2020-07-05T13:25:36Z</time>
      </trkpt>
      <trkpt lat="46.70319" lon="5.95573">
        <ele>720.4</ele>
        <time>2020-07-05T13:25:44Z</time>
      </trkpt>
      <trkpt lat="46.70314" lon="5.95567">
        <ele>720</ele>
        <time>2020-07-05T13:25:50Z</time>
      </trkpt>
      <trkpt lat="46.70309" lon="5.95564">
        <ele>719.9</ele>
        <time>2020-07-05T13:25:52Z</time>
      </trkpt>
      <trkpt lat="46.70304" lon="5.95563">
        <ele>719.8</ele>
        <time>2020-07-05T13:25:55Z</time>
      </trkpt>
      <trkpt lat="46.70298" lon="5.95565">
        <ele>719.4</ele>
        <time>2020-07-05T13:25:59Z</time>
      </trkpt>
      <trkpt lat="46.70292" lon="5.95567">
        <ele>719</ele>
        <time>2020-07-05T13:26:01Z</time>
      </trkpt>
      <trkpt lat="46.70288" lon="5.95569">
        <ele>718.3</ele>
        <time>2020-07-05T13:26:05Z</time>
      </trkpt>
      <trkpt lat="46.70279" lon="5.95565">
        <ele>716.3</ele>
        <time>2020-07-05T13:26:15Z</time>
      </trkpt>
      <trkpt lat="46.70271" lon="5.95562">
        <ele>719</ele>
        <time>2020-07-05T13:27:03Z</time>
      </trkpt>
      <trkpt lat="46.70266" lon="5.95564">
        <ele>719.7</ele>
        <time>2020-07-05T13:27:07Z</time>
      </trkpt>
      <trkpt lat="46.70265" lon="5.9557">
        <ele>720.7</ele>
        <time>2020-07-05T13:27:14Z</time>
      </trkpt>
      <trkpt lat="46.70255" lon="5.95578">
        <ele>731.7</ele>
        <time>2020-07-05T13:28:01Z</time>
      </trkpt>
      <trkpt lat="46.7025" lon="5.9558">
        <ele>732.3</ele>
        <time>2020-07-05T13:28:07Z</time>
      </trkpt>
      <trkpt lat="46.70247" lon="5.95584">
        <ele>732.9</ele>
        <time>2020-07-05T13:28:11Z</time>
      </trkpt>
      <trkpt lat="46.70242" lon="5.95589">
        <ele>734.5</ele>
        <time>2020-07-05T13:28:20Z</time>
      </trkpt>
      <trkpt lat="46.70238" lon="5.95594">
        <ele>734.9</ele>
        <time>2020-07-05T13:28:23Z</time>
      </trkpt>
      <trkpt lat="46.70235" lon="5.95599">
        <ele>735.2</ele>
        <time>2020-07-05T13:28:25Z</time>
      </trkpt>
      <trkpt lat="46.70231" lon="5.95604">
        <ele>735.4</ele>
        <time>2020-07-05T13:28:29Z</time>
      </trkpt>
      <trkpt lat="46.7023" lon="5.95611">
        <ele>734.9</ele>
        <time>2020-07-05T13:28:36Z</time>
      </trkpt>
      <trkpt lat="46.70227" lon="5.95617">
        <ele>733</ele>
        <time>2020-07-05T13:28:46Z</time>
      </trkpt>
      <trkpt lat="46.70219" lon="5.95628">
        <ele>727.9</ele>
        <time>2020-07-05T13:29:04Z</time>
      </trkpt>
      <trkpt lat="46.70214" lon="5.9563">
        <ele>725.5</ele>
        <time>2020-07-05T13:29:13Z</time>
      </trkpt>
      <trkpt lat="46.70212" lon="5.95636">
        <ele>723.3</ele>
        <time>2020-07-05T13:29:20Z</time>
      </trkpt>
      <trkpt lat="46.70206" lon="5.95652">
        <ele>717.7</ele>
        <time>2020-07-05T13:29:40Z</time>
      </trkpt>
      <trkpt lat="46.70204" lon="5.95659">
        <ele>717</ele>
        <time>2020-07-05T13:29:46Z</time>
      </trkpt>
      <trkpt lat="46.702" lon="5.95664">
        <ele>715.9</ele>
        <time>2020-07-05T13:29:53Z</time>
      </trkpt>
      <trkpt lat="46.70196" lon="5.95665">
        <ele>715.2</ele>
        <time>2020-07-05T13:29:57Z</time>
      </trkpt>
      <trkpt lat="46.70191" lon="5.95665">
        <ele>714</ele>
        <time>2020-07-05T13:30:03Z</time>
      </trkpt>
      <trkpt lat="46.70186" lon="5.95665">
        <ele>712.9</ele>
        <time>2020-07-05T13:30:08Z</time>
      </trkpt>
      <trkpt lat="46.70181" lon="5.95664">
        <ele>711.7</ele>
        <time>2020-07-05T13:30:13Z</time>
      </trkpt>
      <trkpt lat="46.70166" lon="5.95664">
        <ele>706.3</ele>
        <time>2020-07-05T13:30:32Z</time>
      </trkpt>
      <trkpt lat="46.7016" lon="5.95666">
        <ele>706</ele>
        <time>2020-07-05T13:30:37Z</time>
      </trkpt>
      <trkpt lat="46.70155" lon="5.95667">
        <ele>706</ele>
        <time>2020-07-05T13:30:41Z</time>
      </trkpt>
      <trkpt lat="46.7015" lon="5.95666">
        <ele>706.3</ele>
        <time>2020-07-05T13:30:50Z</time>
      </trkpt>
      <trkpt lat="46.70146" lon="5.95663">
        <ele>706.5</ele>
        <time>2020-07-05T13:30:54Z</time>
      </trkpt>
      <trkpt lat="46.7014" lon="5.95663">
        <ele>706.5</ele>
        <time>2020-07-05T13:30:56Z</time>
      </trkpt>
      <trkpt lat="46.70133" lon="5.95664">
        <ele>706.4</ele>
        <time>2020-07-05T13:30:59Z</time>
      </trkpt>
      <trkpt lat="46.70128" lon="5.95665">
        <ele>706</ele>
        <time>2020-07-05T13:31:02Z</time>
      </trkpt>
      <trkpt lat="46.70123" lon="5.95665">
        <ele>705.2</ele>
        <time>2020-07-05T13:31:07Z</time>
      </trkpt>
      <trkpt lat="46.70118" lon="5.95666">
        <ele>703.6</ele>
        <time>2020-07-05T13:31:16Z</time>
      </trkpt>
      <trkpt lat="46.7011" lon="5.95685">
        <ele>697</ele>
        <time>2020-07-05T13:32:01Z</time>
      </trkpt>
      <trkpt lat="46.70109" lon="5.95694">
        <ele>697.1</ele>
        <time>2020-07-05T13:32:05Z</time>
      </trkpt>
      <trkpt lat="46.70107" lon="5.957">
        <ele>697.3</ele>
        <time>2020-07-05T13:32:10Z</time>
      </trkpt>
      <trkpt lat="46.70109" lon="5.95698">
        <ele>699.4</ele>
        <time>2020-07-05T13:33:54Z</time>
      </trkpt>
      <trkpt lat="46.70112" lon="5.95692">
        <ele>699.4</ele>
        <time>2020-07-05T13:33:57Z</time>
      </trkpt>
      <trkpt lat="46.70119" lon="5.95679">
        <ele>697.5</ele>
        <time>2020-07-05T13:34:20Z</time>
      </trkpt>
      <trkpt lat="46.70117" lon="5.9567">
        <ele>695.9</ele>
        <time>2020-07-05T13:34:57Z</time>
      </trkpt>
      <trkpt lat="46.70111" lon="5.95669">
        <ele>695.4</ele>
        <time>2020-07-05T13:35:02Z</time>
      </trkpt>
      <trkpt lat="46.70107" lon="5.95669">
        <ele>694.9</ele>
        <time>2020-07-05T13:35:06Z</time>
      </trkpt>
      <trkpt lat="46.70098" lon="5.95647">
        <ele>699.5</ele>
        <time>2020-07-05T13:35:50Z</time>
      </trkpt>
      <trkpt lat="46.70096" lon="5.9564">
        <ele>699.8</ele>
        <time>2020-07-05T13:36:01Z</time>
      </trkpt>
      <trkpt lat="46.70092" lon="5.95632">
        <ele>699.7</ele>
        <time>2020-07-05T13:36:04Z</time>
      </trkpt>
      <trkpt lat="46.70086" lon="5.95629">
        <ele>699.6</ele>
        <time>2020-07-05T13:36:06Z</time>
      </trkpt>
      <trkpt lat="46.70083" lon="5.95624">
        <ele>699.5</ele>
        <time>2020-07-05T13:36:08Z</time>
      </trkpt>
      <trkpt lat="46.70074" lon="5.95617">
        <ele>699</ele>
        <time>2020-07-05T13:36:17Z</time>
      </trkpt>
      <trkpt lat="46.70076" lon="5.95625">
        <ele>698.4</ele>
        <time>2020-07-05T13:36:35Z</time>
      </trkpt>
      <trkpt lat="46.70079" lon="5.95631">
        <ele>698</ele>
        <time>2020-07-05T13:36:39Z</time>
      </trkpt>
      <trkpt lat="46.70084" lon="5.95636">
        <ele>697.4</ele>
        <time>2020-07-05T13:36:44Z</time>
      </trkpt>
      <trkpt lat="46.70087" lon="5.95642">
        <ele>696.6</ele>
        <time>2020-07-05T13:36:50Z</time>
      </trkpt>
      <trkpt lat="46.70084" lon="5.9564">
        <ele>692.1</ele>
        <time>2020-07-05T13:37:18Z</time>
      </trkpt>
      <trkpt lat="46.70065" lon="5.95611">
        <ele>689.1</ele>
        <time>2020-07-05T13:38:40Z</time>
      </trkpt>
      <trkpt lat="46.70059" lon="5.95606">
        <ele>690</ele>
        <time>2020-07-05T13:39:01Z</time>
      </trkpt>
      <trkpt lat="46.70054" lon="5.95601">
        <ele>690.3</ele>
        <time>2020-07-05T13:39:03Z</time>
      </trkpt>
      <trkpt lat="46.70049" lon="5.95598">
        <ele>690.7</ele>
        <time>2020-07-05T13:39:06Z</time>
      </trkpt>
      <trkpt lat="46.70043" lon="5.95597">
        <ele>691.1</ele>
        <time>2020-07-05T13:39:09Z</time>
      </trkpt>
      <trkpt lat="46.70039" lon="5.95596">
        <ele>691.8</ele>
        <time>2020-07-05T13:39:15Z</time>
      </trkpt>
      <trkpt lat="46.70035" lon="5.95592">
        <ele>692.6</ele>
        <time>2020-07-05T13:39:29Z</time>
      </trkpt>
      <trkpt lat="46.70033" lon="5.95586">
        <ele>692.4</ele>
        <time>2020-07-05T13:39:36Z</time>
      </trkpt>
      <trkpt lat="46.70025" lon="5.95578">
        <ele>692.1</ele>
        <time>2020-07-05T13:39:50Z</time>
      </trkpt>
      <trkpt lat="46.7002" lon="5.95575">
        <ele>691.6</ele>
        <time>2020-07-05T13:40:02Z</time>
      </trkpt>
      <trkpt lat="46.7001" lon="5.95576">
        <ele>690.4</ele>
        <time>2020-07-05T13:40:33Z</time>
      </trkpt>
      <trkpt lat="46.70004" lon="5.95577">
        <ele>689.1</ele>
        <time>2020-07-05T13:40:46Z</time>
      </trkpt>
      <trkpt lat="46.69999" lon="5.95579">
        <ele>687.3</ele>
        <time>2020-07-05T13:40:56Z</time>
      </trkpt>
      <trkpt lat="46.69994" lon="5.9558">
        <ele>686.6</ele>
        <time>2020-07-05T13:40:59Z</time>
      </trkpt>
      <trkpt lat="46.69989" lon="5.95581">
        <ele>685.2</ele>
        <time>2020-07-05T13:41:05Z</time>
      </trkpt>
      <trkpt lat="46.69984" lon="5.95582">
        <ele>684.2</ele>
        <time>2020-07-05T13:41:09Z</time>
      </trkpt>
      <trkpt lat="46.6997" lon="5.95588">
        <ele>679.8</ele>
        <time>2020-07-05T13:41:31Z</time>
      </trkpt>
      <trkpt lat="46.69966" lon="5.95587">
        <ele>679.5</ele>
        <time>2020-07-05T13:41:38Z</time>
      </trkpt>
      <trkpt lat="46.69961" lon="5.95588">
        <ele>679.2</ele>
        <time>2020-07-05T13:41:41Z</time>
      </trkpt>
      <trkpt lat="46.69956" lon="5.95589">
        <ele>678</ele>
        <time>2020-07-05T13:41:50Z</time>
      </trkpt>
      <trkpt lat="46.69951" lon="5.9559">
        <ele>677.2</ele>
        <time>2020-07-05T13:41:57Z</time>
      </trkpt>
      <trkpt lat="46.6993" lon="5.95587">
        <ele>667.6</ele>
        <time>2020-07-05T13:42:30Z</time>
      </trkpt>
      <trkpt lat="46.69925" lon="5.95585">
        <ele>666.9</ele>
        <time>2020-07-05T13:42:36Z</time>
      </trkpt>
      <trkpt lat="46.69921" lon="5.95587">
        <ele>666.3</ele>
        <time>2020-07-05T13:42:41Z</time>
      </trkpt>
      <trkpt lat="46.69886" lon="5.95583">
        <ele>661.5</ele>
        <time>2020-07-05T13:43:15Z</time>
      </trkpt>
      <trkpt lat="46.6988" lon="5.9558">
        <ele>660.5</ele>
        <time>2020-07-05T13:43:21Z</time>
      </trkpt>
      <trkpt lat="46.69875" lon="5.95576">
        <ele>660.1</ele>
        <time>2020-07-05T13:43:23Z</time>
      </trkpt>
      <trkpt lat="46.69868" lon="5.95575">
        <ele>659.5</ele>
        <time>2020-07-05T13:43:25Z</time>
      </trkpt>
      <trkpt lat="46.69862" lon="5.95578">
        <ele>658.9</ele>
        <time>2020-07-05T13:43:27Z</time>
      </trkpt>
      <trkpt lat="46.69858" lon="5.95579">
        <ele>657.9</ele>
        <time>2020-07-05T13:43:31Z</time>
      </trkpt>
      <trkpt lat="46.69852" lon="5.9558">
        <ele>656.8</ele>
        <time>2020-07-05T13:43:36Z</time>
      </trkpt>
      <trkpt lat="46.69847" lon="5.95579">
        <ele>656.1</ele>
        <time>2020-07-05T13:43:40Z</time>
      </trkpt>
      <trkpt lat="46.69853" lon="5.95563">
        <ele>656.5</ele>
        <time>2020-07-05T13:44:12Z</time>
      </trkpt>
      <trkpt lat="46.69858" lon="5.95561">
        <ele>656.2</ele>
        <time>2020-07-05T13:44:17Z</time>
      </trkpt>
      <trkpt lat="46.69865" lon="5.95556">
        <ele>655</ele>
        <time>2020-07-05T13:44:39Z</time>
      </trkpt>
      <trkpt lat="46.69879" lon="5.95536">
        <ele>653.3</ele>
        <time>2020-07-05T13:44:51Z</time>
      </trkpt>
      <trkpt lat="46.69882" lon="5.95529">
        <ele>653.3</ele>
        <time>2020-07-05T13:44:55Z</time>
      </trkpt>
      <trkpt lat="46.69884" lon="5.95523">
        <ele>653.2</ele>
        <time>2020-07-05T13:45:00Z</time>
      </trkpt>
      <trkpt lat="46.69887" lon="5.95517">
        <ele>652.8</ele>
        <time>2020-07-05T13:45:05Z</time>
      </trkpt>
      <trkpt lat="46.6989" lon="5.95513">
        <ele>651.7</ele>
        <time>2020-07-05T13:45:15Z</time>
      </trkpt>
      <trkpt lat="46.69889" lon="5.95506">
        <ele>651.3</ele>
        <time>2020-07-05T13:45:21Z</time>
      </trkpt>
      <trkpt lat="46.69919" lon="5.95493">
        <ele>638.1</ele>
        <time>2020-07-05T13:47:34Z</time>
      </trkpt>
      <trkpt lat="46.6993" lon="5.95486">
        <ele>636.3</ele>
        <time>2020-07-05T13:47:50Z</time>
      </trkpt>
      <trkpt lat="46.69935" lon="5.95484">
        <ele>636.2</ele>
        <time>2020-07-05T13:47:54Z</time>
      </trkpt>
      <trkpt lat="46.69939" lon="5.95481">
        <ele>635.9</ele>
        <time>2020-07-05T13:48:04Z</time>
      </trkpt>
      <trkpt lat="46.69944" lon="5.95479">
        <ele>635.7</ele>
        <time>2020-07-05T13:48:07Z</time>
      </trkpt>
      <trkpt lat="46.69957" lon="5.95462">
        <ele>635</ele>
        <time>2020-07-05T13:48:17Z</time>
      </trkpt>
      <trkpt lat="46.69962" lon="5.95462">
        <ele>634.8</ele>
        <time>2020-07-05T13:48:23Z</time>
      </trkpt>
      <trkpt lat="46.69967" lon="5.95458">
        <ele>634.8</ele>
        <time>2020-07-05T13:48:26Z</time>
      </trkpt>
      <trkpt lat="46.69971" lon="5.95453">
        <ele>634.8</ele>
        <time>2020-07-05T13:48:30Z</time>
      </trkpt>
      <trkpt lat="46.69977" lon="5.95452">
        <ele>635</ele>
        <time>2020-07-05T13:48:36Z</time>
      </trkpt>
      <trkpt lat="46.69985" lon="5.95452">
        <ele>633.1</ele>
        <time>2020-07-05T13:49:09Z</time>
      </trkpt>
      <trkpt lat="46.70008" lon="5.95456">
        <ele>633.9</ele>
        <time>2020-07-05T13:49:27Z</time>
      </trkpt>
      <trkpt lat="46.70019" lon="5.95448">
        <ele>636.7</ele>
        <time>2020-07-05T13:49:52Z</time>
      </trkpt>
      <trkpt lat="46.70024" lon="5.95442">
        <ele>637.2</ele>
        <time>2020-07-05T13:49:58Z</time>
      </trkpt>
      <trkpt lat="46.70027" lon="5.95436">
        <ele>637.5</ele>
        <time>2020-07-05T13:50:00Z</time>
      </trkpt>
      <trkpt lat="46.70031" lon="5.95431">
        <ele>638.1</ele>
        <time>2020-07-05T13:50:06Z</time>
      </trkpt>
      <trkpt lat="46.70034" lon="5.95426">
        <ele>638.6</ele>
        <time>2020-07-05T13:50:14Z</time>
      </trkpt>
      <trkpt lat="46.70046" lon="5.95398">
        <ele>640</ele>
        <time>2020-07-05T13:50:33Z</time>
      </trkpt>
      <trkpt lat="46.70048" lon="5.95381">
        <ele>639.8</ele>
        <time>2020-07-05T13:50:48Z</time>
      </trkpt>
      <trkpt lat="46.70044" lon="5.95377">
        <ele>640.2</ele>
        <time>2020-07-05T13:51:01Z</time>
      </trkpt>
      <trkpt lat="46.7002" lon="5.9535">
        <ele>632</ele>
        <time>2020-07-05T13:54:10Z</time>
      </trkpt>
      <trkpt lat="46.70024" lon="5.95341">
        <ele>631.8</ele>
        <time>2020-07-05T13:55:02Z</time>
      </trkpt>
      <trkpt lat="46.70027" lon="5.95298">
        <ele>622.5</ele>
        <time>2020-07-05T13:59:04Z</time>
      </trkpt>
      <trkpt lat="46.70021" lon="5.95289">
        <ele>621.8</ele>
        <time>2020-07-05T13:59:14Z</time>
      </trkpt>
      <trkpt lat="46.70017" lon="5.95283">
        <ele>621.6</ele>
        <time>2020-07-05T13:59:23Z</time>
      </trkpt>
      <trkpt lat="46.70011" lon="5.95291">
        <ele>620.8</ele>
        <time>2020-07-05T13:59:58Z</time>
      </trkpt>
      <trkpt lat="46.70008" lon="5.95295">
        <ele>620.7</ele>
        <time>2020-07-05T14:00:03Z</time>
      </trkpt>
      <trkpt lat="46.70003" lon="5.95294">
        <ele>620.2</ele>
        <time>2020-07-05T14:00:28Z</time>
      </trkpt>
      <trkpt lat="46.69987" lon="5.95307">
        <ele>615.4</ele>
        <time>2020-07-05T14:01:27Z</time>
      </trkpt>
      <trkpt lat="46.69982" lon="5.95305">
        <ele>615.5</ele>
        <time>2020-07-05T14:01:34Z</time>
      </trkpt>
      <trkpt lat="46.69975" lon="5.95305">
        <ele>615.8</ele>
        <time>2020-07-05T14:01:41Z</time>
      </trkpt>
      <trkpt lat="46.69971" lon="5.95307">
        <ele>616.5</ele>
        <time>2020-07-05T14:01:51Z</time>
      </trkpt>
      <trkpt lat="46.6997" lon="5.95314">
        <ele>617</ele>
        <time>2020-07-05T14:01:56Z</time>
      </trkpt>
      <trkpt lat="46.69965" lon="5.95319">
        <ele>617.4</ele>
        <time>2020-07-05T14:02:04Z</time>
      </trkpt>
      <trkpt lat="46.69958" lon="5.95319">
        <ele>616.2</ele>
        <time>2020-07-05T14:02:40Z</time>
      </trkpt>
      <trkpt lat="46.69953" lon="5.95316">
        <ele>616.2</ele>
        <time>2020-07-05T14:02:45Z</time>
      </trkpt>
      <trkpt lat="46.69949" lon="5.95313">
        <ele>615.9</ele>
        <time>2020-07-05T14:02:54Z</time>
      </trkpt>
      <trkpt lat="46.69944" lon="5.95312">
        <ele>615.5</ele>
        <time>2020-07-05T14:02:57Z</time>
      </trkpt>
      <trkpt lat="46.69939" lon="5.95311">
        <ele>614.1</ele>
        <time>2020-07-05T14:03:07Z</time>
      </trkpt>
      <trkpt lat="46.69927" lon="5.95307">
        <ele>609.1</ele>
        <time>2020-07-05T14:03:39Z</time>
      </trkpt>
      <trkpt lat="46.69928" lon="5.953">
        <ele>602</ele>
        <time>2020-07-05T14:04:10Z</time>
      </trkpt>
      <trkpt lat="46.69932" lon="5.95296">
        <ele>601.1</ele>
        <time>2020-07-05T14:04:14Z</time>
      </trkpt>
      <trkpt lat="46.69936" lon="5.9529">
        <ele>600.6</ele>
        <time>2020-07-05T14:04:17Z</time>
      </trkpt>
      <trkpt lat="46.69939" lon="5.95283">
        <ele>600</ele>
        <time>2020-07-05T14:04:21Z</time>
      </trkpt>
      <trkpt lat="46.69943" lon="5.95278">
        <ele>599.3</ele>
        <time>2020-07-05T14:04:26Z</time>
      </trkpt>
      <trkpt lat="46.69944" lon="5.9527">
        <ele>598.2</ele>
        <time>2020-07-05T14:04:32Z</time>
      </trkpt>
      <trkpt lat="46.69946" lon="5.95262">
        <ele>597.8</ele>
        <time>2020-07-05T14:04:34Z</time>
      </trkpt>
      <trkpt lat="46.69949" lon="5.95254">
        <ele>597.3</ele>
        <time>2020-07-05T14:04:37Z</time>
      </trkpt>
      <trkpt lat="46.69952" lon="5.95249">
        <ele>596.6</ele>
        <time>2020-07-05T14:04:41Z</time>
      </trkpt>
      <trkpt lat="46.69953" lon="5.95235">
        <ele>595.1</ele>
        <time>2020-07-05T14:04:54Z</time>
      </trkpt>
      <trkpt lat="46.69949" lon="5.95232">
        <ele>594</ele>
        <time>2020-07-05T14:05:12Z</time>
      </trkpt>
      <trkpt lat="46.69944" lon="5.95236">
        <ele>593.5</ele>
        <time>2020-07-05T14:05:16Z</time>
      </trkpt>
      <trkpt lat="46.69941" lon="5.95241">
        <ele>592.4</ele>
        <time>2020-07-05T14:05:24Z</time>
      </trkpt>
      <trkpt lat="46.69937" lon="5.95245">
        <ele>592</ele>
        <time>2020-07-05T14:05:32Z</time>
      </trkpt>
      <trkpt lat="46.69932" lon="5.95247">
        <ele>592.4</ele>
        <time>2020-07-05T14:05:40Z</time>
      </trkpt>
      <trkpt lat="46.69917" lon="5.95249">
        <ele>592.2</ele>
        <time>2020-07-05T14:06:20Z</time>
      </trkpt>
      <trkpt lat="46.69912" lon="5.9525">
        <ele>591.5</ele>
        <time>2020-07-05T14:06:27Z</time>
      </trkpt>
      <trkpt lat="46.69906" lon="5.95249">
        <ele>591.3</ele>
        <time>2020-07-05T14:06:30Z</time>
      </trkpt>
      <trkpt lat="46.69902" lon="5.95245">
        <ele>591.4</ele>
        <time>2020-07-05T14:06:37Z</time>
      </trkpt>
      <trkpt lat="46.699" lon="5.95239">
        <ele>591.8</ele>
        <time>2020-07-05T14:06:42Z</time>
      </trkpt>
      <trkpt lat="46.69898" lon="5.95233">
        <ele>592.3</ele>
        <time>2020-07-05T14:06:46Z</time>
      </trkpt>
      <trkpt lat="46.69897" lon="5.95227">
        <ele>593.4</ele>
        <time>2020-07-05T14:06:53Z</time>
      </trkpt>
      <trkpt lat="46.69896" lon="5.9522">
        <ele>594.7</ele>
        <time>2020-07-05T14:07:00Z</time>
      </trkpt>
      <trkpt lat="46.69894" lon="5.95213">
        <ele>595.2</ele>
        <time>2020-07-05T14:07:06Z</time>
      </trkpt>
      <trkpt lat="46.69893" lon="5.95205">
        <ele>594.9</ele>
        <time>2020-07-05T14:07:14Z</time>
      </trkpt>
      <trkpt lat="46.69893" lon="5.95197">
        <ele>594.4</ele>
        <time>2020-07-05T14:07:20Z</time>
      </trkpt>
      <trkpt lat="46.69892" lon="5.95191">
        <ele>594</ele>
        <time>2020-07-05T14:07:26Z</time>
      </trkpt>
      <trkpt lat="46.69893" lon="5.95184">
        <ele>592.3</ele>
        <time>2020-07-05T14:07:37Z</time>
      </trkpt>
      <trkpt lat="46.69895" lon="5.95177">
        <ele>590.1</ele>
        <time>2020-07-05T14:07:44Z</time>
      </trkpt>
      <trkpt lat="46.69897" lon="5.95171">
        <ele>586.1</ele>
        <time>2020-07-05T14:07:53Z</time>
      </trkpt>
      <trkpt lat="46.69901" lon="5.95168">
        <ele>583.5</ele>
        <time>2020-07-05T14:07:59Z</time>
      </trkpt>
      <trkpt lat="46.69906" lon="5.95165">
        <ele>581.4</ele>
        <time>2020-07-05T14:08:04Z</time>
      </trkpt>
      <trkpt lat="46.6991" lon="5.95161">
        <ele>579.5</ele>
        <time>2020-07-05T14:08:09Z</time>
      </trkpt>
      <trkpt lat="46.69915" lon="5.95158">
        <ele>577.5</ele>
        <time>2020-07-05T14:08:15Z</time>
      </trkpt>
      <trkpt lat="46.6992" lon="5.95156">
        <ele>576.2</ele>
        <time>2020-07-05T14:08:19Z</time>
      </trkpt>
      <trkpt lat="46.69925" lon="5.95154">
        <ele>574.9</ele>
        <time>2020-07-05T14:08:23Z</time>
      </trkpt>
      <trkpt lat="46.6993" lon="5.95153">
        <ele>573.2</ele>
        <time>2020-07-05T14:08:28Z</time>
      </trkpt>
      <trkpt lat="46.69934" lon="5.95154">
        <ele>571.9</ele>
        <time>2020-07-05T14:08:32Z</time>
      </trkpt>
      <trkpt lat="46.6994" lon="5.95153">
        <ele>570.6</ele>
        <time>2020-07-05T14:08:36Z</time>
      </trkpt>
      <trkpt lat="46.69953" lon="5.95154">
        <ele>564.8</ele>
        <time>2020-07-05T14:08:52Z</time>
      </trkpt>
      <trkpt lat="46.69959" lon="5.95153">
        <ele>563.8</ele>
        <time>2020-07-05T14:08:57Z</time>
      </trkpt>
      <trkpt lat="46.69964" lon="5.95153">
        <ele>563</ele>
        <time>2020-07-05T14:09:03Z</time>
      </trkpt>
      <trkpt lat="46.69969" lon="5.95152">
        <ele>562.6</ele>
        <time>2020-07-05T14:09:08Z</time>
      </trkpt>
      <trkpt lat="46.69974" lon="5.95151">
        <ele>562.3</ele>
        <time>2020-07-05T14:09:12Z</time>
      </trkpt>
      <trkpt lat="46.69979" lon="5.95148">
        <ele>561.8</ele>
        <time>2020-07-05T14:09:16Z</time>
      </trkpt>
      <trkpt lat="46.69984" lon="5.95145">
        <ele>561.4</ele>
        <time>2020-07-05T14:09:19Z</time>
      </trkpt>
      <trkpt lat="46.69987" lon="5.9514">
        <ele>561.1</ele>
        <time>2020-07-05T14:09:22Z</time>
      </trkpt>
      <trkpt lat="46.69991" lon="5.95138">
        <ele>560.9</ele>
        <time>2020-07-05T14:09:27Z</time>
      </trkpt>
      <trkpt lat="46.69996" lon="5.95133">
        <ele>560.8</ele>
        <time>2020-07-05T14:09:30Z</time>
      </trkpt>
      <trkpt lat="46.70001" lon="5.95129">
        <ele>560.7</ele>
        <time>2020-07-05T14:09:33Z</time>
      </trkpt>
      <trkpt lat="46.70006" lon="5.95125">
        <ele>560.7</ele>
        <time>2020-07-05T14:09:36Z</time>
      </trkpt>
      <trkpt lat="46.70011" lon="5.95124">
        <ele>560.5</ele>
        <time>2020-07-05T14:09:41Z</time>
      </trkpt>
      <trkpt lat="46.70016" lon="5.95125">
        <ele>559.7</ele>
        <time>2020-07-05T14:09:49Z</time>
      </trkpt>
      <trkpt lat="46.70022" lon="5.95125">
        <ele>559</ele>
        <time>2020-07-05T14:09:55Z</time>
      </trkpt>
      <trkpt lat="46.70026" lon="5.95124">
        <ele>558.6</ele>
        <time>2020-07-05T14:10:00Z</time>
      </trkpt>
      <trkpt lat="46.70039" lon="5.95117">
        <ele>558.8</ele>
        <time>2020-07-05T14:10:17Z</time>
      </trkpt>
      <trkpt lat="46.70049" lon="5.95113">
        <ele>558</ele>
        <time>2020-07-05T14:10:29Z</time>
      </trkpt>
      <trkpt lat="46.70054" lon="5.95112">
        <ele>557.8</ele>
        <time>2020-07-05T14:10:33Z</time>
      </trkpt>
      <trkpt lat="46.70059" lon="5.9511">
        <ele>557.6</ele>
        <time>2020-07-05T14:10:38Z</time>
      </trkpt>
      <trkpt lat="46.70064" lon="5.95108">
        <ele>557.2</ele>
        <time>2020-07-05T14:10:43Z</time>
      </trkpt>
      <trkpt lat="46.70068" lon="5.95106">
        <ele>557</ele>
        <time>2020-07-05T14:10:47Z</time>
      </trkpt>
      <trkpt lat="46.70073" lon="5.95102">
        <ele>556.7</ele>
        <time>2020-07-05T14:10:51Z</time>
      </trkpt>
      <trkpt lat="46.70078" lon="5.95097">
        <ele>556.5</ele>
        <time>2020-07-05T14:10:56Z</time>
      </trkpt>
      <trkpt lat="46.70081" lon="5.95092">
        <ele>556.4</ele>
        <time>2020-07-05T14:11:01Z</time>
      </trkpt>
      <trkpt lat="46.70085" lon="5.95087">
        <ele>556.1</ele>
        <time>2020-07-05T14:11:07Z</time>
      </trkpt>
      <trkpt lat="46.70088" lon="5.95082">
        <ele>555.5</ele>
        <time>2020-07-05T14:11:15Z</time>
      </trkpt>
      <trkpt lat="46.70092" lon="5.95078">
        <ele>554.3</ele>
        <time>2020-07-05T14:11:26Z</time>
      </trkpt>
      <trkpt lat="46.70096" lon="5.95073">
        <ele>553.9</ele>
        <time>2020-07-05T14:11:30Z</time>
      </trkpt>
      <trkpt lat="46.70099" lon="5.95069">
        <ele>553.6</ele>
        <time>2020-07-05T14:11:34Z</time>
      </trkpt>
      <trkpt lat="46.70104" lon="5.95063">
        <ele>553.2</ele>
        <time>2020-07-05T14:11:39Z</time>
      </trkpt>
      <trkpt lat="46.70108" lon="5.95059">
        <ele>552.7</ele>
        <time>2020-07-05T14:11:43Z</time>
      </trkpt>
      <trkpt lat="46.70111" lon="5.95054">
        <ele>552</ele>
        <time>2020-07-05T14:11:48Z</time>
      </trkpt>
      <trkpt lat="46.70115" lon="5.9505">
        <ele>550.9</ele>
        <time>2020-07-05T14:11:55Z</time>
      </trkpt>
      <trkpt lat="46.70118" lon="5.95044">
        <ele>550.6</ele>
        <time>2020-07-05T14:11:58Z</time>
      </trkpt>
      <trkpt lat="46.70121" lon="5.95038">
        <ele>550.2</ele>
        <time>2020-07-05T14:12:02Z</time>
      </trkpt>
      <trkpt lat="46.70125" lon="5.95034">
        <ele>549.6</ele>
        <time>2020-07-05T14:12:07Z</time>
      </trkpt>
      <trkpt lat="46.7013" lon="5.95031">
        <ele>548.8</ele>
        <time>2020-07-05T14:12:12Z</time>
      </trkpt>
      <trkpt lat="46.70135" lon="5.95029">
        <ele>547.9</ele>
        <time>2020-07-05T14:12:19Z</time>
      </trkpt>
      <trkpt lat="46.70144" lon="5.95021">
        <ele>546.5</ele>
        <time>2020-07-05T14:12:28Z</time>
      </trkpt>
      <trkpt lat="46.70149" lon="5.95016">
        <ele>546.6</ele>
        <time>2020-07-05T14:12:31Z</time>
      </trkpt>
      <trkpt lat="46.70153" lon="5.95011">
        <ele>546.9</ele>
        <time>2020-07-05T14:12:35Z</time>
      </trkpt>
      <trkpt lat="46.70157" lon="5.95006">
        <ele>547.4</ele>
        <time>2020-07-05T14:12:52Z</time>
      </trkpt>
      <trkpt lat="46.70161" lon="5.95001">
        <ele>547.2</ele>
        <time>2020-07-05T14:12:56Z</time>
      </trkpt>
      <trkpt lat="46.70166" lon="5.94998">
        <ele>547.1</ele>
        <time>2020-07-05T14:13:01Z</time>
      </trkpt>
      <trkpt lat="46.7017" lon="5.94995">
        <ele>546.9</ele>
        <time>2020-07-05T14:13:05Z</time>
      </trkpt>
      <trkpt lat="46.70175" lon="5.94992">
        <ele>546.8</ele>
        <time>2020-07-05T14:13:10Z</time>
      </trkpt>
      <trkpt lat="46.7018" lon="5.9499">
        <ele>546.4</ele>
        <time>2020-07-05T14:13:15Z</time>
      </trkpt>
      <trkpt lat="46.70185" lon="5.94988">
        <ele>546</ele>
        <time>2020-07-05T14:13:19Z</time>
      </trkpt>
      <trkpt lat="46.70189" lon="5.94985">
        <ele>545.5</ele>
        <time>2020-07-05T14:13:23Z</time>
      </trkpt>
      <trkpt lat="46.70194" lon="5.94981">
        <ele>545</ele>
        <time>2020-07-05T14:13:27Z</time>
      </trkpt>
      <trkpt lat="46.70198" lon="5.94976">
        <ele>544.4</ele>
        <time>2020-07-05T14:13:32Z</time>
      </trkpt>
      <trkpt lat="46.70203" lon="5.94973">
        <ele>543.6</ele>
        <time>2020-07-05T14:13:38Z</time>
      </trkpt>
      <trkpt lat="46.70207" lon="5.9497">
        <ele>543.2</ele>
        <time>2020-07-05T14:13:43Z</time>
      </trkpt>
      <trkpt lat="46.70211" lon="5.94965">
        <ele>542.7</ele>
        <time>2020-07-05T14:13:48Z</time>
      </trkpt>
      <trkpt lat="46.70216" lon="5.94961">
        <ele>542.1</ele>
        <time>2020-07-05T14:13:53Z</time>
      </trkpt>
      <trkpt lat="46.7022" lon="5.94957">
        <ele>541.7</ele>
        <time>2020-07-05T14:13:58Z</time>
      </trkpt>
      <trkpt lat="46.70225" lon="5.94953">
        <ele>541.4</ele>
        <time>2020-07-05T14:14:03Z</time>
      </trkpt>
      <trkpt lat="46.70229" lon="5.94949">
        <ele>541.3</ele>
        <time>2020-07-05T14:14:08Z</time>
      </trkpt>
      <trkpt lat="46.70234" lon="5.94945">
        <ele>541.3</ele>
        <time>2020-07-05T14:14:14Z</time>
      </trkpt>
      <trkpt lat="46.70238" lon="5.94942">
        <ele>541.5</ele>
        <time>2020-07-05T14:14:18Z</time>
      </trkpt>
      <trkpt lat="46.70243" lon="5.94938">
        <ele>541.8</ele>
        <time>2020-07-05T14:14:23Z</time>
      </trkpt>
      <trkpt lat="46.70247" lon="5.94934">
        <ele>542</ele>
        <time>2020-07-05T14:14:27Z</time>
      </trkpt>
      <trkpt lat="46.70252" lon="5.94932">
        <ele>541.8</ele>
        <time>2020-07-05T14:14:33Z</time>
      </trkpt>
      <trkpt lat="46.70257" lon="5.9493">
        <ele>541.5</ele>
        <time>2020-07-05T14:14:37Z</time>
      </trkpt>
      <trkpt lat="46.70261" lon="5.94926">
        <ele>541.1</ele>
        <time>2020-07-05T14:14:41Z</time>
      </trkpt>
      <trkpt lat="46.70266" lon="5.94924">
        <ele>541</ele>
        <time>2020-07-05T14:14:44Z</time>
      </trkpt>
      <trkpt lat="46.7027" lon="5.94921">
        <ele>541.1</ele>
        <time>2020-07-05T14:14:49Z</time>
      </trkpt>
      <trkpt lat="46.70275" lon="5.94921">
        <ele>541.5</ele>
        <time>2020-07-05T14:14:54Z</time>
      </trkpt>
      <trkpt lat="46.7028" lon="5.94923">
        <ele>542.1</ele>
        <time>2020-07-05T14:14:59Z</time>
      </trkpt>
      <trkpt lat="46.70284" lon="5.94926">
        <ele>543</ele>
        <time>2020-07-05T14:15:04Z</time>
      </trkpt>
      <trkpt lat="46.70288" lon="5.94928">
        <ele>544.4</ele>
        <time>2020-07-05T14:15:10Z</time>
      </trkpt>
      <trkpt lat="46.70293" lon="5.9493">
        <ele>545.8</ele>
        <time>2020-07-05T14:15:16Z</time>
      </trkpt>
      <trkpt lat="46.70297" lon="5.94934">
        <ele>546.5</ele>
        <time>2020-07-05T14:15:20Z</time>
      </trkpt>
      <trkpt lat="46.70302" lon="5.94937">
        <ele>547.1</ele>
        <time>2020-07-05T14:15:25Z</time>
      </trkpt>
      <trkpt lat="46.70307" lon="5.94938">
        <ele>547.4</ele>
        <time>2020-07-05T14:15:31Z</time>
      </trkpt>
      <trkpt lat="46.70312" lon="5.94939">
        <ele>547.6</ele>
        <time>2020-07-05T14:15:35Z</time>
      </trkpt>
      <trkpt lat="46.70317" lon="5.94941">
        <ele>547.8</ele>
        <time>2020-07-05T14:15:39Z</time>
      </trkpt>
      <trkpt lat="46.70323" lon="5.9494">
        <ele>548.2</ele>
        <time>2020-07-05T14:15:43Z</time>
      </trkpt>
      <trkpt lat="46.70327" lon="5.94939">
        <ele>548.6</ele>
        <time>2020-07-05T14:15:47Z</time>
      </trkpt>
      <trkpt lat="46.70331" lon="5.94935">
        <ele>548.9</ele>
        <time>2020-07-05T14:15:51Z</time>
      </trkpt>
      <trkpt lat="46.70334" lon="5.9493">
        <ele>549.5</ele>
        <time>2020-07-05T14:16:05Z</time>
      </trkpt>
      <trkpt lat="46.70339" lon="5.94931">
        <ele>549.1</ele>
        <time>2020-07-05T14:16:27Z</time>
      </trkpt>
      <trkpt lat="46.70344" lon="5.94932">
        <ele>549.2</ele>
        <time>2020-07-05T14:16:31Z</time>
      </trkpt>
      <trkpt lat="46.70348" lon="5.94936">
        <ele>549.4</ele>
        <time>2020-07-05T14:16:35Z</time>
      </trkpt>
      <trkpt lat="46.70353" lon="5.94932">
        <ele>549.6</ele>
        <time>2020-07-05T14:16:40Z</time>
      </trkpt>
      <trkpt lat="46.70358" lon="5.9493">
        <ele>549.7</ele>
        <time>2020-07-05T14:16:45Z</time>
      </trkpt>
      <trkpt lat="46.70363" lon="5.94926">
        <ele>549.7</ele>
        <time>2020-07-05T14:16:50Z</time>
      </trkpt>
      <trkpt lat="46.70368" lon="5.94925">
        <ele>549.5</ele>
        <time>2020-07-05T14:16:55Z</time>
      </trkpt>
      <trkpt lat="46.70372" lon="5.9492">
        <ele>549.3</ele>
        <time>2020-07-05T14:17:00Z</time>
      </trkpt>
      <trkpt lat="46.70377" lon="5.94919">
        <ele>548.6</ele>
        <time>2020-07-05T14:17:07Z</time>
      </trkpt>
      <trkpt lat="46.70382" lon="5.94917">
        <ele>548.3</ele>
        <time>2020-07-05T14:17:12Z</time>
      </trkpt>
      <trkpt lat="46.70387" lon="5.94915">
        <ele>548.2</ele>
        <time>2020-07-05T14:17:18Z</time>
      </trkpt>
      <trkpt lat="46.70392" lon="5.94915">
        <ele>548.1</ele>
        <time>2020-07-05T14:17:48Z</time>
      </trkpt>
      <trkpt lat="46.70397" lon="5.94914">
        <ele>548.4</ele>
        <time>2020-07-05T14:17:53Z</time>
      </trkpt>
      <trkpt lat="46.70402" lon="5.94912">
        <ele>548.6</ele>
        <time>2020-07-05T14:17:57Z</time>
      </trkpt>
      <trkpt lat="46.70412" lon="5.94913">
        <ele>549.7</ele>
        <time>2020-07-05T14:18:06Z</time>
      </trkpt>
      <trkpt lat="46.70424" lon="5.94919">
        <ele>550.2</ele>
        <time>2020-07-05T14:18:15Z</time>
      </trkpt>
      <trkpt lat="46.70427" lon="5.94924">
        <ele>550.1</ele>
        <time>2020-07-05T14:18:18Z</time>
      </trkpt>
      <trkpt lat="46.70432" lon="5.94929">
        <ele>549.9</ele>
        <time>2020-07-05T14:18:22Z</time>
      </trkpt>
      <trkpt lat="46.70436" lon="5.94931">
        <ele>549.6</ele>
        <time>2020-07-05T14:18:27Z</time>
      </trkpt>
      <trkpt lat="46.70441" lon="5.94934">
        <ele>549.2</ele>
        <time>2020-07-05T14:18:30Z</time>
      </trkpt>
      <trkpt lat="46.70446" lon="5.94937">
        <ele>548.8</ele>
        <time>2020-07-05T14:18:35Z</time>
      </trkpt>
      <trkpt lat="46.70457" lon="5.94938">
        <ele>548.7</ele>
        <time>2020-07-05T14:18:47Z</time>
      </trkpt>
      <trkpt lat="46.70462" lon="5.94941">
        <ele>548.6</ele>
        <time>2020-07-05T14:18:51Z</time>
      </trkpt>
      <trkpt lat="46.70467" lon="5.94942">
        <ele>548.4</ele>
        <time>2020-07-05T14:18:56Z</time>
      </trkpt>
      <trkpt lat="46.70472" lon="5.94942">
        <ele>548.3</ele>
        <time>2020-07-05T14:19:01Z</time>
      </trkpt>
      <trkpt lat="46.70478" lon="5.94941">
        <ele>548.4</ele>
        <time>2020-07-05T14:19:06Z</time>
      </trkpt>
      <trkpt lat="46.70482" lon="5.94942">
        <ele>548.5</ele>
        <time>2020-07-05T14:19:10Z</time>
      </trkpt>
      <trkpt lat="46.70488" lon="5.94941">
        <ele>548.6</ele>
        <time>2020-07-05T14:19:15Z</time>
      </trkpt>
      <trkpt lat="46.70492" lon="5.94939">
        <ele>548.8</ele>
        <time>2020-07-05T14:19:20Z</time>
      </trkpt>
      <trkpt lat="46.70498" lon="5.94939">
        <ele>549.1</ele>
        <time>2020-07-05T14:19:25Z</time>
      </trkpt>
      <trkpt lat="46.70503" lon="5.94941">
        <ele>549.7</ele>
        <time>2020-07-05T14:19:30Z</time>
      </trkpt>
      <trkpt lat="46.70507" lon="5.94944">
        <ele>550</ele>
        <time>2020-07-05T14:19:34Z</time>
      </trkpt>
      <trkpt lat="46.70512" lon="5.94946">
        <ele>550.1</ele>
        <time>2020-07-05T14:19:39Z</time>
      </trkpt>
      <trkpt lat="46.70517" lon="5.94944">
        <ele>550.1</ele>
        <time>2020-07-05T14:19:44Z</time>
      </trkpt>
      <trkpt lat="46.70522" lon="5.94943">
        <ele>550.1</ele>
        <time>2020-07-05T14:19:48Z</time>
      </trkpt>
      <trkpt lat="46.70526" lon="5.94942">
        <ele>550</ele>
        <time>2020-07-05T14:19:53Z</time>
      </trkpt>
      <trkpt lat="46.70531" lon="5.94939">
        <ele>549.8</ele>
        <time>2020-07-05T14:19:57Z</time>
      </trkpt>
      <trkpt lat="46.70533" lon="5.94934">
        <ele>549.7</ele>
        <time>2020-07-05T14:19:59Z</time>
      </trkpt>
      <trkpt lat="46.70544" lon="5.9493">
        <ele>549.2</ele>
        <time>2020-07-05T14:20:10Z</time>
      </trkpt>
      <trkpt lat="46.7055" lon="5.94929">
        <ele>549.7</ele>
        <time>2020-07-05T14:20:15Z</time>
      </trkpt>
      <trkpt lat="46.70555" lon="5.94928">
        <ele>550.2</ele>
        <time>2020-07-05T14:20:19Z</time>
      </trkpt>
      <trkpt lat="46.70567" lon="5.94933">
        <ele>552.5</ele>
        <time>2020-07-05T14:20:31Z</time>
      </trkpt>
      <trkpt lat="46.70572" lon="5.94934">
        <ele>552.5</ele>
        <time>2020-07-05T14:20:38Z</time>
      </trkpt>
      <trkpt lat="46.70577" lon="5.94934">
        <ele>552.1</ele>
        <time>2020-07-05T14:20:46Z</time>
      </trkpt>
      <trkpt lat="46.70582" lon="5.94934">
        <ele>551.7</ele>
        <time>2020-07-05T14:20:51Z</time>
      </trkpt>
      <trkpt lat="46.70586" lon="5.94933">
        <ele>551.5</ele>
        <time>2020-07-05T14:20:55Z</time>
      </trkpt>
      <trkpt lat="46.70591" lon="5.94933">
        <ele>551.4</ele>
        <time>2020-07-05T14:21:00Z</time>
      </trkpt>
      <trkpt lat="46.70596" lon="5.94931">
        <ele>551.1</ele>
        <time>2020-07-05T14:21:06Z</time>
      </trkpt>
      <trkpt lat="46.70601" lon="5.94927">
        <ele>550.7</ele>
        <time>2020-07-05T14:21:11Z</time>
      </trkpt>
      <trkpt lat="46.70604" lon="5.94922">
        <ele>550.4</ele>
        <time>2020-07-05T14:21:15Z</time>
      </trkpt>
      <trkpt lat="46.70608" lon="5.94917">
        <ele>550.2</ele>
        <time>2020-07-05T14:21:19Z</time>
      </trkpt>
      <trkpt lat="46.70612" lon="5.94914">
        <ele>550.3</ele>
        <time>2020-07-05T14:21:32Z</time>
      </trkpt>
      <trkpt lat="46.70617" lon="5.94911">
        <ele>550.4</ele>
        <time>2020-07-05T14:21:38Z</time>
      </trkpt>
      <trkpt lat="46.7062" lon="5.94906">
        <ele>550.4</ele>
        <time>2020-07-05T14:21:42Z</time>
      </trkpt>
      <trkpt lat="46.70624" lon="5.94902">
        <ele>550.4</ele>
        <time>2020-07-05T14:21:46Z</time>
      </trkpt>
      <trkpt lat="46.70627" lon="5.94897">
        <ele>550.3</ele>
        <time>2020-07-05T14:21:50Z</time>
      </trkpt>
      <trkpt lat="46.70631" lon="5.94892">
        <ele>550.3</ele>
        <time>2020-07-05T14:21:54Z</time>
      </trkpt>
      <trkpt lat="46.70636" lon="5.94889">
        <ele>550.3</ele>
        <time>2020-07-05T14:21:58Z</time>
      </trkpt>
      <trkpt lat="46.7064" lon="5.94887">
        <ele>550.3</ele>
        <time>2020-07-05T14:22:03Z</time>
      </trkpt>
      <trkpt lat="46.70651" lon="5.9488">
        <ele>550.3</ele>
        <time>2020-07-05T14:22:12Z</time>
      </trkpt>
      <trkpt lat="46.70655" lon="5.94877">
        <ele>550.7</ele>
        <time>2020-07-05T14:22:16Z</time>
      </trkpt>
      <trkpt lat="46.7066" lon="5.94876">
        <ele>551.1</ele>
        <time>2020-07-05T14:22:19Z</time>
      </trkpt>
      <trkpt lat="46.70671" lon="5.94876">
        <ele>552.1</ele>
        <time>2020-07-05T14:22:31Z</time>
      </trkpt>
      <trkpt lat="46.70677" lon="5.94877">
        <ele>551.8</ele>
        <time>2020-07-05T14:22:36Z</time>
      </trkpt>
      <trkpt lat="46.70683" lon="5.94879">
        <ele>551.5</ele>
        <time>2020-07-05T14:22:42Z</time>
      </trkpt>
      <trkpt lat="46.70688" lon="5.94879">
        <ele>551.1</ele>
        <time>2020-07-05T14:22:46Z</time>
      </trkpt>
      <trkpt lat="46.70692" lon="5.9488">
        <ele>550.8</ele>
        <time>2020-07-05T14:22:51Z</time>
      </trkpt>
      <trkpt lat="46.70697" lon="5.94881">
        <ele>550.2</ele>
        <time>2020-07-05T14:22:56Z</time>
      </trkpt>
      <trkpt lat="46.70703" lon="5.94883">
        <ele>549.6</ele>
        <time>2020-07-05T14:23:00Z</time>
      </trkpt>
      <trkpt lat="46.70707" lon="5.94883">
        <ele>548.5</ele>
        <time>2020-07-05T14:23:07Z</time>
      </trkpt>
      <trkpt lat="46.70713" lon="5.94884">
        <ele>548</ele>
        <time>2020-07-05T14:23:11Z</time>
      </trkpt>
      <trkpt lat="46.70719" lon="5.94887">
        <ele>547.7</ele>
        <time>2020-07-05T14:23:13Z</time>
      </trkpt>
      <trkpt lat="46.70723" lon="5.94889">
        <ele>547.3</ele>
        <time>2020-07-05T14:23:17Z</time>
      </trkpt>
      <trkpt lat="46.70731" lon="5.94889">
        <ele>546</ele>
        <time>2020-07-05T14:23:27Z</time>
      </trkpt>
      <trkpt lat="46.70735" lon="5.94891">
        <ele>545.7</ele>
        <time>2020-07-05T14:23:29Z</time>
      </trkpt>
      <trkpt lat="46.70752" lon="5.94905">
        <ele>541.7</ele>
        <time>2020-07-05T14:24:04Z</time>
      </trkpt>
      <trkpt lat="46.70757" lon="5.94906">
        <ele>541.9</ele>
        <time>2020-07-05T14:24:08Z</time>
      </trkpt>
      <trkpt lat="46.70761" lon="5.94908">
        <ele>542</ele>
        <time>2020-07-05T14:24:14Z</time>
      </trkpt>
      <trkpt lat="46.70765" lon="5.94912">
        <ele>542</ele>
        <time>2020-07-05T14:24:17Z</time>
      </trkpt>
      <trkpt lat="46.70769" lon="5.9492">
        <ele>542.1</ele>
        <time>2020-07-05T14:24:20Z</time>
      </trkpt>
      <trkpt lat="46.70774" lon="5.94923">
        <ele>542.2</ele>
        <time>2020-07-05T14:24:22Z</time>
      </trkpt>
      <trkpt lat="46.70779" lon="5.94929">
        <ele>541.9</ele>
        <time>2020-07-05T14:24:25Z</time>
      </trkpt>
      <trkpt lat="46.70782" lon="5.94934">
        <ele>541</ele>
        <time>2020-07-05T14:24:30Z</time>
      </trkpt>
      <trkpt lat="46.70789" lon="5.94936">
        <ele>539.7</ele>
        <time>2020-07-05T14:24:36Z</time>
      </trkpt>
      <trkpt lat="46.70796" lon="5.94938">
        <ele>539.3</ele>
        <time>2020-07-05T14:24:39Z</time>
      </trkpt>
      <trkpt lat="46.708" lon="5.94941">
        <ele>539.1</ele>
        <time>2020-07-05T14:24:41Z</time>
      </trkpt>
      <trkpt lat="46.70805" lon="5.94945">
        <ele>539</ele>
        <time>2020-07-05T14:24:45Z</time>
      </trkpt>
      <trkpt lat="46.70809" lon="5.94946">
        <ele>539</ele>
        <time>2020-07-05T14:24:50Z</time>
      </trkpt>
      <trkpt lat="46.70814" lon="5.94948">
        <ele>538.9</ele>
        <time>2020-07-05T14:24:56Z</time>
      </trkpt>
      <trkpt lat="46.70818" lon="5.94952">
        <ele>538.9</ele>
        <time>2020-07-05T14:25:03Z</time>
      </trkpt>
      <trkpt lat="46.70823" lon="5.94954">
        <ele>539.3</ele>
        <time>2020-07-05T14:25:08Z</time>
      </trkpt>
      <trkpt lat="46.70829" lon="5.94954">
        <ele>539.7</ele>
        <time>2020-07-05T14:25:12Z</time>
      </trkpt>
      <trkpt lat="46.70834" lon="5.94955">
        <ele>540.1</ele>
        <time>2020-07-05T14:25:16Z</time>
      </trkpt>
      <trkpt lat="46.70839" lon="5.94956">
        <ele>540.6</ele>
        <time>2020-07-05T14:25:21Z</time>
      </trkpt>
      <trkpt lat="46.70844" lon="5.94954">
        <ele>541.2</ele>
        <time>2020-07-05T14:25:26Z</time>
      </trkpt>
      <trkpt lat="46.7085" lon="5.94954">
        <ele>541.9</ele>
        <time>2020-07-05T14:25:31Z</time>
      </trkpt>
      <trkpt lat="46.70854" lon="5.94956">
        <ele>542.5</ele>
        <time>2020-07-05T14:25:36Z</time>
      </trkpt>
      <trkpt lat="46.7086" lon="5.94959">
        <ele>543</ele>
        <time>2020-07-05T14:25:41Z</time>
      </trkpt>
      <trkpt lat="46.70866" lon="5.94956">
        <ele>543.5</ele>
        <time>2020-07-05T14:25:45Z</time>
      </trkpt>
      <trkpt lat="46.7087" lon="5.94951">
        <ele>543.8</ele>
        <time>2020-07-05T14:25:49Z</time>
      </trkpt>
      <trkpt lat="46.70874" lon="5.94947">
        <ele>544.1</ele>
        <time>2020-07-05T14:25:53Z</time>
      </trkpt>
      <trkpt lat="46.70879" lon="5.94948">
        <ele>544.3</ele>
        <time>2020-07-05T14:25:57Z</time>
      </trkpt>
      <trkpt lat="46.70884" lon="5.94948">
        <ele>544.6</ele>
        <time>2020-07-05T14:26:02Z</time>
      </trkpt>
      <trkpt lat="46.70889" lon="5.94949">
        <ele>544.8</ele>
        <time>2020-07-05T14:26:06Z</time>
      </trkpt>
      <trkpt lat="46.70894" lon="5.94949">
        <ele>544.9</ele>
        <time>2020-07-05T14:26:11Z</time>
      </trkpt>
      <trkpt lat="46.70898" lon="5.94952">
        <ele>545.3</ele>
        <time>2020-07-05T14:26:17Z</time>
      </trkpt>
      <trkpt lat="46.70902" lon="5.94958">
        <ele>545.7</ele>
        <time>2020-07-05T14:26:20Z</time>
      </trkpt>
      <trkpt lat="46.70907" lon="5.94962">
        <ele>546</ele>
        <time>2020-07-05T14:26:24Z</time>
      </trkpt>
      <trkpt lat="46.70917" lon="5.94967">
        <ele>546</ele>
        <time>2020-07-05T14:26:34Z</time>
      </trkpt>
      <trkpt lat="46.70922" lon="5.94969">
        <ele>545.5</ele>
        <time>2020-07-05T14:26:38Z</time>
      </trkpt>
      <trkpt lat="46.70927" lon="5.94969">
        <ele>545.3</ele>
        <time>2020-07-05T14:26:42Z</time>
      </trkpt>
      <trkpt lat="46.70932" lon="5.9497">
        <ele>545.3</ele>
        <time>2020-07-05T14:26:45Z</time>
      </trkpt>
      <trkpt lat="46.70936" lon="5.94973">
        <ele>545.4</ele>
        <time>2020-07-05T14:26:49Z</time>
      </trkpt>
      <trkpt lat="46.70941" lon="5.94976">
        <ele>545.4</ele>
        <time>2020-07-05T14:26:54Z</time>
      </trkpt>
      <trkpt lat="46.70947" lon="5.94976">
        <ele>545.4</ele>
        <time>2020-07-05T14:27:00Z</time>
      </trkpt>
      <trkpt lat="46.70952" lon="5.94979">
        <ele>545.4</ele>
        <time>2020-07-05T14:27:04Z</time>
      </trkpt>
      <trkpt lat="46.70965" lon="5.94979">
        <ele>545.9</ele>
        <time>2020-07-05T14:27:28Z</time>
      </trkpt>
      <trkpt lat="46.70971" lon="5.94982">
        <ele>545.8</ele>
        <time>2020-07-05T14:27:30Z</time>
      </trkpt>
      <trkpt lat="46.70977" lon="5.94983">
        <ele>545.7</ele>
        <time>2020-07-05T14:27:33Z</time>
      </trkpt>
      <trkpt lat="46.7099" lon="5.94988">
        <ele>544.4</ele>
        <time>2020-07-05T14:27:44Z</time>
      </trkpt>
      <trkpt lat="46.70993" lon="5.94992">
        <ele>544.2</ele>
        <time>2020-07-05T14:27:47Z</time>
      </trkpt>
      <trkpt lat="46.71" lon="5.94997">
        <ele>543</ele>
        <time>2020-07-05T14:28:02Z</time>
      </trkpt>
      <trkpt lat="46.71004" lon="5.95001">
        <ele>542.9</ele>
        <time>2020-07-05T14:28:04Z</time>
      </trkpt>
      <trkpt lat="46.71015" lon="5.95007">
        <ele>541.6</ele>
        <time>2020-07-05T14:28:12Z</time>
      </trkpt>
      <trkpt lat="46.71019" lon="5.95008">
        <ele>541.4</ele>
        <time>2020-07-05T14:28:20Z</time>
      </trkpt>
      <trkpt lat="46.71022" lon="5.95014">
        <ele>542.2</ele>
        <time>2020-07-05T14:28:31Z</time>
      </trkpt>
      <trkpt lat="46.71027" lon="5.95017">
        <ele>543</ele>
        <time>2020-07-05T14:28:36Z</time>
      </trkpt>
      <trkpt lat="46.71031" lon="5.95018">
        <ele>543.3</ele>
        <time>2020-07-05T14:28:39Z</time>
      </trkpt>
      <trkpt lat="46.71036" lon="5.95019">
        <ele>543.7</ele>
        <time>2020-07-05T14:28:44Z</time>
      </trkpt>
      <trkpt lat="46.71041" lon="5.95019">
        <ele>543.7</ele>
        <time>2020-07-05T14:28:47Z</time>
      </trkpt>
      <trkpt lat="46.71046" lon="5.9502">
        <ele>543.7</ele>
        <time>2020-07-05T14:28:51Z</time>
      </trkpt>
      <trkpt lat="46.71057" lon="5.95013">
        <ele>543.8</ele>
        <time>2020-07-05T14:29:00Z</time>
      </trkpt>
      <trkpt lat="46.71061" lon="5.95012">
        <ele>543.9</ele>
        <time>2020-07-05T14:29:04Z</time>
      </trkpt>
      <trkpt lat="46.71066" lon="5.95015">
        <ele>544.2</ele>
        <time>2020-07-05T14:29:12Z</time>
      </trkpt>
      <trkpt lat="46.71078" lon="5.95018">
        <ele>544.3</ele>
        <time>2020-07-05T14:29:28Z</time>
      </trkpt>
      <trkpt lat="46.71084" lon="5.95017">
        <ele>544.7</ele>
        <time>2020-07-05T14:29:33Z</time>
      </trkpt>
      <trkpt lat="46.71089" lon="5.95018">
        <ele>545.1</ele>
        <time>2020-07-05T14:29:37Z</time>
      </trkpt>
      <trkpt lat="46.71096" lon="5.95018">
        <ele>545.5</ele>
        <time>2020-07-05T14:29:43Z</time>
      </trkpt>
      <trkpt lat="46.71124" lon="5.95013">
        <ele>548.4</ele>
        <time>2020-07-05T14:30:05Z</time>
      </trkpt>
      <trkpt lat="46.71128" lon="5.95011">
        <ele>549</ele>
        <time>2020-07-05T14:30:12Z</time>
      </trkpt>
      <trkpt lat="46.71133" lon="5.95011">
        <ele>549.3</ele>
        <time>2020-07-05T14:30:17Z</time>
      </trkpt>
      <trkpt lat="46.71139" lon="5.9501">
        <ele>549.3</ele>
        <time>2020-07-05T14:30:20Z</time>
      </trkpt>
      <trkpt lat="46.71144" lon="5.95009">
        <ele>549.6</ele>
        <time>2020-07-05T14:30:24Z</time>
      </trkpt>
      <trkpt lat="46.71149" lon="5.95009">
        <ele>549.8</ele>
        <time>2020-07-05T14:30:28Z</time>
      </trkpt>
      <trkpt lat="46.71159" lon="5.95007">
        <ele>549.5</ele>
        <time>2020-07-05T14:30:39Z</time>
      </trkpt>
      <trkpt lat="46.71164" lon="5.95008">
        <ele>549.3</ele>
        <time>2020-07-05T14:30:42Z</time>
      </trkpt>
      <trkpt lat="46.71169" lon="5.9501">
        <ele>548.7</ele>
        <time>2020-07-05T14:30:49Z</time>
      </trkpt>
      <trkpt lat="46.71188" lon="5.95022">
        <ele>545.1</ele>
        <time>2020-07-05T14:31:08Z</time>
      </trkpt>
      <trkpt lat="46.71194" lon="5.95024">
        <ele>544.1</ele>
        <time>2020-07-05T14:31:13Z</time>
      </trkpt>
      <trkpt lat="46.71198" lon="5.95023">
        <ele>543</ele>
        <time>2020-07-05T14:31:19Z</time>
      </trkpt>
      <trkpt lat="46.71214" lon="5.95027">
        <ele>541.7</ele>
        <time>2020-07-05T14:31:33Z</time>
      </trkpt>
      <trkpt lat="46.71221" lon="5.95033">
        <ele>541.4</ele>
        <time>2020-07-05T14:31:37Z</time>
      </trkpt>
      <trkpt lat="46.71233" lon="5.95046">
        <ele>540.5</ele>
        <time>2020-07-05T14:31:55Z</time>
      </trkpt>
      <trkpt lat="46.71238" lon="5.95048">
        <ele>540.8</ele>
        <time>2020-07-05T14:31:58Z</time>
      </trkpt>
      <trkpt lat="46.71246" lon="5.95054">
        <ele>543.2</ele>
        <time>2020-07-05T14:32:12Z</time>
      </trkpt>
      <trkpt lat="46.71251" lon="5.95058">
        <ele>544</ele>
        <time>2020-07-05T14:32:17Z</time>
      </trkpt>
      <trkpt lat="46.7127" lon="5.95065">
        <ele>547.1</ele>
        <time>2020-07-05T14:32:31Z</time>
      </trkpt>
      <trkpt lat="46.71275" lon="5.95065">
        <ele>548.6</ele>
        <time>2020-07-05T14:32:39Z</time>
      </trkpt>
      <trkpt lat="46.71291" lon="5.95075">
        <ele>550.7</ele>
        <time>2020-07-05T14:32:48Z</time>
      </trkpt>
      <trkpt lat="46.71296" lon="5.95076">
        <ele>550.8</ele>
        <time>2020-07-05T14:32:54Z</time>
      </trkpt>
      <trkpt lat="46.71301" lon="5.95071">
        <ele>551</ele>
        <time>2020-07-05T14:33:05Z</time>
      </trkpt>
      <trkpt lat="46.71306" lon="5.95068">
        <ele>551</ele>
        <time>2020-07-05T14:33:07Z</time>
      </trkpt>
      <trkpt lat="46.71312" lon="5.95063">
        <ele>550.9</ele>
        <time>2020-07-05T14:33:10Z</time>
      </trkpt>
      <trkpt lat="46.71316" lon="5.95059">
        <ele>550.8</ele>
        <time>2020-07-05T14:33:13Z</time>
      </trkpt>
      <trkpt lat="46.71327" lon="5.95055">
        <ele>550.9</ele>
        <time>2020-07-05T14:33:22Z</time>
      </trkpt>
      <trkpt lat="46.71333" lon="5.95055">
        <ele>550.4</ele>
        <time>2020-07-05T14:33:28Z</time>
      </trkpt>
      <trkpt lat="46.71338" lon="5.95053">
        <ele>549.7</ele>
        <time>2020-07-05T14:33:34Z</time>
      </trkpt>
      <trkpt lat="46.71342" lon="5.95052">
        <ele>549.2</ele>
        <time>2020-07-05T14:33:39Z</time>
      </trkpt>
      <trkpt lat="46.71347" lon="5.9505">
        <ele>547.5</ele>
        <time>2020-07-05T14:33:47Z</time>
      </trkpt>
      <trkpt lat="46.71352" lon="5.9505">
        <ele>547.1</ele>
        <time>2020-07-05T14:33:49Z</time>
      </trkpt>
      <trkpt lat="46.71358" lon="5.9505">
        <ele>546.6</ele>
        <time>2020-07-05T14:33:52Z</time>
      </trkpt>
      <trkpt lat="46.71375" lon="5.95038">
        <ele>544.7</ele>
        <time>2020-07-05T14:34:08Z</time>
      </trkpt>
      <trkpt lat="46.7138" lon="5.9504">
        <ele>544.5</ele>
        <time>2020-07-05T14:34:10Z</time>
      </trkpt>
      <trkpt lat="46.71385" lon="5.95039">
        <ele>544</ele>
        <time>2020-07-05T14:34:15Z</time>
      </trkpt>
      <trkpt lat="46.71389" lon="5.95043">
        <ele>543.3</ele>
        <time>2020-07-05T14:34:23Z</time>
      </trkpt>
      <trkpt lat="46.71394" lon="5.95045">
        <ele>542.9</ele>
        <time>2020-07-05T14:34:28Z</time>
      </trkpt>
      <trkpt lat="46.71399" lon="5.95046">
        <ele>542.8</ele>
        <time>2020-07-05T14:34:31Z</time>
      </trkpt>
      <trkpt lat="46.71404" lon="5.95047">
        <ele>542.6</ele>
        <time>2020-07-05T14:34:36Z</time>
      </trkpt>
      <trkpt lat="46.71409" lon="5.95047">
        <ele>542.8</ele>
        <time>2020-07-05T14:34:42Z</time>
      </trkpt>
      <trkpt lat="46.71413" lon="5.95048">
        <ele>542.9</ele>
        <time>2020-07-05T14:34:53Z</time>
      </trkpt>
      <trkpt lat="46.71418" lon="5.95049">
        <ele>542.7</ele>
        <time>2020-07-05T14:34:58Z</time>
      </trkpt>
      <trkpt lat="46.71425" lon="5.95052">
        <ele>542.6</ele>
        <time>2020-07-05T14:35:00Z</time>
      </trkpt>
      <trkpt lat="46.71431" lon="5.95049">
        <ele>542.6</ele>
        <time>2020-07-05T14:35:02Z</time>
      </trkpt>
      <trkpt lat="46.71437" lon="5.95048">
        <ele>542.6</ele>
        <time>2020-07-05T14:35:04Z</time>
      </trkpt>
      <trkpt lat="46.71441" lon="5.95047">
        <ele>542.7</ele>
        <time>2020-07-05T14:35:06Z</time>
      </trkpt>
      <trkpt lat="46.71446" lon="5.95049">
        <ele>543</ele>
        <time>2020-07-05T14:35:11Z</time>
      </trkpt>
      <trkpt lat="46.71457" lon="5.95047">
        <ele>543.9</ele>
        <time>2020-07-05T14:35:31Z</time>
      </trkpt>
      <trkpt lat="46.71462" lon="5.95047">
        <ele>543.9</ele>
        <time>2020-07-05T14:35:36Z</time>
      </trkpt>
      <trkpt lat="46.71468" lon="5.95051">
        <ele>544</ele>
        <time>2020-07-05T14:35:38Z</time>
      </trkpt>
      <trkpt lat="46.71475" lon="5.95055">
        <ele>544.1</ele>
        <time>2020-07-05T14:35:40Z</time>
      </trkpt>
      <trkpt lat="46.71481" lon="5.95059">
        <ele>544.1</ele>
        <time>2020-07-05T14:35:42Z</time>
      </trkpt>
      <trkpt lat="46.71485" lon="5.95062">
        <ele>544.3</ele>
        <time>2020-07-05T14:35:46Z</time>
      </trkpt>
      <trkpt lat="46.7149" lon="5.95064">
        <ele>544.5</ele>
        <time>2020-07-05T14:35:51Z</time>
      </trkpt>
      <trkpt lat="46.71495" lon="5.95065">
        <ele>544.7</ele>
        <time>2020-07-05T14:35:55Z</time>
      </trkpt>
      <trkpt lat="46.71499" lon="5.95067">
        <ele>545</ele>
        <time>2020-07-05T14:36:03Z</time>
      </trkpt>
      <trkpt lat="46.71503" lon="5.9507">
        <ele>545.3</ele>
        <time>2020-07-05T14:36:15Z</time>
      </trkpt>
      <trkpt lat="46.71509" lon="5.95075">
        <ele>545.9</ele>
        <time>2020-07-05T14:36:22Z</time>
      </trkpt>
      <trkpt lat="46.71513" lon="5.95078">
        <ele>546.1</ele>
        <time>2020-07-05T14:36:28Z</time>
      </trkpt>
      <trkpt lat="46.71531" lon="5.95083">
        <ele>545.8</ele>
        <time>2020-07-05T14:36:54Z</time>
      </trkpt>
      <trkpt lat="46.71536" lon="5.95086">
        <ele>545.7</ele>
        <time>2020-07-05T14:36:56Z</time>
      </trkpt>
      <trkpt lat="46.71547" lon="5.95085">
        <ele>544.6</ele>
        <time>2020-07-05T14:37:06Z</time>
      </trkpt>
      <trkpt lat="46.71552" lon="5.95089">
        <ele>544.3</ele>
        <time>2020-07-05T14:37:09Z</time>
      </trkpt>
      <trkpt lat="46.71569" lon="5.95096">
        <ele>542.7</ele>
        <time>2020-07-05T14:37:28Z</time>
      </trkpt>
      <trkpt lat="46.71594" lon="5.951">
        <ele>542.8</ele>
        <time>2020-07-05T14:37:43Z</time>
      </trkpt>
      <trkpt lat="46.71598" lon="5.951">
        <ele>542.7</ele>
        <time>2020-07-05T14:37:45Z</time>
      </trkpt>
      <trkpt lat="46.71603" lon="5.951">
        <ele>542.6</ele>
        <time>2020-07-05T14:37:50Z</time>
      </trkpt>
      <trkpt lat="46.71608" lon="5.95103">
        <ele>542.7</ele>
        <time>2020-07-05T14:37:54Z</time>
      </trkpt>
      <trkpt lat="46.71614" lon="5.95104">
        <ele>542.8</ele>
        <time>2020-07-05T14:37:56Z</time>
      </trkpt>
      <trkpt lat="46.71618" lon="5.95108">
        <ele>542.9</ele>
        <time>2020-07-05T14:38:00Z</time>
      </trkpt>
      <trkpt lat="46.71631" lon="5.95108">
        <ele>543.6</ele>
        <time>2020-07-05T14:38:12Z</time>
      </trkpt>
      <trkpt lat="46.71637" lon="5.95109">
        <ele>542.8</ele>
        <time>2020-07-05T14:38:17Z</time>
      </trkpt>
      <trkpt lat="46.71642" lon="5.95112">
        <ele>542.4</ele>
        <time>2020-07-05T14:38:22Z</time>
      </trkpt>
      <trkpt lat="46.71646" lon="5.95114">
        <ele>542.3</ele>
        <time>2020-07-05T14:38:26Z</time>
      </trkpt>
      <trkpt lat="46.71652" lon="5.95109">
        <ele>542.3</ele>
        <time>2020-07-05T14:38:30Z</time>
      </trkpt>
      <trkpt lat="46.71657" lon="5.95108">
        <ele>542.4</ele>
        <time>2020-07-05T14:38:34Z</time>
      </trkpt>
      <trkpt lat="46.71662" lon="5.95106">
        <ele>542.7</ele>
        <time>2020-07-05T14:38:39Z</time>
      </trkpt>
      <trkpt lat="46.71667" lon="5.95107">
        <ele>542.7</ele>
        <time>2020-07-05T14:38:43Z</time>
      </trkpt>
      <trkpt lat="46.71671" lon="5.95108">
        <ele>542.7</ele>
        <time>2020-07-05T14:38:48Z</time>
      </trkpt>
      <trkpt lat="46.71684" lon="5.95116">
        <ele>542.1</ele>
        <time>2020-07-05T14:39:01Z</time>
      </trkpt>
      <trkpt lat="46.71689" lon="5.95118">
        <ele>541.8</ele>
        <time>2020-07-05T14:39:07Z</time>
      </trkpt>
      <trkpt lat="46.71695" lon="5.95117">
        <ele>541.7</ele>
        <time>2020-07-05T14:39:16Z</time>
      </trkpt>
      <trkpt lat="46.71701" lon="5.95117">
        <ele>541.8</ele>
        <time>2020-07-05T14:39:18Z</time>
      </trkpt>
      <trkpt lat="46.71712" lon="5.95119">
        <ele>542.6</ele>
        <time>2020-07-05T14:39:25Z</time>
      </trkpt>
      <trkpt lat="46.71717" lon="5.95122">
        <ele>542.6</ele>
        <time>2020-07-05T14:39:30Z</time>
      </trkpt>
      <trkpt lat="46.71723" lon="5.95124">
        <ele>542.4</ele>
        <time>2020-07-05T14:39:38Z</time>
      </trkpt>
      <trkpt lat="46.71728" lon="5.95124">
        <ele>541.9</ele>
        <time>2020-07-05T14:39:44Z</time>
      </trkpt>
      <trkpt lat="46.71733" lon="5.95127">
        <ele>541.5</ele>
        <time>2020-07-05T14:39:59Z</time>
      </trkpt>
      <trkpt lat="46.71738" lon="5.95128">
        <ele>541.3</ele>
        <time>2020-07-05T14:40:03Z</time>
      </trkpt>
      <trkpt lat="46.71743" lon="5.95131">
        <ele>541.1</ele>
        <time>2020-07-05T14:40:06Z</time>
      </trkpt>
      <trkpt lat="46.71756" lon="5.95139">
        <ele>540.6</ele>
        <time>2020-07-05T14:40:19Z</time>
      </trkpt>
      <trkpt lat="46.71762" lon="5.95143">
        <ele>540.7</ele>
        <time>2020-07-05T14:40:23Z</time>
      </trkpt>
      <trkpt lat="46.71767" lon="5.95146">
        <ele>540.6</ele>
        <time>2020-07-05T14:40:26Z</time>
      </trkpt>
      <trkpt lat="46.71771" lon="5.95149">
        <ele>540.5</ele>
        <time>2020-07-05T14:40:30Z</time>
      </trkpt>
      <trkpt lat="46.71775" lon="5.95154">
        <ele>540.4</ele>
        <time>2020-07-05T14:40:36Z</time>
      </trkpt>
      <trkpt lat="46.7178" lon="5.95156">
        <ele>540.3</ele>
        <time>2020-07-05T14:40:38Z</time>
      </trkpt>
      <trkpt lat="46.71784" lon="5.95157">
        <ele>540.3</ele>
        <time>2020-07-05T14:40:40Z</time>
      </trkpt>
      <trkpt lat="46.71789" lon="5.95159">
        <ele>540.3</ele>
        <time>2020-07-05T14:40:43Z</time>
      </trkpt>
      <trkpt lat="46.71793" lon="5.95162">
        <ele>540.1</ele>
        <time>2020-07-05T14:40:47Z</time>
      </trkpt>
      <trkpt lat="46.71798" lon="5.95163">
        <ele>539.8</ele>
        <time>2020-07-05T14:40:52Z</time>
      </trkpt>
      <trkpt lat="46.71807" lon="5.95176">
        <ele>538.8</ele>
        <time>2020-07-05T14:41:03Z</time>
      </trkpt>
      <trkpt lat="46.71817" lon="5.95181">
        <ele>536.5</ele>
        <time>2020-07-05T14:41:18Z</time>
      </trkpt>
      <trkpt lat="46.71822" lon="5.9518">
        <ele>535.9</ele>
        <time>2020-07-05T14:41:22Z</time>
      </trkpt>
      <trkpt lat="46.71827" lon="5.9518">
        <ele>534.7</ele>
        <time>2020-07-05T14:41:28Z</time>
      </trkpt>
      <trkpt lat="46.71832" lon="5.95185">
        <ele>534.3</ele>
        <time>2020-07-05T14:41:30Z</time>
      </trkpt>
      <trkpt lat="46.71837" lon="5.95187">
        <ele>533.5</ele>
        <time>2020-07-05T14:41:34Z</time>
      </trkpt>
      <trkpt lat="46.71841" lon="5.95188">
        <ele>531.9</ele>
        <time>2020-07-05T14:41:43Z</time>
      </trkpt>
      <trkpt lat="46.71846" lon="5.9519">
        <ele>531.6</ele>
        <time>2020-07-05T14:41:49Z</time>
      </trkpt>
      <trkpt lat="46.71851" lon="5.95191">
        <ele>532</ele>
        <time>2020-07-05T14:41:57Z</time>
      </trkpt>
      <trkpt lat="46.71855" lon="5.95187">
        <ele>532.3</ele>
        <time>2020-07-05T14:42:00Z</time>
      </trkpt>
      <trkpt lat="46.71862" lon="5.95187">
        <ele>532.6</ele>
        <time>2020-07-05T14:42:03Z</time>
      </trkpt>
      <trkpt lat="46.71881" lon="5.95175">
        <ele>534.4</ele>
        <time>2020-07-05T14:42:11Z</time>
      </trkpt>
      <trkpt lat="46.71884" lon="5.95169">
        <ele>535</ele>
        <time>2020-07-05T14:42:16Z</time>
      </trkpt>
      <trkpt lat="46.71888" lon="5.95165">
        <ele>535.7</ele>
        <time>2020-07-05T14:42:25Z</time>
      </trkpt>
      <trkpt lat="46.71893" lon="5.95169">
        <ele>535.8</ele>
        <time>2020-07-05T14:42:27Z</time>
      </trkpt>
      <trkpt lat="46.71897" lon="5.95172">
        <ele>535.9</ele>
        <time>2020-07-05T14:42:29Z</time>
      </trkpt>
      <trkpt lat="46.71902" lon="5.95174">
        <ele>536.3</ele>
        <time>2020-07-05T14:42:33Z</time>
      </trkpt>
      <trkpt lat="46.71907" lon="5.95171">
        <ele>537.1</ele>
        <time>2020-07-05T14:42:39Z</time>
      </trkpt>
      <trkpt lat="46.71911" lon="5.95173">
        <ele>538</ele>
        <time>2020-07-05T14:42:47Z</time>
      </trkpt>
      <trkpt lat="46.71914" lon="5.95197">
        <ele>548.3</ele>
        <time>2020-07-05T14:43:52Z</time>
      </trkpt>
      <trkpt lat="46.71918" lon="5.95199">
        <ele>547.5</ele>
        <time>2020-07-05T14:43:58Z</time>
      </trkpt>
      <trkpt lat="46.7192" lon="5.95185">
        <ele>546.1</ele>
        <time>2020-07-05T14:47:08Z</time>
      </trkpt>
      <trkpt lat="46.71925" lon="5.95181">
        <ele>545.7</ele>
        <time>2020-07-05T14:47:15Z</time>
      </trkpt>
      <trkpt lat="46.71934" lon="5.95168">
        <ele>547.4</ele>
        <time>2020-07-05T14:49:55Z</time>
      </trkpt>
      <trkpt lat="46.71945" lon="5.95167">
        <ele>545.3</ele>
        <time>2020-07-05T14:50:05Z</time>
      </trkpt>
      <trkpt lat="46.71949" lon="5.95166">
        <ele>544.8</ele>
        <time>2020-07-05T14:50:10Z</time>
      </trkpt>
      <trkpt lat="46.71954" lon="5.95165">
        <ele>544.5</ele>
        <time>2020-07-05T14:50:17Z</time>
      </trkpt>
      <trkpt lat="46.71958" lon="5.95169">
        <ele>544.7</ele>
        <time>2020-07-05T14:50:39Z</time>
      </trkpt>
      <trkpt lat="46.71961" lon="5.95176">
        <ele>545.1</ele>
        <time>2020-07-05T14:50:44Z</time>
      </trkpt>
      <trkpt lat="46.71964" lon="5.95181">
        <ele>545.6</ele>
        <time>2020-07-05T14:50:49Z</time>
      </trkpt>
      <trkpt lat="46.71966" lon="5.95187">
        <ele>546</ele>
        <time>2020-07-05T14:50:53Z</time>
      </trkpt>
      <trkpt lat="46.71969" lon="5.95193">
        <ele>546.6</ele>
        <time>2020-07-05T14:50:59Z</time>
      </trkpt>
      <trkpt lat="46.71971" lon="5.95198">
        <ele>546.8</ele>
        <time>2020-07-05T14:51:02Z</time>
      </trkpt>
      <trkpt lat="46.71973" lon="5.95204">
        <ele>547.2</ele>
        <time>2020-07-05T14:51:06Z</time>
      </trkpt>
      <trkpt lat="46.71976" lon="5.95212">
        <ele>547.5</ele>
        <time>2020-07-05T14:51:12Z</time>
      </trkpt>
      <trkpt lat="46.71989" lon="5.95242">
        <ele>551.8</ele>
        <time>2020-07-05T14:51:45Z</time>
      </trkpt>
      <trkpt lat="46.71993" lon="5.95247">
        <ele>551.8</ele>
        <time>2020-07-05T14:51:54Z</time>
      </trkpt>
      <trkpt lat="46.71997" lon="5.9525">
        <ele>551.8</ele>
        <time>2020-07-05T14:51:57Z</time>
      </trkpt>
      <trkpt lat="46.72001" lon="5.95255">
        <ele>552.1</ele>
        <time>2020-07-05T14:52:02Z</time>
      </trkpt>
      <trkpt lat="46.72006" lon="5.95257">
        <ele>552.5</ele>
        <time>2020-07-05T14:52:06Z</time>
      </trkpt>
      <trkpt lat="46.7201" lon="5.95261">
        <ele>553</ele>
        <time>2020-07-05T14:52:11Z</time>
      </trkpt>
      <trkpt lat="46.72014" lon="5.95265">
        <ele>553.8</ele>
        <time>2020-07-05T14:52:22Z</time>
      </trkpt>
      <trkpt lat="46.72019" lon="5.9527">
        <ele>553.8</ele>
        <time>2020-07-05T14:52:31Z</time>
      </trkpt>
      <trkpt lat="46.72025" lon="5.95274">
        <ele>553.4</ele>
        <time>2020-07-05T14:52:36Z</time>
      </trkpt>
      <trkpt lat="46.72031" lon="5.95276">
        <ele>552.9</ele>
        <time>2020-07-05T14:52:40Z</time>
      </trkpt>
      <trkpt lat="46.72036" lon="5.95276">
        <ele>552.6</ele>
        <time>2020-07-05T14:52:43Z</time>
      </trkpt>
      <trkpt lat="46.72041" lon="5.95279">
        <ele>552.3</ele>
        <time>2020-07-05T14:52:46Z</time>
      </trkpt>
      <trkpt lat="46.72045" lon="5.95281">
        <ele>551.5</ele>
        <time>2020-07-05T14:52:51Z</time>
      </trkpt>
      <trkpt lat="46.72049" lon="5.95286">
        <ele>550.8</ele>
        <time>2020-07-05T14:52:56Z</time>
      </trkpt>
      <trkpt lat="46.72055" lon="5.95291">
        <ele>550.3</ele>
        <time>2020-07-05T14:53:02Z</time>
      </trkpt>
      <trkpt lat="46.72059" lon="5.95296">
        <ele>550.2</ele>
        <time>2020-07-05T14:53:05Z</time>
      </trkpt>
      <trkpt lat="46.72063" lon="5.95301">
        <ele>550</ele>
        <time>2020-07-05T14:53:09Z</time>
      </trkpt>
      <trkpt lat="46.72066" lon="5.95307">
        <ele>549.6</ele>
        <time>2020-07-05T14:53:13Z</time>
      </trkpt>
      <trkpt lat="46.7207" lon="5.95312">
        <ele>549</ele>
        <time>2020-07-05T14:53:17Z</time>
      </trkpt>
      <trkpt lat="46.72075" lon="5.95317">
        <ele>548.3</ele>
        <time>2020-07-05T14:53:22Z</time>
      </trkpt>
      <trkpt lat="46.7208" lon="5.95321">
        <ele>548.1</ele>
        <time>2020-07-05T14:53:26Z</time>
      </trkpt>
      <trkpt lat="46.72084" lon="5.95327">
        <ele>548.3</ele>
        <time>2020-07-05T14:53:31Z</time>
      </trkpt>
      <trkpt lat="46.72087" lon="5.95333">
        <ele>549.3</ele>
        <time>2020-07-05T14:53:41Z</time>
      </trkpt>
      <trkpt lat="46.72091" lon="5.95337">
        <ele>549.4</ele>
        <time>2020-07-05T14:53:45Z</time>
      </trkpt>
      <trkpt lat="46.72095" lon="5.9534">
        <ele>549.4</ele>
        <time>2020-07-05T14:53:47Z</time>
      </trkpt>
      <trkpt lat="46.721" lon="5.95344">
        <ele>549.4</ele>
        <time>2020-07-05T14:53:50Z</time>
      </trkpt>
      <trkpt lat="46.72105" lon="5.9535">
        <ele>549.3</ele>
        <time>2020-07-05T14:53:52Z</time>
      </trkpt>
      <trkpt lat="46.72109" lon="5.95357">
        <ele>549.2</ele>
        <time>2020-07-05T14:53:55Z</time>
      </trkpt>
      <trkpt lat="46.72109" lon="5.95364">
        <ele>548.7</ele>
        <time>2020-07-05T14:54:00Z</time>
      </trkpt>
      <trkpt lat="46.72109" lon="5.95372">
        <ele>548.1</ele>
        <time>2020-07-05T14:54:04Z</time>
      </trkpt>
      <trkpt lat="46.72108" lon="5.95379">
        <ele>547.2</ele>
        <time>2020-07-05T14:54:09Z</time>
      </trkpt>
      <trkpt lat="46.72108" lon="5.95386">
        <ele>546.7</ele>
        <time>2020-07-05T14:54:13Z</time>
      </trkpt>
      <trkpt lat="46.72107" lon="5.95394">
        <ele>546.4</ele>
        <time>2020-07-05T14:54:19Z</time>
      </trkpt>
      <trkpt lat="46.72107" lon="5.95402">
        <ele>546.4</ele>
        <time>2020-07-05T14:54:26Z</time>
      </trkpt>
      <trkpt lat="46.72106" lon="5.9541">
        <ele>546.5</ele>
        <time>2020-07-05T14:54:30Z</time>
      </trkpt>
      <trkpt lat="46.72107" lon="5.95418">
        <ele>546.6</ele>
        <time>2020-07-05T14:54:33Z</time>
      </trkpt>
      <trkpt lat="46.72109" lon="5.95425">
        <ele>546.5</ele>
        <time>2020-07-05T14:54:37Z</time>
      </trkpt>
      <trkpt lat="46.7211" lon="5.95433">
        <ele>546.4</ele>
        <time>2020-07-05T14:54:44Z</time>
      </trkpt>
      <trkpt lat="46.72112" lon="5.95439">
        <ele>547.6</ele>
        <time>2020-07-05T14:54:52Z</time>
      </trkpt>
      <trkpt lat="46.72114" lon="5.95445">
        <ele>548.1</ele>
        <time>2020-07-05T14:54:54Z</time>
      </trkpt>
      <trkpt lat="46.72115" lon="5.95452">
        <ele>549.2</ele>
        <time>2020-07-05T14:54:59Z</time>
      </trkpt>
      <trkpt lat="46.72119" lon="5.95459">
        <ele>549.9</ele>
        <time>2020-07-05T14:55:03Z</time>
      </trkpt>
      <trkpt lat="46.72123" lon="5.95462">
        <ele>550.5</ele>
        <time>2020-07-05T14:55:06Z</time>
      </trkpt>
      <trkpt lat="46.72128" lon="5.95467">
        <ele>551.8</ele>
        <time>2020-07-05T14:55:12Z</time>
      </trkpt>
      <trkpt lat="46.72133" lon="5.9547">
        <ele>552.9</ele>
        <time>2020-07-05T14:55:17Z</time>
      </trkpt>
      <trkpt lat="46.72137" lon="5.95474">
        <ele>554.2</ele>
        <time>2020-07-05T14:55:23Z</time>
      </trkpt>
      <trkpt lat="46.72141" lon="5.95477">
        <ele>554.9</ele>
        <time>2020-07-05T14:55:28Z</time>
      </trkpt>
      <trkpt lat="46.72155" lon="5.95484">
        <ele>555.1</ele>
        <time>2020-07-05T14:55:44Z</time>
      </trkpt>
      <trkpt lat="46.72176" lon="5.95495">
        <ele>556.5</ele>
        <time>2020-07-05T14:56:04Z</time>
      </trkpt>
      <trkpt lat="46.72181" lon="5.95497">
        <ele>556.9</ele>
        <time>2020-07-05T14:56:07Z</time>
      </trkpt>
      <trkpt lat="46.72186" lon="5.95499">
        <ele>557.6</ele>
        <time>2020-07-05T14:56:13Z</time>
      </trkpt>
      <trkpt lat="46.72191" lon="5.95502">
        <ele>558.7</ele>
        <time>2020-07-05T14:56:20Z</time>
      </trkpt>
      <trkpt lat="46.72195" lon="5.95507">
        <ele>559.1</ele>
        <time>2020-07-05T14:56:22Z</time>
      </trkpt>
      <trkpt lat="46.72198" lon="5.95511">
        <ele>560.1</ele>
        <time>2020-07-05T14:56:26Z</time>
      </trkpt>
      <trkpt lat="46.72201" lon="5.95517">
        <ele>561.2</ele>
        <time>2020-07-05T14:56:30Z</time>
      </trkpt>
      <trkpt lat="46.72203" lon="5.95524">
        <ele>561.8</ele>
        <time>2020-07-05T14:56:33Z</time>
      </trkpt>
      <trkpt lat="46.72209" lon="5.95535">
        <ele>567.5</ele>
        <time>2020-07-05T14:57:33Z</time>
      </trkpt>
      <trkpt lat="46.72227" lon="5.95558">
        <ele>568.8</ele>
        <time>2020-07-05T14:57:56Z</time>
      </trkpt>
      <trkpt lat="46.7223" lon="5.95564">
        <ele>569</ele>
        <time>2020-07-05T14:57:58Z</time>
      </trkpt>
      <trkpt lat="46.72234" lon="5.95567">
        <ele>569.1</ele>
        <time>2020-07-05T14:58:00Z</time>
      </trkpt>
      <trkpt lat="46.72239" lon="5.95572">
        <ele>569.4</ele>
        <time>2020-07-05T14:58:05Z</time>
      </trkpt>
      <trkpt lat="46.72243" lon="5.95576">
        <ele>569.3</ele>
        <time>2020-07-05T14:58:14Z</time>
      </trkpt>
      <trkpt lat="46.72249" lon="5.95588">
        <ele>569.6</ele>
        <time>2020-07-05T14:58:30Z</time>
      </trkpt>
      <trkpt lat="46.72252" lon="5.95595">
        <ele>569.5</ele>
        <time>2020-07-05T14:58:32Z</time>
      </trkpt>
      <trkpt lat="46.72254" lon="5.95601">
        <ele>569.3</ele>
        <time>2020-07-05T14:58:34Z</time>
      </trkpt>
      <trkpt lat="46.72261" lon="5.95619">
        <ele>567.7</ele>
        <time>2020-07-05T14:58:49Z</time>
      </trkpt>
      <trkpt lat="46.72263" lon="5.95626">
        <ele>567.5</ele>
        <time>2020-07-05T14:58:54Z</time>
      </trkpt>
      <trkpt lat="46.72265" lon="5.95632">
        <ele>567.4</ele>
        <time>2020-07-05T14:58:56Z</time>
      </trkpt>
      <trkpt lat="46.72268" lon="5.95637">
        <ele>567.3</ele>
        <time>2020-07-05T14:58:59Z</time>
      </trkpt>
      <trkpt lat="46.72271" lon="5.95644">
        <ele>567.4</ele>
        <time>2020-07-05T14:59:05Z</time>
      </trkpt>
      <trkpt lat="46.72274" lon="5.9565">
        <ele>567.6</ele>
        <time>2020-07-05T14:59:11Z</time>
      </trkpt>
      <trkpt lat="46.72275" lon="5.95657">
        <ele>567.9</ele>
        <time>2020-07-05T14:59:17Z</time>
      </trkpt>
      <trkpt lat="46.7228" lon="5.95664">
        <ele>568.3</ele>
        <time>2020-07-05T14:59:21Z</time>
      </trkpt>
      <trkpt lat="46.72285" lon="5.95668">
        <ele>568.6</ele>
        <time>2020-07-05T14:59:24Z</time>
      </trkpt>
      <trkpt lat="46.72288" lon="5.95673">
        <ele>570</ele>
        <time>2020-07-05T14:59:31Z</time>
      </trkpt>
      <trkpt lat="46.72292" lon="5.95679">
        <ele>570.4</ele>
        <time>2020-07-05T14:59:34Z</time>
      </trkpt>
      <trkpt lat="46.723" lon="5.95689">
        <ele>570.8</ele>
        <time>2020-07-05T14:59:42Z</time>
      </trkpt>
      <trkpt lat="46.72302" lon="5.95696">
        <ele>570.6</ele>
        <time>2020-07-05T14:59:46Z</time>
      </trkpt>
      <trkpt lat="46.72304" lon="5.95703">
        <ele>570.2</ele>
        <time>2020-07-05T14:59:50Z</time>
      </trkpt>
      <trkpt lat="46.72307" lon="5.95708">
        <ele>570</ele>
        <time>2020-07-05T14:59:57Z</time>
      </trkpt>
      <trkpt lat="46.72316" lon="5.95729">
        <ele>571.7</ele>
        <time>2020-07-05T15:00:07Z</time>
      </trkpt>
      <trkpt lat="46.72319" lon="5.95735">
        <ele>572.4</ele>
        <time>2020-07-05T15:00:12Z</time>
      </trkpt>
      <trkpt lat="46.72323" lon="5.95742">
        <ele>573.4</ele>
        <time>2020-07-05T15:00:19Z</time>
      </trkpt>
      <trkpt lat="46.72331" lon="5.95753">
        <ele>575.2</ele>
        <time>2020-07-05T15:00:43Z</time>
      </trkpt>
      <trkpt lat="46.72336" lon="5.95757">
        <ele>574.9</ele>
        <time>2020-07-05T15:00:48Z</time>
      </trkpt>
      <trkpt lat="46.72341" lon="5.95763">
        <ele>574.7</ele>
        <time>2020-07-05T15:00:53Z</time>
      </trkpt>
      <trkpt lat="46.72345" lon="5.95767">
        <ele>574.6</ele>
        <time>2020-07-05T15:00:56Z</time>
      </trkpt>
      <trkpt lat="46.7235" lon="5.95772">
        <ele>574.6</ele>
        <time>2020-07-05T15:01:01Z</time>
      </trkpt>
      <trkpt lat="46.72354" lon="5.95775">
        <ele>574.6</ele>
        <time>2020-07-05T15:01:09Z</time>
      </trkpt>
      <trkpt lat="46.72368" lon="5.9579">
        <ele>575.2</ele>
        <time>2020-07-05T15:01:19Z</time>
      </trkpt>
      <trkpt lat="46.72372" lon="5.95795">
        <ele>575.3</ele>
        <time>2020-07-05T15:01:22Z</time>
      </trkpt>
      <trkpt lat="46.72376" lon="5.958">
        <ele>575.6</ele>
        <time>2020-07-05T15:01:28Z</time>
      </trkpt>
      <trkpt lat="46.72379" lon="5.95805">
        <ele>576</ele>
        <time>2020-07-05T15:01:36Z</time>
      </trkpt>
      <trkpt lat="46.72383" lon="5.9581">
        <ele>576.1</ele>
        <time>2020-07-05T15:01:42Z</time>
      </trkpt>
      <trkpt lat="46.72388" lon="5.95817">
        <ele>576.1</ele>
        <time>2020-07-05T15:01:46Z</time>
      </trkpt>
      <trkpt lat="46.72392" lon="5.9582">
        <ele>576</ele>
        <time>2020-07-05T15:01:48Z</time>
      </trkpt>
      <trkpt lat="46.72397" lon="5.95824">
        <ele>575.8</ele>
        <time>2020-07-05T15:01:51Z</time>
      </trkpt>
      <trkpt lat="46.72401" lon="5.95828">
        <ele>575.6</ele>
        <time>2020-07-05T15:01:55Z</time>
      </trkpt>
      <trkpt lat="46.72412" lon="5.95855">
        <ele>576.4</ele>
        <time>2020-07-05T15:02:23Z</time>
      </trkpt>
      <trkpt lat="46.72414" lon="5.95863">
        <ele>576.6</ele>
        <time>2020-07-05T15:02:26Z</time>
      </trkpt>
      <trkpt lat="46.72416" lon="5.9587">
        <ele>576.8</ele>
        <time>2020-07-05T15:02:30Z</time>
      </trkpt>
      <trkpt lat="46.72416" lon="5.95877">
        <ele>576.5</ele>
        <time>2020-07-05T15:02:37Z</time>
      </trkpt>
      <trkpt lat="46.72418" lon="5.95883">
        <ele>576.1</ele>
        <time>2020-07-05T15:02:41Z</time>
      </trkpt>
      <trkpt lat="46.72419" lon="5.95893">
        <ele>575.7</ele>
        <time>2020-07-05T15:02:46Z</time>
      </trkpt>
      <trkpt lat="46.72419" lon="5.959">
        <ele>575.3</ele>
        <time>2020-07-05T15:02:50Z</time>
      </trkpt>
      <trkpt lat="46.72418" lon="5.95913">
        <ele>574.6</ele>
        <time>2020-07-05T15:03:03Z</time>
      </trkpt>
      <trkpt lat="46.72417" lon="5.95919">
        <ele>574.4</ele>
        <time>2020-07-05T15:03:15Z</time>
      </trkpt>
      <trkpt lat="46.72417" lon="5.95943">
        <ele>576.3</ele>
        <time>2020-07-05T15:04:26Z</time>
      </trkpt>
      <trkpt lat="46.72421" lon="5.9594">
        <ele>576.4</ele>
        <time>2020-07-05T15:04:33Z</time>
      </trkpt>
      <trkpt lat="46.72422" lon="5.95934">
        <ele>576.8</ele>
        <time>2020-07-05T15:04:37Z</time>
      </trkpt>
      <trkpt lat="46.72424" lon="5.95928">
        <ele>579.4</ele>
        <time>2020-07-05T15:04:52Z</time>
      </trkpt>
      <trkpt lat="46.72427" lon="5.95934">
        <ele>579.8</ele>
        <time>2020-07-05T15:05:18Z</time>
      </trkpt>
      <trkpt lat="46.7243" lon="5.95939">
        <ele>578.5</ele>
        <time>2020-07-05T15:05:29Z</time>
      </trkpt>
      <trkpt lat="46.72435" lon="5.95949">
        <ele>569.3</ele>
        <time>2020-07-05T15:09:57Z</time>
      </trkpt>
      <trkpt lat="46.72441" lon="5.95954">
        <ele>572.2</ele>
        <time>2020-07-05T15:13:47Z</time>
      </trkpt>
      <trkpt lat="46.7244" lon="5.95961">
        <ele>574.5</ele>
        <time>2020-07-05T15:14:02Z</time>
      </trkpt>
      <trkpt lat="46.72442" lon="5.95967">
        <ele>575.9</ele>
        <time>2020-07-05T15:14:10Z</time>
      </trkpt>
      <trkpt lat="46.72445" lon="5.95973">
        <ele>578.3</ele>
        <time>2020-07-05T15:14:23Z</time>
      </trkpt>
      <trkpt lat="46.72447" lon="5.95981">
        <ele>580.1</ele>
        <time>2020-07-05T15:14:35Z</time>
      </trkpt>
      <trkpt lat="46.72449" lon="5.95989">
        <ele>580.3</ele>
        <time>2020-07-05T15:14:38Z</time>
      </trkpt>
      <trkpt lat="46.72448" lon="5.95996">
        <ele>580.8</ele>
        <time>2020-07-05T15:14:46Z</time>
      </trkpt>
      <trkpt lat="46.72449" lon="5.96003">
        <ele>581.1</ele>
        <time>2020-07-05T15:14:52Z</time>
      </trkpt>
      <trkpt lat="46.72447" lon="5.95997">
        <ele>581.7</ele>
        <time>2020-07-05T15:15:13Z</time>
      </trkpt>
      <trkpt lat="46.7245" lon="5.95992">
        <ele>581.1</ele>
        <time>2020-07-05T15:15:31Z</time>
      </trkpt>
      <trkpt lat="46.72454" lon="5.95988">
        <ele>580.9</ele>
        <time>2020-07-05T15:15:39Z</time>
      </trkpt>
      <trkpt lat="46.72458" lon="5.95983">
        <ele>580.5</ele>
        <time>2020-07-05T15:15:47Z</time>
      </trkpt>
      <trkpt lat="46.72462" lon="5.9598">
        <ele>580.5</ele>
        <time>2020-07-05T15:15:54Z</time>
      </trkpt>
      <trkpt lat="46.72466" lon="5.95975">
        <ele>580.8</ele>
        <time>2020-07-05T15:16:00Z</time>
      </trkpt>
      <trkpt lat="46.72468" lon="5.9596">
        <ele>585.4</ele>
        <time>2020-07-05T15:16:23Z</time>
      </trkpt>
      <trkpt lat="46.72467" lon="5.95951">
        <ele>587</ele>
        <time>2020-07-05T15:16:31Z</time>
      </trkpt>
      <trkpt lat="46.72466" lon="5.95941">
        <ele>587.4</ele>
        <time>2020-07-05T15:16:33Z</time>
      </trkpt>
      <trkpt lat="46.72466" lon="5.95933">
        <ele>588.1</ele>
        <time>2020-07-05T15:16:36Z</time>
      </trkpt>
      <trkpt lat="46.72465" lon="5.95926">
        <ele>589.7</ele>
        <time>2020-07-05T15:16:45Z</time>
      </trkpt>
      <trkpt lat="46.72464" lon="5.9592">
        <ele>591</ele>
        <time>2020-07-05T15:16:51Z</time>
      </trkpt>
      <trkpt lat="46.72463" lon="5.95911">
        <ele>592.4</ele>
        <time>2020-07-05T15:16:57Z</time>
      </trkpt>
      <trkpt lat="46.72463" lon="5.95904">
        <ele>593.4</ele>
        <time>2020-07-05T15:17:03Z</time>
      </trkpt>
      <trkpt lat="46.72462" lon="5.95898">
        <ele>594</ele>
        <time>2020-07-05T15:17:11Z</time>
      </trkpt>
      <trkpt lat="46.72458" lon="5.95878">
        <ele>592.7</ele>
        <time>2020-07-05T15:18:08Z</time>
      </trkpt>
      <trkpt lat="46.7246" lon="5.9587">
        <ele>590.4</ele>
        <time>2020-07-05T15:18:20Z</time>
      </trkpt>
      <trkpt lat="46.72462" lon="5.95864">
        <ele>589.1</ele>
        <time>2020-07-05T15:18:33Z</time>
      </trkpt>
      <trkpt lat="46.72467" lon="5.9586">
        <ele>589</ele>
        <time>2020-07-05T15:18:37Z</time>
      </trkpt>
      <trkpt lat="46.72471" lon="5.95858">
        <ele>589</ele>
        <time>2020-07-05T15:18:40Z</time>
      </trkpt>
      <trkpt lat="46.72477" lon="5.95855">
        <ele>589.1</ele>
        <time>2020-07-05T15:18:42Z</time>
      </trkpt>
      <trkpt lat="46.72482" lon="5.95852">
        <ele>589.3</ele>
        <time>2020-07-05T15:18:46Z</time>
      </trkpt>
      <trkpt lat="46.72487" lon="5.95845">
        <ele>589.7</ele>
        <time>2020-07-05T15:18:50Z</time>
      </trkpt>
      <trkpt lat="46.72491" lon="5.9584">
        <ele>590.7</ele>
        <time>2020-07-05T15:18:57Z</time>
      </trkpt>
      <trkpt lat="46.72495" lon="5.9584">
        <ele>590.9</ele>
        <time>2020-07-05T15:19:08Z</time>
      </trkpt>
      <trkpt lat="46.72501" lon="5.95833">
        <ele>590.5</ele>
        <time>2020-07-05T15:19:13Z</time>
      </trkpt>
      <trkpt lat="46.72504" lon="5.95828">
        <ele>590.3</ele>
        <time>2020-07-05T15:19:15Z</time>
      </trkpt>
      <trkpt lat="46.72508" lon="5.95824">
        <ele>590</ele>
        <time>2020-07-05T15:19:18Z</time>
      </trkpt>
      <trkpt lat="46.72513" lon="5.95824">
        <ele>589.3</ele>
        <time>2020-07-05T15:19:32Z</time>
      </trkpt>
      <trkpt lat="46.72517" lon="5.95821">
        <ele>589.3</ele>
        <time>2020-07-05T15:19:35Z</time>
      </trkpt>
      <trkpt lat="46.72521" lon="5.95819">
        <ele>589.5</ele>
        <time>2020-07-05T15:19:40Z</time>
      </trkpt>
      <trkpt lat="46.72528" lon="5.95814">
        <ele>589.7</ele>
        <time>2020-07-05T15:19:59Z</time>
      </trkpt>
      <trkpt lat="46.72535" lon="5.95808">
        <ele>586.2</ele>
        <time>2020-07-05T15:21:12Z</time>
      </trkpt>
      <trkpt lat="46.72539" lon="5.95805">
        <ele>585.8</ele>
        <time>2020-07-05T15:21:17Z</time>
      </trkpt>
      <trkpt lat="46.72543" lon="5.9581">
        <ele>585.8</ele>
        <time>2020-07-05T15:22:04Z</time>
      </trkpt>
      <trkpt lat="46.72547" lon="5.95811">
        <ele>586</ele>
        <time>2020-07-05T15:22:09Z</time>
      </trkpt>
      <trkpt lat="46.72552" lon="5.95811">
        <ele>585.7</ele>
        <time>2020-07-05T15:22:14Z</time>
      </trkpt>
      <trkpt lat="46.72557" lon="5.95812">
        <ele>585.2</ele>
        <time>2020-07-05T15:22:18Z</time>
      </trkpt>
      <trkpt lat="46.72562" lon="5.95813">
        <ele>584.7</ele>
        <time>2020-07-05T15:22:22Z</time>
      </trkpt>
      <trkpt lat="46.72567" lon="5.95815">
        <ele>583.8</ele>
        <time>2020-07-05T15:22:27Z</time>
      </trkpt>
      <trkpt lat="46.72573" lon="5.95817">
        <ele>582.8</ele>
        <time>2020-07-05T15:22:33Z</time>
      </trkpt>
      <trkpt lat="46.72577" lon="5.95821">
        <ele>582.1</ele>
        <time>2020-07-05T15:22:38Z</time>
      </trkpt>
      <trkpt lat="46.72582" lon="5.95825">
        <ele>581.8</ele>
        <time>2020-07-05T15:22:43Z</time>
      </trkpt>
      <trkpt lat="46.72587" lon="5.95829">
        <ele>581.2</ele>
        <time>2020-07-05T15:22:48Z</time>
      </trkpt>
      <trkpt lat="46.72591" lon="5.95832">
        <ele>580.6</ele>
        <time>2020-07-05T15:22:52Z</time>
      </trkpt>
      <trkpt lat="46.72595" lon="5.95836">
        <ele>580.2</ele>
        <time>2020-07-05T15:22:56Z</time>
      </trkpt>
      <trkpt lat="46.726" lon="5.95838">
        <ele>579.6</ele>
        <time>2020-07-05T15:23:01Z</time>
      </trkpt>
      <trkpt lat="46.72604" lon="5.9584">
        <ele>579.2</ele>
        <time>2020-07-05T15:23:06Z</time>
      </trkpt>
      <trkpt lat="46.72609" lon="5.95844">
        <ele>578.9</ele>
        <time>2020-07-05T15:23:10Z</time>
      </trkpt>
      <trkpt lat="46.72613" lon="5.95847">
        <ele>578.7</ele>
        <time>2020-07-05T15:23:14Z</time>
      </trkpt>
      <trkpt lat="46.72617" lon="5.9585">
        <ele>578.5</ele>
        <time>2020-07-05T15:23:18Z</time>
      </trkpt>
      <trkpt lat="46.72621" lon="5.95854">
        <ele>578.2</ele>
        <time>2020-07-05T15:23:23Z</time>
      </trkpt>
      <trkpt lat="46.72626" lon="5.95856">
        <ele>578</ele>
        <time>2020-07-05T15:23:30Z</time>
      </trkpt>
      <trkpt lat="46.72631" lon="5.95859">
        <ele>578</ele>
        <time>2020-07-05T15:23:35Z</time>
      </trkpt>
      <trkpt lat="46.72636" lon="5.95862">
        <ele>578.2</ele>
        <time>2020-07-05T15:23:40Z</time>
      </trkpt>
      <trkpt lat="46.72641" lon="5.95864">
        <ele>578.4</ele>
        <time>2020-07-05T15:23:44Z</time>
      </trkpt>
      <trkpt lat="46.72646" lon="5.95866">
        <ele>578.4</ele>
        <time>2020-07-05T15:23:49Z</time>
      </trkpt>
      <trkpt lat="46.7265" lon="5.95869">
        <ele>578.3</ele>
        <time>2020-07-05T15:23:55Z</time>
      </trkpt>
      <trkpt lat="46.72655" lon="5.95872">
        <ele>578.2</ele>
        <time>2020-07-05T15:24:01Z</time>
      </trkpt>
      <trkpt lat="46.7266" lon="5.95875">
        <ele>578</ele>
        <time>2020-07-05T15:24:06Z</time>
      </trkpt>
      <trkpt lat="46.72664" lon="5.95877">
        <ele>577.8</ele>
        <time>2020-07-05T15:24:10Z</time>
      </trkpt>
      <trkpt lat="46.72669" lon="5.9588">
        <ele>577.5</ele>
        <time>2020-07-05T15:24:15Z</time>
      </trkpt>
      <trkpt lat="46.72673" lon="5.95882">
        <ele>577.4</ele>
        <time>2020-07-05T15:24:19Z</time>
      </trkpt>
      <trkpt lat="46.72678" lon="5.95885">
        <ele>577.4</ele>
        <time>2020-07-05T15:24:23Z</time>
      </trkpt>
      <trkpt lat="46.72683" lon="5.95888">
        <ele>577.4</ele>
        <time>2020-07-05T15:24:27Z</time>
      </trkpt>
      <trkpt lat="46.72688" lon="5.9589">
        <ele>577.3</ele>
        <time>2020-07-05T15:24:32Z</time>
      </trkpt>
      <trkpt lat="46.72693" lon="5.95893">
        <ele>577.3</ele>
        <time>2020-07-05T15:24:37Z</time>
      </trkpt>
      <trkpt lat="46.72695" lon="5.95899">
        <ele>577</ele>
        <time>2020-07-05T15:24:46Z</time>
      </trkpt>
      <trkpt lat="46.72696" lon="5.95907">
        <ele>576.4</ele>
        <time>2020-07-05T15:24:55Z</time>
      </trkpt>
      <trkpt lat="46.727" lon="5.95911">
        <ele>575.9</ele>
        <time>2020-07-05T15:25:01Z</time>
      </trkpt>
      <trkpt lat="46.72706" lon="5.95912">
        <ele>575.6</ele>
        <time>2020-07-05T15:25:05Z</time>
      </trkpt>
      <trkpt lat="46.72712" lon="5.95914">
        <ele>575.4</ele>
        <time>2020-07-05T15:25:09Z</time>
      </trkpt>
      <trkpt lat="46.72717" lon="5.95916">
        <ele>575.2</ele>
        <time>2020-07-05T15:25:12Z</time>
      </trkpt>
      <trkpt lat="46.72722" lon="5.95919">
        <ele>575.1</ele>
        <time>2020-07-05T15:25:17Z</time>
      </trkpt>
      <trkpt lat="46.72727" lon="5.95921">
        <ele>574.9</ele>
        <time>2020-07-05T15:25:22Z</time>
      </trkpt>
      <trkpt lat="46.72732" lon="5.95924">
        <ele>574.7</ele>
        <time>2020-07-05T15:25:27Z</time>
      </trkpt>
      <trkpt lat="46.72737" lon="5.95926">
        <ele>574.1</ele>
        <time>2020-07-05T15:25:32Z</time>
      </trkpt>
      <trkpt lat="46.72741" lon="5.95931">
        <ele>573.4</ele>
        <time>2020-07-05T15:25:37Z</time>
      </trkpt>
      <trkpt lat="46.72746" lon="5.95935">
        <ele>572.9</ele>
        <time>2020-07-05T15:25:41Z</time>
      </trkpt>
      <trkpt lat="46.72749" lon="5.95939">
        <ele>572.3</ele>
        <time>2020-07-05T15:25:48Z</time>
      </trkpt>
      <trkpt lat="46.72753" lon="5.95944">
        <ele>571.7</ele>
        <time>2020-07-05T15:25:54Z</time>
      </trkpt>
      <trkpt lat="46.72757" lon="5.95948">
        <ele>570.9</ele>
        <time>2020-07-05T15:26:00Z</time>
      </trkpt>
      <trkpt lat="46.72761" lon="5.95952">
        <ele>570.2</ele>
        <time>2020-07-05T15:26:07Z</time>
      </trkpt>
      <trkpt lat="46.72766" lon="5.95955">
        <ele>569.8</ele>
        <time>2020-07-05T15:26:12Z</time>
      </trkpt>
      <trkpt lat="46.72771" lon="5.95956">
        <ele>569.5</ele>
        <time>2020-07-05T15:26:16Z</time>
      </trkpt>
      <trkpt lat="46.72776" lon="5.95957">
        <ele>569.5</ele>
        <time>2020-07-05T15:26:20Z</time>
      </trkpt>
      <trkpt lat="46.72781" lon="5.95957">
        <ele>569.5</ele>
        <time>2020-07-05T15:26:23Z</time>
      </trkpt>
      <trkpt lat="46.72786" lon="5.95958">
        <ele>569.7</ele>
        <time>2020-07-05T15:26:27Z</time>
      </trkpt>
      <trkpt lat="46.72789" lon="5.95964">
        <ele>570.2</ele>
        <time>2020-07-05T15:26:34Z</time>
      </trkpt>
      <trkpt lat="46.72792" lon="5.95973">
        <ele>570.4</ele>
        <time>2020-07-05T15:26:45Z</time>
      </trkpt>
      <trkpt lat="46.72794" lon="5.9598">
        <ele>570.6</ele>
        <time>2020-07-05T15:26:49Z</time>
      </trkpt>
      <trkpt lat="46.72799" lon="5.95983">
        <ele>570.8</ele>
        <time>2020-07-05T15:26:53Z</time>
      </trkpt>
      <trkpt lat="46.72802" lon="5.95987">
        <ele>570.8</ele>
        <time>2020-07-05T15:26:56Z</time>
      </trkpt>
      <trkpt lat="46.72806" lon="5.95991">
        <ele>571</ele>
        <time>2020-07-05T15:27:00Z</time>
      </trkpt>
      <trkpt lat="46.7281" lon="5.95994">
        <ele>571.8</ele>
        <time>2020-07-05T15:27:04Z</time>
      </trkpt>
      <trkpt lat="46.72815" lon="5.95997">
        <ele>572.8</ele>
        <time>2020-07-05T15:27:08Z</time>
      </trkpt>
      <trkpt lat="46.7282" lon="5.96">
        <ele>574.5</ele>
        <time>2020-07-05T15:27:14Z</time>
      </trkpt>
      <trkpt lat="46.72824" lon="5.96004">
        <ele>575.4</ele>
        <time>2020-07-05T15:27:18Z</time>
      </trkpt>
      <trkpt lat="46.72829" lon="5.96008">
        <ele>575.8</ele>
        <time>2020-07-05T15:27:21Z</time>
      </trkpt>
      <trkpt lat="46.72833" lon="5.96012">
        <ele>576.5</ele>
        <time>2020-07-05T15:27:25Z</time>
      </trkpt>
      <trkpt lat="46.72838" lon="5.96013">
        <ele>577.5</ele>
        <time>2020-07-05T15:27:30Z</time>
      </trkpt>
      <trkpt lat="46.72838" lon="5.96023">
        <ele>579.4</ele>
        <time>2020-07-05T15:27:48Z</time>
      </trkpt>
      <trkpt lat="46.72836" lon="5.96029">
        <ele>578.2</ele>
        <time>2020-07-05T15:28:38Z</time>
      </trkpt>
      <trkpt lat="46.72836" lon="5.96036">
        <ele>578.1</ele>
        <time>2020-07-05T15:28:46Z</time>
      </trkpt>
      <trkpt lat="46.72841" lon="5.96035">
        <ele>577.9</ele>
        <time>2020-07-05T15:29:02Z</time>
      </trkpt>
      <trkpt lat="46.72837" lon="5.96036">
        <ele>579.3</ele>
        <time>2020-07-05T15:32:11Z</time>
      </trkpt>
    </trkseg>
  </trk>
</gpx>